<?xml version="1.0" encoding="UTF-8" standalone="no" ?>
<gpx xmlns="http://www.topografix.com/GPX/1/1" xmlns:xsi="http://www.w3.org/2001/XMLSchema-instance" xsi:schemaLocation="http://www.topografix.com/GPX/1/1 http://www.topografix.com/GPX/1/1/gpx.xsd" version="1.1" creator="VisuGPX - https://www.visugpx.com">
  <metadata>
    <name>497_Circuit 94 km Les Herbiers_Les Herbiers édité par cth85.com</name>
    <desc><![CDATA[Circuit de 94 kkm passant par:
Les Herbiers
rond point de la porcherie,
le gué jourdain,
le parc soubise, la bonnière,
D13 L'Oie
D60 Saint Martin des Noyers
D60 Fougeré
D60 Thorigny
D60, à gauche D88 Les Pineaux
D131 la chataigneraie, st ouen
D106, D52 saint vincent
la touche, l'angle guignard
le fuiteau, les chaffauds
Saint Vincent Sterlanges
Mouchamps par la tranchais
Les Herbiers]]></desc>
  </metadata>
  <trk>
    <name><![CDATA[94km_cth85.com]]></name>
    <extensions>
      <line xmlns="http://www.topografix.com/GPX/gpx_style/0/2">
        <color>0000FF</color>
        <width>4</width>
      </line>
    </extensions>
    <trkseg>
      <trkpt lat="46.86387" lon="-1.00559">
        <ele>119.1</ele>
        <time>2022-02-23T21:36:29Z</time>
      </trkpt>
      <trkpt lat="46.86381" lon="-1.00562">
        <ele>119.2</ele>
        <time>2022-02-23T21:36:30Z</time>
      </trkpt>
      <trkpt lat="46.86335" lon="-1.00614">
        <ele>118.2</ele>
        <time>2022-02-23T21:36:40Z</time>
      </trkpt>
      <trkpt lat="46.86315" lon="-1.00632">
        <ele>117.8</ele>
        <time>2022-02-23T21:36:45Z</time>
      </trkpt>
      <trkpt lat="46.8627" lon="-1.00662">
        <ele>117.3</ele>
        <time>2022-02-23T21:36:53Z</time>
      </trkpt>
      <trkpt lat="46.86234" lon="-1.00681">
        <ele>116.2</ele>
        <time>2022-02-23T21:37:00Z</time>
      </trkpt>
      <trkpt lat="46.86182" lon="-1.00705">
        <ele>115.6</ele>
        <time>2022-02-23T21:37:10Z</time>
      </trkpt>
      <trkpt lat="46.86138" lon="-1.00732">
        <ele>115.3</ele>
        <time>2022-02-23T21:37:18Z</time>
      </trkpt>
      <trkpt lat="46.86094" lon="-1.00769">
        <ele>114.6</ele>
        <time>2022-02-23T21:37:27Z</time>
      </trkpt>
      <trkpt lat="46.86055" lon="-1.00815">
        <ele>114</ele>
        <time>2022-02-23T21:37:36Z</time>
      </trkpt>
      <trkpt lat="46.85999" lon="-1.00892">
        <ele>113</ele>
        <time>2022-02-23T21:37:50Z</time>
      </trkpt>
      <trkpt lat="46.85963" lon="-1.00951">
        <ele>112.7</ele>
        <time>2022-02-23T21:38:00Z</time>
      </trkpt>
      <trkpt lat="46.85957" lon="-1.00972">
        <ele>113</ele>
        <time>2022-02-23T21:38:02Z</time>
      </trkpt>
      <trkpt lat="46.85958" lon="-1.00977">
        <ele>113</ele>
        <time>2022-02-23T21:38:03Z</time>
      </trkpt>
      <trkpt lat="46.85957" lon="-1.00982">
        <ele>113</ele>
        <time>2022-02-23T21:38:04Z</time>
      </trkpt>
      <trkpt lat="46.85954" lon="-1.00985">
        <ele>113</ele>
        <time>2022-02-23T21:38:04Z</time>
      </trkpt>
      <trkpt lat="46.8595" lon="-1.00985">
        <ele>113</ele>
        <time>2022-02-23T21:38:05Z</time>
      </trkpt>
      <trkpt lat="46.85946" lon="-1.00979">
        <ele>113</ele>
        <time>2022-02-23T21:38:06Z</time>
      </trkpt>
      <trkpt lat="46.85931" lon="-1.00971">
        <ele>113</ele>
        <time>2022-02-23T21:38:09Z</time>
      </trkpt>
      <trkpt lat="46.85879" lon="-1.00946">
        <ele>112.6</ele>
        <time>2022-02-23T21:38:19Z</time>
      </trkpt>
      <trkpt lat="46.85858" lon="-1.00941">
        <ele>112</ele>
        <time>2022-02-23T21:38:22Z</time>
      </trkpt>
      <trkpt lat="46.85854" lon="-1.00943">
        <ele>112</ele>
        <time>2022-02-23T21:38:23Z</time>
      </trkpt>
      <trkpt lat="46.8585" lon="-1.0095">
        <ele>112</ele>
        <time>2022-02-23T21:38:24Z</time>
      </trkpt>
      <trkpt lat="46.85846" lon="-1.00969">
        <ele>112</ele>
        <time>2022-02-23T21:38:27Z</time>
      </trkpt>
      <trkpt lat="46.85826" lon="-1.01044">
        <ele>111</ele>
        <time>2022-02-23T21:38:37Z</time>
      </trkpt>
      <trkpt lat="46.85816" lon="-1.01095">
        <ele>111</ele>
        <time>2022-02-23T21:38:43Z</time>
      </trkpt>
      <trkpt lat="46.8581" lon="-1.01143">
        <ele>110.8</ele>
        <time>2022-02-23T21:38:49Z</time>
      </trkpt>
      <trkpt lat="46.85808" lon="-1.01187">
        <ele>110.2</ele>
        <time>2022-02-23T21:38:54Z</time>
      </trkpt>
      <trkpt lat="46.85809" lon="-1.01235">
        <ele>110</ele>
        <time>2022-02-23T21:39:00Z</time>
      </trkpt>
      <trkpt lat="46.85816" lon="-1.01287">
        <ele>110</ele>
        <time>2022-02-23T21:39:07Z</time>
      </trkpt>
      <trkpt lat="46.85823" lon="-1.01322">
        <ele>109.8</ele>
        <time>2022-02-23T21:39:11Z</time>
      </trkpt>
      <trkpt lat="46.85838" lon="-1.01378">
        <ele>110.2</ele>
        <time>2022-02-23T21:39:18Z</time>
      </trkpt>
      <trkpt lat="46.85856" lon="-1.01431">
        <ele>110.7</ele>
        <time>2022-02-23T21:39:26Z</time>
      </trkpt>
      <trkpt lat="46.85866" lon="-1.01449">
        <ele>111</ele>
        <time>2022-02-23T21:39:28Z</time>
      </trkpt>
      <trkpt lat="46.85872" lon="-1.01456">
        <ele>111</ele>
        <time>2022-02-23T21:39:30Z</time>
      </trkpt>
      <trkpt lat="46.85874" lon="-1.01466">
        <ele>111</ele>
        <time>2022-02-23T21:39:31Z</time>
      </trkpt>
      <trkpt lat="46.85874" lon="-1.01471">
        <ele>111</ele>
        <time>2022-02-23T21:39:32Z</time>
      </trkpt>
      <trkpt lat="46.85868" lon="-1.01482">
        <ele>110.6</ele>
        <time>2022-02-23T21:39:33Z</time>
      </trkpt>
      <trkpt lat="46.85862" lon="-1.01485">
        <ele>110.5</ele>
        <time>2022-02-23T21:39:34Z</time>
      </trkpt>
      <trkpt lat="46.85857" lon="-1.01484">
        <ele>110.5</ele>
        <time>2022-02-23T21:39:35Z</time>
      </trkpt>
      <trkpt lat="46.85853" lon="-1.0148">
        <ele>110.5</ele>
        <time>2022-02-23T21:39:36Z</time>
      </trkpt>
      <trkpt lat="46.85839" lon="-1.01486">
        <ele>110.1</ele>
        <time>2022-02-23T21:39:39Z</time>
      </trkpt>
      <trkpt lat="46.85817" lon="-1.01502">
        <ele>110</ele>
        <time>2022-02-23T21:39:43Z</time>
      </trkpt>
      <trkpt lat="46.85763" lon="-1.01551">
        <ele>109.5</ele>
        <time>2022-02-23T21:39:54Z</time>
      </trkpt>
      <trkpt lat="46.85758" lon="-1.01558">
        <ele>109.3</ele>
        <time>2022-02-23T21:39:56Z</time>
      </trkpt>
      <trkpt lat="46.85753" lon="-1.0156">
        <ele>109.1</ele>
        <time>2022-02-23T21:39:57Z</time>
      </trkpt>
      <trkpt lat="46.8574" lon="-1.01575">
        <ele>108.6</ele>
        <time>2022-02-23T21:40:00Z</time>
      </trkpt>
      <trkpt lat="46.85725" lon="-1.01587">
        <ele>108.1</ele>
        <time>2022-02-23T21:40:03Z</time>
      </trkpt>
      <trkpt lat="46.85678" lon="-1.01619">
        <ele>106.8</ele>
        <time>2022-02-23T21:40:12Z</time>
      </trkpt>
      <trkpt lat="46.85654" lon="-1.01633">
        <ele>106</ele>
        <time>2022-02-23T21:40:16Z</time>
      </trkpt>
      <trkpt lat="46.85507" lon="-1.01729">
        <ele>100.9</ele>
        <time>2022-02-23T21:40:45Z</time>
      </trkpt>
      <trkpt lat="46.85466" lon="-1.01748">
        <ele>101.2</ele>
        <time>2022-02-23T21:40:53Z</time>
      </trkpt>
      <trkpt lat="46.85422" lon="-1.01763">
        <ele>102.3</ele>
        <time>2022-02-23T21:41:01Z</time>
      </trkpt>
      <trkpt lat="46.85386" lon="-1.01771">
        <ele>104.1</ele>
        <time>2022-02-23T21:41:07Z</time>
      </trkpt>
      <trkpt lat="46.85356" lon="-1.01773">
        <ele>105.2</ele>
        <time>2022-02-23T21:41:13Z</time>
      </trkpt>
      <trkpt lat="46.85308" lon="-1.01771">
        <ele>107.8</ele>
        <time>2022-02-23T21:41:21Z</time>
      </trkpt>
      <trkpt lat="46.85263" lon="-1.01762">
        <ele>109.3</ele>
        <time>2022-02-23T21:41:29Z</time>
      </trkpt>
      <trkpt lat="46.85222" lon="-1.01748">
        <ele>111.1</ele>
        <time>2022-02-23T21:41:37Z</time>
      </trkpt>
      <trkpt lat="46.85171" lon="-1.01721">
        <ele>112.9</ele>
        <time>2022-02-23T21:41:46Z</time>
      </trkpt>
      <trkpt lat="46.85016" lon="-1.01612">
        <ele>116</ele>
        <time>2022-02-23T21:42:17Z</time>
      </trkpt>
      <trkpt lat="46.84962" lon="-1.01586">
        <ele>115.7</ele>
        <time>2022-02-23T21:42:27Z</time>
      </trkpt>
      <trkpt lat="46.84935" lon="-1.01577">
        <ele>114.9</ele>
        <time>2022-02-23T21:42:32Z</time>
      </trkpt>
      <trkpt lat="46.84899" lon="-1.01569">
        <ele>114.2</ele>
        <time>2022-02-23T21:42:39Z</time>
      </trkpt>
      <trkpt lat="46.84657" lon="-1.01541">
        <ele>108.4</ele>
        <time>2022-02-23T21:43:22Z</time>
      </trkpt>
      <trkpt lat="46.84579" lon="-1.01522">
        <ele>109.2</ele>
        <time>2022-02-23T21:43:36Z</time>
      </trkpt>
      <trkpt lat="46.84574" lon="-1.01537">
        <ele>109.2</ele>
        <time>2022-02-23T21:43:38Z</time>
      </trkpt>
      <trkpt lat="46.84565" lon="-1.01546">
        <ele>109.2</ele>
        <time>2022-02-23T21:43:40Z</time>
      </trkpt>
      <trkpt lat="46.84554" lon="-1.01546">
        <ele>109.5</ele>
        <time>2022-02-23T21:43:42Z</time>
      </trkpt>
      <trkpt lat="46.84548" lon="-1.01543">
        <ele>109.9</ele>
        <time>2022-02-23T21:43:43Z</time>
      </trkpt>
      <trkpt lat="46.8454" lon="-1.0153">
        <ele>110.1</ele>
        <time>2022-02-23T21:43:45Z</time>
      </trkpt>
      <trkpt lat="46.84539" lon="-1.01512">
        <ele>109.7</ele>
        <time>2022-02-23T21:43:47Z</time>
      </trkpt>
      <trkpt lat="46.84522" lon="-1.01506">
        <ele>109.4</ele>
        <time>2022-02-23T21:43:50Z</time>
      </trkpt>
      <trkpt lat="46.84511" lon="-1.01492">
        <ele>109.7</ele>
        <time>2022-02-23T21:43:53Z</time>
      </trkpt>
      <trkpt lat="46.84498" lon="-1.01511">
        <ele>110.4</ele>
        <time>2022-02-23T21:43:56Z</time>
      </trkpt>
      <trkpt lat="46.84492" lon="-1.01535">
        <ele>111.2</ele>
        <time>2022-02-23T21:43:59Z</time>
      </trkpt>
      <trkpt lat="46.84491" lon="-1.01563">
        <ele>111.5</ele>
        <time>2022-02-23T21:44:03Z</time>
      </trkpt>
      <trkpt lat="46.84494" lon="-1.01579">
        <ele>111.1</ele>
        <time>2022-02-23T21:44:05Z</time>
      </trkpt>
      <trkpt lat="46.84499" lon="-1.01594">
        <ele>111</ele>
        <time>2022-02-23T21:44:07Z</time>
      </trkpt>
      <trkpt lat="46.84511" lon="-1.01619">
        <ele>111.5</ele>
        <time>2022-02-23T21:44:10Z</time>
      </trkpt>
      <trkpt lat="46.84533" lon="-1.01657">
        <ele>110.1</ele>
        <time>2022-02-23T21:44:16Z</time>
      </trkpt>
      <trkpt lat="46.84549" lon="-1.01687">
        <ele>109.3</ele>
        <time>2022-02-23T21:44:21Z</time>
      </trkpt>
      <trkpt lat="46.84555" lon="-1.01712">
        <ele>108.4</ele>
        <time>2022-02-23T21:44:24Z</time>
      </trkpt>
      <trkpt lat="46.84562" lon="-1.01761">
        <ele>107.5</ele>
        <time>2022-02-23T21:44:30Z</time>
      </trkpt>
      <trkpt lat="46.84607" lon="-1.02311">
        <ele>113.9</ele>
        <time>2022-02-23T21:45:38Z</time>
      </trkpt>
      <trkpt lat="46.84607" lon="-1.02343">
        <ele>113.9</ele>
        <time>2022-02-23T21:45:42Z</time>
      </trkpt>
      <trkpt lat="46.84603" lon="-1.02367">
        <ele>114</ele>
        <time>2022-02-23T21:45:45Z</time>
      </trkpt>
      <trkpt lat="46.84573" lon="-1.02476">
        <ele>114.5</ele>
        <time>2022-02-23T21:45:59Z</time>
      </trkpt>
      <trkpt lat="46.84548" lon="-1.0256">
        <ele>113.7</ele>
        <time>2022-02-23T21:46:10Z</time>
      </trkpt>
      <trkpt lat="46.84516" lon="-1.02659">
        <ele>113</ele>
        <time>2022-02-23T21:46:24Z</time>
      </trkpt>
      <trkpt lat="46.84495" lon="-1.02735">
        <ele>113</ele>
        <time>2022-02-23T21:46:33Z</time>
      </trkpt>
      <trkpt lat="46.84486" lon="-1.02776">
        <ele>113</ele>
        <time>2022-02-23T21:46:39Z</time>
      </trkpt>
      <trkpt lat="46.84467" lon="-1.02883">
        <ele>112</ele>
        <time>2022-02-23T21:46:52Z</time>
      </trkpt>
      <trkpt lat="46.84473" lon="-1.02984">
        <ele>112</ele>
        <time>2022-02-23T21:47:05Z</time>
      </trkpt>
      <trkpt lat="46.84488" lon="-1.03167">
        <ele>112</ele>
        <time>2022-02-23T21:47:27Z</time>
      </trkpt>
      <trkpt lat="46.84483" lon="-1.03207">
        <ele>111.5</ele>
        <time>2022-02-23T21:47:32Z</time>
      </trkpt>
      <trkpt lat="46.84466" lon="-1.03247">
        <ele>110.8</ele>
        <time>2022-02-23T21:47:38Z</time>
      </trkpt>
      <trkpt lat="46.84452" lon="-1.03297">
        <ele>111</ele>
        <time>2022-02-23T21:47:44Z</time>
      </trkpt>
      <trkpt lat="46.84435" lon="-1.03353">
        <ele>110.5</ele>
        <time>2022-02-23T21:47:52Z</time>
      </trkpt>
      <trkpt lat="46.84397" lon="-1.03446">
        <ele>110</ele>
        <time>2022-02-23T21:48:05Z</time>
      </trkpt>
      <trkpt lat="46.8438" lon="-1.035">
        <ele>110</ele>
        <time>2022-02-23T21:48:12Z</time>
      </trkpt>
      <trkpt lat="46.84348" lon="-1.03666">
        <ele>110</ele>
        <time>2022-02-23T21:48:33Z</time>
      </trkpt>
      <trkpt lat="46.84333" lon="-1.03764">
        <ele>110</ele>
        <time>2022-02-23T21:48:45Z</time>
      </trkpt>
      <trkpt lat="46.84289" lon="-1.04135">
        <ele>109.3</ele>
        <time>2022-02-23T21:49:31Z</time>
      </trkpt>
      <trkpt lat="46.84287" lon="-1.04214">
        <ele>109.1</ele>
        <time>2022-02-23T21:49:41Z</time>
      </trkpt>
      <trkpt lat="46.84289" lon="-1.04288">
        <ele>108.6</ele>
        <time>2022-02-23T21:49:50Z</time>
      </trkpt>
      <trkpt lat="46.843" lon="-1.04375">
        <ele>108</ele>
        <time>2022-02-23T21:50:01Z</time>
      </trkpt>
      <trkpt lat="46.84317" lon="-1.04461">
        <ele>108</ele>
        <time>2022-02-23T21:50:11Z</time>
      </trkpt>
      <trkpt lat="46.84361" lon="-1.04629">
        <ele>108</ele>
        <time>2022-02-23T21:50:33Z</time>
      </trkpt>
      <trkpt lat="46.84365" lon="-1.04656">
        <ele>108</ele>
        <time>2022-02-23T21:50:37Z</time>
      </trkpt>
      <trkpt lat="46.84365" lon="-1.04695">
        <ele>108</ele>
        <time>2022-02-23T21:50:41Z</time>
      </trkpt>
      <trkpt lat="46.84363" lon="-1.04722">
        <ele>108</ele>
        <time>2022-02-23T21:50:45Z</time>
      </trkpt>
      <trkpt lat="46.84355" lon="-1.04749">
        <ele>107.8</ele>
        <time>2022-02-23T21:50:48Z</time>
      </trkpt>
      <trkpt lat="46.84331" lon="-1.04787">
        <ele>107</ele>
        <time>2022-02-23T21:50:55Z</time>
      </trkpt>
      <trkpt lat="46.84305" lon="-1.0482">
        <ele>106</ele>
        <time>2022-02-23T21:51:01Z</time>
      </trkpt>
      <trkpt lat="46.84279" lon="-1.04849">
        <ele>106</ele>
        <time>2022-02-23T21:51:07Z</time>
      </trkpt>
      <trkpt lat="46.84058" lon="-1.0499">
        <ele>98.1</ele>
        <time>2022-02-23T21:51:49Z</time>
      </trkpt>
      <trkpt lat="46.83978" lon="-1.05034">
        <ele>93.3</ele>
        <time>2022-02-23T21:52:05Z</time>
      </trkpt>
      <trkpt lat="46.83913" lon="-1.05049">
        <ele>92</ele>
        <time>2022-02-23T21:52:16Z</time>
      </trkpt>
      <trkpt lat="46.83815" lon="-1.05077">
        <ele>94.2</ele>
        <time>2022-02-23T21:52:34Z</time>
      </trkpt>
      <trkpt lat="46.83791" lon="-1.05086">
        <ele>95.1</ele>
        <time>2022-02-23T21:52:39Z</time>
      </trkpt>
      <trkpt lat="46.83768" lon="-1.05106">
        <ele>96.1</ele>
        <time>2022-02-23T21:52:43Z</time>
      </trkpt>
      <trkpt lat="46.8374" lon="-1.05124">
        <ele>96.7</ele>
        <time>2022-02-23T21:52:49Z</time>
      </trkpt>
      <trkpt lat="46.83718" lon="-1.05134">
        <ele>97.2</ele>
        <time>2022-02-23T21:52:53Z</time>
      </trkpt>
      <trkpt lat="46.83436" lon="-1.05196">
        <ele>106.3</ele>
        <time>2022-02-23T21:53:44Z</time>
      </trkpt>
      <trkpt lat="46.83315" lon="-1.05247">
        <ele>107</ele>
        <time>2022-02-23T21:54:06Z</time>
      </trkpt>
      <trkpt lat="46.83288" lon="-1.05117">
        <ele>106.4</ele>
        <time>2022-02-23T21:54:23Z</time>
      </trkpt>
      <trkpt lat="46.83203" lon="-1.05146">
        <ele>104.8</ele>
        <time>2022-02-23T21:54:38Z</time>
      </trkpt>
      <trkpt lat="46.82988" lon="-1.05205">
        <ele>99.4</ele>
        <time>2022-02-23T21:55:17Z</time>
      </trkpt>
      <trkpt lat="46.82935" lon="-1.05211">
        <ele>98.7</ele>
        <time>2022-02-23T21:55:26Z</time>
      </trkpt>
      <trkpt lat="46.82888" lon="-1.05223">
        <ele>98</ele>
        <time>2022-02-23T21:55:35Z</time>
      </trkpt>
      <trkpt lat="46.82853" lon="-1.05241">
        <ele>98.3</ele>
        <time>2022-02-23T21:55:42Z</time>
      </trkpt>
      <trkpt lat="46.82633" lon="-1.05345">
        <ele>101</ele>
        <time>2022-02-23T21:56:23Z</time>
      </trkpt>
      <trkpt lat="46.82102" lon="-1.05592">
        <ele>106.5</ele>
        <time>2022-02-23T21:58:02Z</time>
      </trkpt>
      <trkpt lat="46.82039" lon="-1.05625">
        <ele>105.2</ele>
        <time>2022-02-23T21:58:14Z</time>
      </trkpt>
      <trkpt lat="46.81923" lon="-1.05676">
        <ele>103.2</ele>
        <time>2022-02-23T21:58:35Z</time>
      </trkpt>
      <trkpt lat="46.81876" lon="-1.0568">
        <ele>103.2</ele>
        <time>2022-02-23T21:58:44Z</time>
      </trkpt>
      <trkpt lat="46.81645" lon="-1.05652">
        <ele>105</ele>
        <time>2022-02-23T21:59:25Z</time>
      </trkpt>
      <trkpt lat="46.81562" lon="-1.05631">
        <ele>106</ele>
        <time>2022-02-23T21:59:40Z</time>
      </trkpt>
      <trkpt lat="46.81504" lon="-1.05612">
        <ele>106.8</ele>
        <time>2022-02-23T21:59:50Z</time>
      </trkpt>
      <trkpt lat="46.81284" lon="-1.05519">
        <ele>106.2</ele>
        <time>2022-02-23T22:00:31Z</time>
      </trkpt>
      <trkpt lat="46.81234" lon="-1.05501">
        <ele>106</ele>
        <time>2022-02-23T22:00:40Z</time>
      </trkpt>
      <trkpt lat="46.81145" lon="-1.05477">
        <ele>104.5</ele>
        <time>2022-02-23T22:00:56Z</time>
      </trkpt>
      <trkpt lat="46.81049" lon="-1.05457">
        <ele>101.7</ele>
        <time>2022-02-23T22:01:14Z</time>
      </trkpt>
      <trkpt lat="46.81007" lon="-1.05459">
        <ele>100.3</ele>
        <time>2022-02-23T22:01:21Z</time>
      </trkpt>
      <trkpt lat="46.80966" lon="-1.05438">
        <ele>98.9</ele>
        <time>2022-02-23T22:01:29Z</time>
      </trkpt>
      <trkpt lat="46.80927" lon="-1.05424">
        <ele>97.8</ele>
        <time>2022-02-23T22:01:36Z</time>
      </trkpt>
      <trkpt lat="46.80883" lon="-1.05433">
        <ele>96.8</ele>
        <time>2022-02-23T22:01:44Z</time>
      </trkpt>
      <trkpt lat="46.80841" lon="-1.0546">
        <ele>95.8</ele>
        <time>2022-02-23T22:01:52Z</time>
      </trkpt>
      <trkpt lat="46.80742" lon="-1.05581">
        <ele>94.4</ele>
        <time>2022-02-23T22:02:15Z</time>
      </trkpt>
      <trkpt lat="46.80695" lon="-1.05634">
        <ele>93.8</ele>
        <time>2022-02-23T22:02:26Z</time>
      </trkpt>
      <trkpt lat="46.80589" lon="-1.05729">
        <ele>94.4</ele>
        <time>2022-02-23T22:02:48Z</time>
      </trkpt>
      <trkpt lat="46.80548" lon="-1.05792">
        <ele>94</ele>
        <time>2022-02-23T22:02:58Z</time>
      </trkpt>
      <trkpt lat="46.80505" lon="-1.05841">
        <ele>92.6</ele>
        <time>2022-02-23T22:03:08Z</time>
      </trkpt>
      <trkpt lat="46.80531" lon="-1.05893">
        <ele>94.2</ele>
        <time>2022-02-23T22:03:16Z</time>
      </trkpt>
      <trkpt lat="46.806" lon="-1.06041">
        <ele>99.2</ele>
        <time>2022-02-23T22:03:38Z</time>
      </trkpt>
      <trkpt lat="46.80655" lon="-1.06154">
        <ele>102.6</ele>
        <time>2022-02-23T22:03:55Z</time>
      </trkpt>
      <trkpt lat="46.80675" lon="-1.06182">
        <ele>103.3</ele>
        <time>2022-02-23T22:04:00Z</time>
      </trkpt>
      <trkpt lat="46.80688" lon="-1.06192">
        <ele>103.8</ele>
        <time>2022-02-23T22:04:02Z</time>
      </trkpt>
      <trkpt lat="46.807" lon="-1.06194">
        <ele>104</ele>
        <time>2022-02-23T22:04:04Z</time>
      </trkpt>
      <trkpt lat="46.80759" lon="-1.06196">
        <ele>104</ele>
        <time>2022-02-23T22:04:15Z</time>
      </trkpt>
      <trkpt lat="46.80797" lon="-1.0621">
        <ele>104</ele>
        <time>2022-02-23T22:04:22Z</time>
      </trkpt>
      <trkpt lat="46.80823" lon="-1.0623">
        <ele>104</ele>
        <time>2022-02-23T22:04:27Z</time>
      </trkpt>
      <trkpt lat="46.80855" lon="-1.06263">
        <ele>104</ele>
        <time>2022-02-23T22:04:34Z</time>
      </trkpt>
      <trkpt lat="46.8093" lon="-1.06314">
        <ele>104</ele>
        <time>2022-02-23T22:04:49Z</time>
      </trkpt>
      <trkpt lat="46.80976" lon="-1.06353">
        <ele>104.3</ele>
        <time>2022-02-23T22:04:58Z</time>
      </trkpt>
      <trkpt lat="46.80997" lon="-1.06377">
        <ele>104</ele>
        <time>2022-02-23T22:05:03Z</time>
      </trkpt>
      <trkpt lat="46.81029" lon="-1.06424">
        <ele>104</ele>
        <time>2022-02-23T22:05:11Z</time>
      </trkpt>
      <trkpt lat="46.8104" lon="-1.06444">
        <ele>104</ele>
        <time>2022-02-23T22:05:14Z</time>
      </trkpt>
      <trkpt lat="46.81062" lon="-1.0649">
        <ele>104</ele>
        <time>2022-02-23T22:05:21Z</time>
      </trkpt>
      <trkpt lat="46.8107" lon="-1.06499">
        <ele>104</ele>
        <time>2022-02-23T22:05:23Z</time>
      </trkpt>
      <trkpt lat="46.8108" lon="-1.06505">
        <ele>104</ele>
        <time>2022-02-23T22:05:25Z</time>
      </trkpt>
      <trkpt lat="46.81093" lon="-1.0651">
        <ele>104</ele>
        <time>2022-02-23T22:05:27Z</time>
      </trkpt>
      <trkpt lat="46.81159" lon="-1.06508">
        <ele>104</ele>
        <time>2022-02-23T22:05:39Z</time>
      </trkpt>
      <trkpt lat="46.81204" lon="-1.06511">
        <ele>104</ele>
        <time>2022-02-23T22:05:47Z</time>
      </trkpt>
      <trkpt lat="46.8122" lon="-1.06514">
        <ele>104</ele>
        <time>2022-02-23T22:05:50Z</time>
      </trkpt>
      <trkpt lat="46.81231" lon="-1.0652">
        <ele>103.7</ele>
        <time>2022-02-23T22:05:52Z</time>
      </trkpt>
      <trkpt lat="46.81236" lon="-1.06531">
        <ele>103.6</ele>
        <time>2022-02-23T22:05:53Z</time>
      </trkpt>
      <trkpt lat="46.81238" lon="-1.06543">
        <ele>103.7</ele>
        <time>2022-02-23T22:05:55Z</time>
      </trkpt>
      <trkpt lat="46.8123" lon="-1.06579">
        <ele>103.4</ele>
        <time>2022-02-23T22:06:00Z</time>
      </trkpt>
      <trkpt lat="46.81215" lon="-1.06626">
        <ele>103</ele>
        <time>2022-02-23T22:06:06Z</time>
      </trkpt>
      <trkpt lat="46.81205" lon="-1.06671">
        <ele>102.8</ele>
        <time>2022-02-23T22:06:12Z</time>
      </trkpt>
      <trkpt lat="46.81209" lon="-1.06698">
        <ele>102</ele>
        <time>2022-02-23T22:06:15Z</time>
      </trkpt>
      <trkpt lat="46.8123" lon="-1.06763">
        <ele>102</ele>
        <time>2022-02-23T22:06:24Z</time>
      </trkpt>
      <trkpt lat="46.80982" lon="-1.06982">
        <ele>97</ele>
        <time>2022-02-23T22:07:15Z</time>
      </trkpt>
      <trkpt lat="46.80967" lon="-1.06998">
        <ele>96.8</ele>
        <time>2022-02-23T22:07:19Z</time>
      </trkpt>
      <trkpt lat="46.80926" lon="-1.07056">
        <ele>95</ele>
        <time>2022-02-23T22:07:29Z</time>
      </trkpt>
      <trkpt lat="46.8091" lon="-1.07069">
        <ele>95</ele>
        <time>2022-02-23T22:07:32Z</time>
      </trkpt>
      <trkpt lat="46.80877" lon="-1.07071">
        <ele>95.2</ele>
        <time>2022-02-23T22:07:38Z</time>
      </trkpt>
      <trkpt lat="46.80655" lon="-1.07044">
        <ele>96.2</ele>
        <time>2022-02-23T22:08:17Z</time>
      </trkpt>
      <trkpt lat="46.80517" lon="-1.07032">
        <ele>96.8</ele>
        <time>2022-02-23T22:08:42Z</time>
      </trkpt>
      <trkpt lat="46.80317" lon="-1.07008">
        <ele>101.4</ele>
        <time>2022-02-23T22:09:18Z</time>
      </trkpt>
      <trkpt lat="46.80289" lon="-1.07008">
        <ele>101.9</ele>
        <time>2022-02-23T22:09:23Z</time>
      </trkpt>
      <trkpt lat="46.80284" lon="-1.0701">
        <ele>101.9</ele>
        <time>2022-02-23T22:09:24Z</time>
      </trkpt>
      <trkpt lat="46.80278" lon="-1.07027">
        <ele>102</ele>
        <time>2022-02-23T22:09:26Z</time>
      </trkpt>
      <trkpt lat="46.80273" lon="-1.07062">
        <ele>101.6</ele>
        <time>2022-02-23T22:09:30Z</time>
      </trkpt>
      <trkpt lat="46.8027" lon="-1.07105">
        <ele>101</ele>
        <time>2022-02-23T22:09:36Z</time>
      </trkpt>
      <trkpt lat="46.80265" lon="-1.07149">
        <ele>101</ele>
        <time>2022-02-23T22:09:41Z</time>
      </trkpt>
      <trkpt lat="46.80214" lon="-1.07435">
        <ele>100.8</ele>
        <time>2022-02-23T22:10:17Z</time>
      </trkpt>
      <trkpt lat="46.80184" lon="-1.07624">
        <ele>102</ele>
        <time>2022-02-23T22:10:41Z</time>
      </trkpt>
      <trkpt lat="46.80178" lon="-1.07731">
        <ele>102</ele>
        <time>2022-02-23T22:10:54Z</time>
      </trkpt>
      <trkpt lat="46.80176" lon="-1.07798">
        <ele>101</ele>
        <time>2022-02-23T22:11:02Z</time>
      </trkpt>
      <trkpt lat="46.80179" lon="-1.0789">
        <ele>100.4</ele>
        <time>2022-02-23T22:11:13Z</time>
      </trkpt>
      <trkpt lat="46.80191" lon="-1.07969">
        <ele>100.9</ele>
        <time>2022-02-23T22:11:23Z</time>
      </trkpt>
      <trkpt lat="46.80346" lon="-1.0863">
        <ele>98</ele>
        <time>2022-02-23T22:12:48Z</time>
      </trkpt>
      <trkpt lat="46.80375" lon="-1.08761">
        <ele>96.5</ele>
        <time>2022-02-23T22:13:05Z</time>
      </trkpt>
      <trkpt lat="46.80388" lon="-1.08791">
        <ele>96</ele>
        <time>2022-02-23T22:13:09Z</time>
      </trkpt>
      <trkpt lat="46.8041" lon="-1.08819">
        <ele>95.2</ele>
        <time>2022-02-23T22:13:14Z</time>
      </trkpt>
      <trkpt lat="46.8043" lon="-1.08842">
        <ele>94.5</ele>
        <time>2022-02-23T22:13:19Z</time>
      </trkpt>
      <trkpt lat="46.80383" lon="-1.08913">
        <ele>97.9</ele>
        <time>2022-02-23T22:13:31Z</time>
      </trkpt>
      <trkpt lat="46.80355" lon="-1.08979">
        <ele>98.8</ele>
        <time>2022-02-23T22:13:40Z</time>
      </trkpt>
      <trkpt lat="46.80175" lon="-1.09347">
        <ele>91.2</ele>
        <time>2022-02-23T22:14:36Z</time>
      </trkpt>
      <trkpt lat="46.80127" lon="-1.09457">
        <ele>89.8</ele>
        <time>2022-02-23T22:14:51Z</time>
      </trkpt>
      <trkpt lat="46.80112" lon="-1.09496">
        <ele>90</ele>
        <time>2022-02-23T22:14:57Z</time>
      </trkpt>
      <trkpt lat="46.80098" lon="-1.09526">
        <ele>89.6</ele>
        <time>2022-02-23T22:15:01Z</time>
      </trkpt>
      <trkpt lat="46.80082" lon="-1.09554">
        <ele>89.9</ele>
        <time>2022-02-23T22:15:06Z</time>
      </trkpt>
      <trkpt lat="46.8002" lon="-1.09623">
        <ele>90.1</ele>
        <time>2022-02-23T22:15:20Z</time>
      </trkpt>
      <trkpt lat="46.79828" lon="-1.09735">
        <ele>90.3</ele>
        <time>2022-02-23T22:15:56Z</time>
      </trkpt>
      <trkpt lat="46.7971" lon="-1.09779">
        <ele>88.1</ele>
        <time>2022-02-23T22:16:18Z</time>
      </trkpt>
      <trkpt lat="46.79662" lon="-1.09826">
        <ele>84.5</ele>
        <time>2022-02-23T22:16:28Z</time>
      </trkpt>
      <trkpt lat="46.79589" lon="-1.09853">
        <ele>80.9</ele>
        <time>2022-02-23T22:16:42Z</time>
      </trkpt>
      <trkpt lat="46.79509" lon="-1.09867">
        <ele>82.8</ele>
        <time>2022-02-23T22:16:56Z</time>
      </trkpt>
      <trkpt lat="46.79403" lon="-1.09868">
        <ele>87.5</ele>
        <time>2022-02-23T22:17:15Z</time>
      </trkpt>
      <trkpt lat="46.79263" lon="-1.09979">
        <ele>96.6</ele>
        <time>2022-02-23T22:17:43Z</time>
      </trkpt>
      <trkpt lat="46.79243" lon="-1.10033">
        <ele>97.9</ele>
        <time>2022-02-23T22:17:51Z</time>
      </trkpt>
      <trkpt lat="46.79188" lon="-1.10128">
        <ele>100.9</ele>
        <time>2022-02-23T22:18:06Z</time>
      </trkpt>
      <trkpt lat="46.79196" lon="-1.10137">
        <ele>101</ele>
        <time>2022-02-23T22:18:08Z</time>
      </trkpt>
      <trkpt lat="46.79217" lon="-1.10152">
        <ele>101</ele>
        <time>2022-02-23T22:18:12Z</time>
      </trkpt>
      <trkpt lat="46.79233" lon="-1.10168">
        <ele>100.6</ele>
        <time>2022-02-23T22:18:15Z</time>
      </trkpt>
      <trkpt lat="46.7928" lon="-1.10271">
        <ele>98.9</ele>
        <time>2022-02-23T22:18:30Z</time>
      </trkpt>
      <trkpt lat="46.7932" lon="-1.10343">
        <ele>95.1</ele>
        <time>2022-02-23T22:18:42Z</time>
      </trkpt>
      <trkpt lat="46.79342" lon="-1.1037">
        <ele>92.7</ele>
        <time>2022-02-23T22:18:47Z</time>
      </trkpt>
      <trkpt lat="46.7936" lon="-1.10386">
        <ele>90.5</ele>
        <time>2022-02-23T22:18:51Z</time>
      </trkpt>
      <trkpt lat="46.7938" lon="-1.10389">
        <ele>89.3</ele>
        <time>2022-02-23T22:18:54Z</time>
      </trkpt>
      <trkpt lat="46.79399" lon="-1.10386">
        <ele>86.7</ele>
        <time>2022-02-23T22:18:58Z</time>
      </trkpt>
      <trkpt lat="46.79454" lon="-1.10357">
        <ele>84.1</ele>
        <time>2022-02-23T22:19:08Z</time>
      </trkpt>
      <trkpt lat="46.79478" lon="-1.10352">
        <ele>81.3</ele>
        <time>2022-02-23T22:19:12Z</time>
      </trkpt>
      <trkpt lat="46.795" lon="-1.10355">
        <ele>79.7</ele>
        <time>2022-02-23T22:19:16Z</time>
      </trkpt>
      <trkpt lat="46.79517" lon="-1.10368">
        <ele>77.3</ele>
        <time>2022-02-23T22:19:20Z</time>
      </trkpt>
      <trkpt lat="46.79529" lon="-1.10387">
        <ele>77</ele>
        <time>2022-02-23T22:19:23Z</time>
      </trkpt>
      <trkpt lat="46.7954" lon="-1.10409">
        <ele>76.7</ele>
        <time>2022-02-23T22:19:26Z</time>
      </trkpt>
      <trkpt lat="46.79552" lon="-1.10446">
        <ele>82</ele>
        <time>2022-02-23T22:19:31Z</time>
      </trkpt>
      <trkpt lat="46.79555" lon="-1.1048">
        <ele>84.9</ele>
        <time>2022-02-23T22:19:35Z</time>
      </trkpt>
      <trkpt lat="46.79546" lon="-1.10523">
        <ele>89.9</ele>
        <time>2022-02-23T22:19:41Z</time>
      </trkpt>
      <trkpt lat="46.79458" lon="-1.10756">
        <ele>102.2</ele>
        <time>2022-02-23T22:20:13Z</time>
      </trkpt>
      <trkpt lat="46.79449" lon="-1.10786">
        <ele>104</ele>
        <time>2022-02-23T22:20:17Z</time>
      </trkpt>
      <trkpt lat="46.79447" lon="-1.10812">
        <ele>105</ele>
        <time>2022-02-23T22:20:20Z</time>
      </trkpt>
      <trkpt lat="46.7945" lon="-1.10849">
        <ele>105.6</ele>
        <time>2022-02-23T22:20:25Z</time>
      </trkpt>
      <trkpt lat="46.79567" lon="-1.11577">
        <ele>108.6</ele>
        <time>2022-02-23T22:21:56Z</time>
      </trkpt>
      <trkpt lat="46.79634" lon="-1.11973">
        <ele>108</ele>
        <time>2022-02-23T22:22:46Z</time>
      </trkpt>
      <trkpt lat="46.79664" lon="-1.12159">
        <ele>109</ele>
        <time>2022-02-23T22:23:09Z</time>
      </trkpt>
      <trkpt lat="46.79687" lon="-1.12308">
        <ele>108.2</ele>
        <time>2022-02-23T22:23:27Z</time>
      </trkpt>
      <trkpt lat="46.79696" lon="-1.12351">
        <ele>107.9</ele>
        <time>2022-02-23T22:23:33Z</time>
      </trkpt>
      <trkpt lat="46.79758" lon="-1.12734">
        <ele>107.7</ele>
        <time>2022-02-23T22:24:21Z</time>
      </trkpt>
      <trkpt lat="46.79766" lon="-1.12788">
        <ele>108</ele>
        <time>2022-02-23T22:24:28Z</time>
      </trkpt>
      <trkpt lat="46.79767" lon="-1.12837">
        <ele>107</ele>
        <time>2022-02-23T22:24:34Z</time>
      </trkpt>
      <trkpt lat="46.79764" lon="-1.12858">
        <ele>107</ele>
        <time>2022-02-23T22:24:36Z</time>
      </trkpt>
      <trkpt lat="46.79753" lon="-1.12899">
        <ele>106.9</ele>
        <time>2022-02-23T22:24:42Z</time>
      </trkpt>
      <trkpt lat="46.79795" lon="-1.13124">
        <ele>107</ele>
        <time>2022-02-23T22:25:10Z</time>
      </trkpt>
      <trkpt lat="46.79802" lon="-1.13159">
        <ele>107</ele>
        <time>2022-02-23T22:25:14Z</time>
      </trkpt>
      <trkpt lat="46.79803" lon="-1.13174">
        <ele>107</ele>
        <time>2022-02-23T22:25:16Z</time>
      </trkpt>
      <trkpt lat="46.798" lon="-1.13183">
        <ele>107</ele>
        <time>2022-02-23T22:25:17Z</time>
      </trkpt>
      <trkpt lat="46.79788" lon="-1.13192">
        <ele>107</ele>
        <time>2022-02-23T22:25:20Z</time>
      </trkpt>
      <trkpt lat="46.79744" lon="-1.13216">
        <ele>106.8</ele>
        <time>2022-02-23T22:25:28Z</time>
      </trkpt>
      <trkpt lat="46.79703" lon="-1.13241">
        <ele>105.3</ele>
        <time>2022-02-23T22:25:36Z</time>
      </trkpt>
      <trkpt lat="46.79598" lon="-1.13337">
        <ele>99.5</ele>
        <time>2022-02-23T22:25:58Z</time>
      </trkpt>
      <trkpt lat="46.79585" lon="-1.13351">
        <ele>99.1</ele>
        <time>2022-02-23T22:26:01Z</time>
      </trkpt>
      <trkpt lat="46.7951" lon="-1.13421">
        <ele>94.8</ele>
        <time>2022-02-23T22:26:17Z</time>
      </trkpt>
      <trkpt lat="46.79449" lon="-1.13458">
        <ele>92.7</ele>
        <time>2022-02-23T22:26:29Z</time>
      </trkpt>
      <trkpt lat="46.79365" lon="-1.13494">
        <ele>89.5</ele>
        <time>2022-02-23T22:26:44Z</time>
      </trkpt>
      <trkpt lat="46.79328" lon="-1.13505">
        <ele>87.8</ele>
        <time>2022-02-23T22:26:51Z</time>
      </trkpt>
      <trkpt lat="46.79298" lon="-1.13524">
        <ele>87</ele>
        <time>2022-02-23T22:26:57Z</time>
      </trkpt>
      <trkpt lat="46.7928" lon="-1.13543">
        <ele>87</ele>
        <time>2022-02-23T22:27:01Z</time>
      </trkpt>
      <trkpt lat="46.79247" lon="-1.13593">
        <ele>88.4</ele>
        <time>2022-02-23T22:27:09Z</time>
      </trkpt>
      <trkpt lat="46.79213" lon="-1.13638">
        <ele>90</ele>
        <time>2022-02-23T22:27:17Z</time>
      </trkpt>
      <trkpt lat="46.79191" lon="-1.13661">
        <ele>91.1</ele>
        <time>2022-02-23T22:27:22Z</time>
      </trkpt>
      <trkpt lat="46.79165" lon="-1.13699">
        <ele>93.3</ele>
        <time>2022-02-23T22:27:29Z</time>
      </trkpt>
      <trkpt lat="46.79153" lon="-1.13723">
        <ele>95</ele>
        <time>2022-02-23T22:27:32Z</time>
      </trkpt>
      <trkpt lat="46.79147" lon="-1.13739">
        <ele>95.2</ele>
        <time>2022-02-23T22:27:35Z</time>
      </trkpt>
      <trkpt lat="46.7914" lon="-1.13764">
        <ele>95.5</ele>
        <time>2022-02-23T22:27:38Z</time>
      </trkpt>
      <trkpt lat="46.79128" lon="-1.13872">
        <ele>98.6</ele>
        <time>2022-02-23T22:27:51Z</time>
      </trkpt>
      <trkpt lat="46.79123" lon="-1.13898">
        <ele>99</ele>
        <time>2022-02-23T22:27:54Z</time>
      </trkpt>
      <trkpt lat="46.79114" lon="-1.13926">
        <ele>99</ele>
        <time>2022-02-23T22:27:58Z</time>
      </trkpt>
      <trkpt lat="46.79107" lon="-1.1394">
        <ele>99</ele>
        <time>2022-02-23T22:28:00Z</time>
      </trkpt>
      <trkpt lat="46.791" lon="-1.1395">
        <ele>99.1</ele>
        <time>2022-02-23T22:28:02Z</time>
      </trkpt>
      <trkpt lat="46.79085" lon="-1.13969">
        <ele>99.8</ele>
        <time>2022-02-23T22:28:06Z</time>
      </trkpt>
      <trkpt lat="46.79065" lon="-1.13983">
        <ele>100</ele>
        <time>2022-02-23T22:28:10Z</time>
      </trkpt>
      <trkpt lat="46.79016" lon="-1.14005">
        <ele>100</ele>
        <time>2022-02-23T22:28:19Z</time>
      </trkpt>
      <trkpt lat="46.78991" lon="-1.14031">
        <ele>100</ele>
        <time>2022-02-23T22:28:24Z</time>
      </trkpt>
      <trkpt lat="46.78937" lon="-1.14099">
        <ele>100.7</ele>
        <time>2022-02-23T22:28:37Z</time>
      </trkpt>
      <trkpt lat="46.78664" lon="-1.1434">
        <ele>94.8</ele>
        <time>2022-02-23T22:29:34Z</time>
      </trkpt>
      <trkpt lat="46.78651" lon="-1.14359">
        <ele>94.1</ele>
        <time>2022-02-23T22:29:37Z</time>
      </trkpt>
      <trkpt lat="46.78641" lon="-1.14377">
        <ele>93.5</ele>
        <time>2022-02-23T22:29:40Z</time>
      </trkpt>
      <trkpt lat="46.78626" lon="-1.14407">
        <ele>93</ele>
        <time>2022-02-23T22:29:44Z</time>
      </trkpt>
      <trkpt lat="46.78618" lon="-1.14427">
        <ele>92.6</ele>
        <time>2022-02-23T22:29:47Z</time>
      </trkpt>
      <trkpt lat="46.7861" lon="-1.14457">
        <ele>91.5</ele>
        <time>2022-02-23T22:29:51Z</time>
      </trkpt>
      <trkpt lat="46.78604" lon="-1.14487">
        <ele>90.5</ele>
        <time>2022-02-23T22:29:55Z</time>
      </trkpt>
      <trkpt lat="46.78556" lon="-1.14825">
        <ele>84.3</ele>
        <time>2022-02-23T22:30:37Z</time>
      </trkpt>
      <trkpt lat="46.78548" lon="-1.14868">
        <ele>83.1</ele>
        <time>2022-02-23T22:30:42Z</time>
      </trkpt>
      <trkpt lat="46.78536" lon="-1.1491">
        <ele>83.7</ele>
        <time>2022-02-23T22:30:48Z</time>
      </trkpt>
      <trkpt lat="46.78524" lon="-1.14943">
        <ele>84.8</ele>
        <time>2022-02-23T22:30:52Z</time>
      </trkpt>
      <trkpt lat="46.78319" lon="-1.15423">
        <ele>79.3</ele>
        <time>2022-02-23T22:32:01Z</time>
      </trkpt>
      <trkpt lat="46.78297" lon="-1.15457">
        <ele>75.1</ele>
        <time>2022-02-23T22:32:07Z</time>
      </trkpt>
      <trkpt lat="46.78284" lon="-1.15469">
        <ele>74.1</ele>
        <time>2022-02-23T22:32:10Z</time>
      </trkpt>
      <trkpt lat="46.78255" lon="-1.15488">
        <ele>70.6</ele>
        <time>2022-02-23T22:32:15Z</time>
      </trkpt>
      <trkpt lat="46.78236" lon="-1.15496">
        <ele>73.1</ele>
        <time>2022-02-23T22:32:19Z</time>
      </trkpt>
      <trkpt lat="46.77964" lon="-1.15572">
        <ele>87.4</ele>
        <time>2022-02-23T22:33:08Z</time>
      </trkpt>
      <trkpt lat="46.77936" lon="-1.15575">
        <ele>87.3</ele>
        <time>2022-02-23T22:33:13Z</time>
      </trkpt>
      <trkpt lat="46.7792" lon="-1.15574">
        <ele>87.3</ele>
        <time>2022-02-23T22:33:16Z</time>
      </trkpt>
      <trkpt lat="46.77813" lon="-1.15546">
        <ele>88.3</ele>
        <time>2022-02-23T22:33:35Z</time>
      </trkpt>
      <trkpt lat="46.77772" lon="-1.1555">
        <ele>89.4</ele>
        <time>2022-02-23T22:33:43Z</time>
      </trkpt>
      <trkpt lat="46.7703" lon="-1.1577">
        <ele>90.1</ele>
        <time>2022-02-23T22:35:57Z</time>
      </trkpt>
      <trkpt lat="46.77003" lon="-1.15786">
        <ele>90</ele>
        <time>2022-02-23T22:36:03Z</time>
      </trkpt>
      <trkpt lat="46.76991" lon="-1.15796">
        <ele>89.7</ele>
        <time>2022-02-23T22:36:05Z</time>
      </trkpt>
      <trkpt lat="46.76836" lon="-1.15993">
        <ele>82</ele>
        <time>2022-02-23T22:36:42Z</time>
      </trkpt>
      <trkpt lat="46.76818" lon="-1.16009">
        <ele>81</ele>
        <time>2022-02-23T22:36:45Z</time>
      </trkpt>
      <trkpt lat="46.76791" lon="-1.16019">
        <ele>79.8</ele>
        <time>2022-02-23T22:36:50Z</time>
      </trkpt>
      <trkpt lat="46.76777" lon="-1.16021">
        <ele>79.2</ele>
        <time>2022-02-23T22:36:53Z</time>
      </trkpt>
      <trkpt lat="46.76442" lon="-1.16004">
        <ele>65.9</ele>
        <time>2022-02-23T22:37:52Z</time>
      </trkpt>
      <trkpt lat="46.76412" lon="-1.15995">
        <ele>64.7</ele>
        <time>2022-02-23T22:37:58Z</time>
      </trkpt>
      <trkpt lat="46.76394" lon="-1.15985">
        <ele>64.1</ele>
        <time>2022-02-23T22:38:01Z</time>
      </trkpt>
      <trkpt lat="46.76345" lon="-1.15951">
        <ele>65.3</ele>
        <time>2022-02-23T22:38:11Z</time>
      </trkpt>
      <trkpt lat="46.76319" lon="-1.15942">
        <ele>66.4</ele>
        <time>2022-02-23T22:38:16Z</time>
      </trkpt>
      <trkpt lat="46.76285" lon="-1.1594">
        <ele>67.6</ele>
        <time>2022-02-23T22:38:22Z</time>
      </trkpt>
      <trkpt lat="46.7618" lon="-1.15959">
        <ele>69</ele>
        <time>2022-02-23T22:38:41Z</time>
      </trkpt>
      <trkpt lat="46.76157" lon="-1.15961">
        <ele>69</ele>
        <time>2022-02-23T22:38:45Z</time>
      </trkpt>
      <trkpt lat="46.76133" lon="-1.15959">
        <ele>68.9</ele>
        <time>2022-02-23T22:38:49Z</time>
      </trkpt>
      <trkpt lat="46.76108" lon="-1.1595">
        <ele>68.8</ele>
        <time>2022-02-23T22:38:54Z</time>
      </trkpt>
      <trkpt lat="46.76095" lon="-1.15943">
        <ele>69</ele>
        <time>2022-02-23T22:38:56Z</time>
      </trkpt>
      <trkpt lat="46.76071" lon="-1.15925">
        <ele>68.9</ele>
        <time>2022-02-23T22:39:01Z</time>
      </trkpt>
      <trkpt lat="46.7606" lon="-1.15911">
        <ele>69</ele>
        <time>2022-02-23T22:39:03Z</time>
      </trkpt>
      <trkpt lat="46.76049" lon="-1.15894">
        <ele>69</ele>
        <time>2022-02-23T22:39:06Z</time>
      </trkpt>
      <trkpt lat="46.7604" lon="-1.15876">
        <ele>69</ele>
        <time>2022-02-23T22:39:09Z</time>
      </trkpt>
      <trkpt lat="46.76028" lon="-1.15835">
        <ele>69</ele>
        <time>2022-02-23T22:39:14Z</time>
      </trkpt>
      <trkpt lat="46.76021" lon="-1.15794">
        <ele>69.9</ele>
        <time>2022-02-23T22:39:20Z</time>
      </trkpt>
      <trkpt lat="46.76022" lon="-1.15749">
        <ele>70.8</ele>
        <time>2022-02-23T22:39:25Z</time>
      </trkpt>
      <trkpt lat="46.76033" lon="-1.15671">
        <ele>71.2</ele>
        <time>2022-02-23T22:39:35Z</time>
      </trkpt>
      <trkpt lat="46.76038" lon="-1.1561">
        <ele>71.4</ele>
        <time>2022-02-23T22:39:42Z</time>
      </trkpt>
      <trkpt lat="46.76038" lon="-1.15567">
        <ele>71.4</ele>
        <time>2022-02-23T22:39:47Z</time>
      </trkpt>
      <trkpt lat="46.76037" lon="-1.15526">
        <ele>72</ele>
        <time>2022-02-23T22:39:52Z</time>
      </trkpt>
      <trkpt lat="46.76035" lon="-1.15504">
        <ele>72.2</ele>
        <time>2022-02-23T22:39:55Z</time>
      </trkpt>
      <trkpt lat="46.76025" lon="-1.15444">
        <ele>72.9</ele>
        <time>2022-02-23T22:40:03Z</time>
      </trkpt>
      <trkpt lat="46.76011" lon="-1.1539">
        <ele>73</ele>
        <time>2022-02-23T22:40:10Z</time>
      </trkpt>
      <trkpt lat="46.76003" lon="-1.15363">
        <ele>73</ele>
        <time>2022-02-23T22:40:13Z</time>
      </trkpt>
      <trkpt lat="46.75983" lon="-1.15314">
        <ele>72.8</ele>
        <time>2022-02-23T22:40:20Z</time>
      </trkpt>
      <trkpt lat="46.75956" lon="-1.15267">
        <ele>73</ele>
        <time>2022-02-23T22:40:28Z</time>
      </trkpt>
      <trkpt lat="46.75924" lon="-1.15223">
        <ele>73</ele>
        <time>2022-02-23T22:40:36Z</time>
      </trkpt>
      <trkpt lat="46.75906" lon="-1.15203">
        <ele>73.3</ele>
        <time>2022-02-23T22:40:40Z</time>
      </trkpt>
      <trkpt lat="46.75874" lon="-1.15174">
        <ele>74</ele>
        <time>2022-02-23T22:40:46Z</time>
      </trkpt>
      <trkpt lat="46.75834" lon="-1.15146">
        <ele>75.7</ele>
        <time>2022-02-23T22:40:54Z</time>
      </trkpt>
      <trkpt lat="46.75791" lon="-1.15125">
        <ele>77.5</ele>
        <time>2022-02-23T22:41:02Z</time>
      </trkpt>
      <trkpt lat="46.75756" lon="-1.15114">
        <ele>78.9</ele>
        <time>2022-02-23T22:41:09Z</time>
      </trkpt>
      <trkpt lat="46.75709" lon="-1.15107">
        <ele>80.7</ele>
        <time>2022-02-23T22:41:17Z</time>
      </trkpt>
      <trkpt lat="46.75682" lon="-1.15106">
        <ele>81.2</ele>
        <time>2022-02-23T22:41:22Z</time>
      </trkpt>
      <trkpt lat="46.75654" lon="-1.15108">
        <ele>81.6</ele>
        <time>2022-02-23T22:41:27Z</time>
      </trkpt>
      <trkpt lat="46.75615" lon="-1.15119">
        <ele>82.6</ele>
        <time>2022-02-23T22:41:34Z</time>
      </trkpt>
      <trkpt lat="46.75581" lon="-1.15138">
        <ele>83</ele>
        <time>2022-02-23T22:41:40Z</time>
      </trkpt>
      <trkpt lat="46.75554" lon="-1.1516">
        <ele>82.2</ele>
        <time>2022-02-23T22:41:46Z</time>
      </trkpt>
      <trkpt lat="46.75465" lon="-1.15257">
        <ele>82.6</ele>
        <time>2022-02-23T22:42:06Z</time>
      </trkpt>
      <trkpt lat="46.75451" lon="-1.15268">
        <ele>82.6</ele>
        <time>2022-02-23T22:42:08Z</time>
      </trkpt>
      <trkpt lat="46.75172" lon="-1.15443">
        <ele>77.9</ele>
        <time>2022-02-23T22:43:02Z</time>
      </trkpt>
      <trkpt lat="46.75036" lon="-1.15525">
        <ele>81.7</ele>
        <time>2022-02-23T22:43:29Z</time>
      </trkpt>
      <trkpt lat="46.7503" lon="-1.15527">
        <ele>81.9</ele>
        <time>2022-02-23T22:43:30Z</time>
      </trkpt>
      <trkpt lat="46.75021" lon="-1.15528">
        <ele>82</ele>
        <time>2022-02-23T22:43:31Z</time>
      </trkpt>
      <trkpt lat="46.74722" lon="-1.15446">
        <ele>76</ele>
        <time>2022-02-23T22:44:26Z</time>
      </trkpt>
      <trkpt lat="46.74714" lon="-1.15447">
        <ele>75.8</ele>
        <time>2022-02-23T22:44:27Z</time>
      </trkpt>
      <trkpt lat="46.747" lon="-1.15454">
        <ele>75.3</ele>
        <time>2022-02-23T22:44:30Z</time>
      </trkpt>
      <trkpt lat="46.74694" lon="-1.15463">
        <ele>75</ele>
        <time>2022-02-23T22:44:31Z</time>
      </trkpt>
      <trkpt lat="46.74689" lon="-1.15474">
        <ele>74.8</ele>
        <time>2022-02-23T22:44:33Z</time>
      </trkpt>
      <trkpt lat="46.7468" lon="-1.15503">
        <ele>74</ele>
        <time>2022-02-23T22:44:37Z</time>
      </trkpt>
      <trkpt lat="46.74675" lon="-1.15512">
        <ele>73.4</ele>
        <time>2022-02-23T22:44:38Z</time>
      </trkpt>
      <trkpt lat="46.74669" lon="-1.1552">
        <ele>72.6</ele>
        <time>2022-02-23T22:44:39Z</time>
      </trkpt>
      <trkpt lat="46.74662" lon="-1.15524">
        <ele>71.8</ele>
        <time>2022-02-23T22:44:41Z</time>
      </trkpt>
      <trkpt lat="46.74655" lon="-1.15525">
        <ele>71.3</ele>
        <time>2022-02-23T22:44:42Z</time>
      </trkpt>
      <trkpt lat="46.74647" lon="-1.15524">
        <ele>70.7</ele>
        <time>2022-02-23T22:44:43Z</time>
      </trkpt>
      <trkpt lat="46.7464" lon="-1.15519">
        <ele>70.4</ele>
        <time>2022-02-23T22:44:45Z</time>
      </trkpt>
      <trkpt lat="46.74632" lon="-1.15512">
        <ele>69.9</ele>
        <time>2022-02-23T22:44:47Z</time>
      </trkpt>
      <trkpt lat="46.74622" lon="-1.15494">
        <ele>69.2</ele>
        <time>2022-02-23T22:44:49Z</time>
      </trkpt>
      <trkpt lat="46.74612" lon="-1.15482">
        <ele>68.1</ele>
        <time>2022-02-23T22:44:52Z</time>
      </trkpt>
      <trkpt lat="46.74589" lon="-1.15466">
        <ele>66.2</ele>
        <time>2022-02-23T22:44:56Z</time>
      </trkpt>
      <trkpt lat="46.7446" lon="-1.15443">
        <ele>66.4</ele>
        <time>2022-02-23T22:45:19Z</time>
      </trkpt>
      <trkpt lat="46.74438" lon="-1.15442">
        <ele>67.6</ele>
        <time>2022-02-23T22:45:23Z</time>
      </trkpt>
      <trkpt lat="46.74433" lon="-1.15444">
        <ele>68.2</ele>
        <time>2022-02-23T22:45:24Z</time>
      </trkpt>
      <trkpt lat="46.74424" lon="-1.15451">
        <ele>68.8</ele>
        <time>2022-02-23T22:45:26Z</time>
      </trkpt>
      <trkpt lat="46.74418" lon="-1.15463">
        <ele>68.6</ele>
        <time>2022-02-23T22:45:28Z</time>
      </trkpt>
      <trkpt lat="46.74412" lon="-1.15477">
        <ele>68.9</ele>
        <time>2022-02-23T22:45:30Z</time>
      </trkpt>
      <trkpt lat="46.7439" lon="-1.15571">
        <ele>73.2</ele>
        <time>2022-02-23T22:45:42Z</time>
      </trkpt>
      <trkpt lat="46.74383" lon="-1.15591">
        <ele>73.6</ele>
        <time>2022-02-23T22:45:45Z</time>
      </trkpt>
      <trkpt lat="46.74376" lon="-1.15607">
        <ele>74</ele>
        <time>2022-02-23T22:45:47Z</time>
      </trkpt>
      <trkpt lat="46.74366" lon="-1.15621">
        <ele>75.3</ele>
        <time>2022-02-23T22:45:49Z</time>
      </trkpt>
      <trkpt lat="46.74356" lon="-1.15632">
        <ele>76.4</ele>
        <time>2022-02-23T22:45:52Z</time>
      </trkpt>
      <trkpt lat="46.74341" lon="-1.15638">
        <ele>77.4</ele>
        <time>2022-02-23T22:45:54Z</time>
      </trkpt>
      <trkpt lat="46.74323" lon="-1.1564">
        <ele>78.4</ele>
        <time>2022-02-23T22:45:58Z</time>
      </trkpt>
      <trkpt lat="46.74303" lon="-1.15634">
        <ele>79.3</ele>
        <time>2022-02-23T22:46:01Z</time>
      </trkpt>
      <trkpt lat="46.74198" lon="-1.15593">
        <ele>85.8</ele>
        <time>2022-02-23T22:46:21Z</time>
      </trkpt>
      <trkpt lat="46.74177" lon="-1.15587">
        <ele>87.3</ele>
        <time>2022-02-23T22:46:24Z</time>
      </trkpt>
      <trkpt lat="46.74159" lon="-1.15589">
        <ele>88.3</ele>
        <time>2022-02-23T22:46:28Z</time>
      </trkpt>
      <trkpt lat="46.74147" lon="-1.15594">
        <ele>88.7</ele>
        <time>2022-02-23T22:46:30Z</time>
      </trkpt>
      <trkpt lat="46.74134" lon="-1.15604">
        <ele>89.2</ele>
        <time>2022-02-23T22:46:32Z</time>
      </trkpt>
      <trkpt lat="46.74124" lon="-1.15615">
        <ele>89.6</ele>
        <time>2022-02-23T22:46:35Z</time>
      </trkpt>
      <trkpt lat="46.74115" lon="-1.15631">
        <ele>90</ele>
        <time>2022-02-23T22:46:37Z</time>
      </trkpt>
      <trkpt lat="46.74106" lon="-1.15653">
        <ele>90.4</ele>
        <time>2022-02-23T22:46:40Z</time>
      </trkpt>
      <trkpt lat="46.74038" lon="-1.15832">
        <ele>93</ele>
        <time>2022-02-23T22:47:05Z</time>
      </trkpt>
      <trkpt lat="46.7402" lon="-1.15876">
        <ele>93.2</ele>
        <time>2022-02-23T22:47:12Z</time>
      </trkpt>
      <trkpt lat="46.74001" lon="-1.15914">
        <ele>94.7</ele>
        <time>2022-02-23T22:47:17Z</time>
      </trkpt>
      <trkpt lat="46.73981" lon="-1.1595">
        <ele>94.3</ele>
        <time>2022-02-23T22:47:23Z</time>
      </trkpt>
      <trkpt lat="46.73961" lon="-1.1598">
        <ele>94.3</ele>
        <time>2022-02-23T22:47:28Z</time>
      </trkpt>
      <trkpt lat="46.73925" lon="-1.16033">
        <ele>94.6</ele>
        <time>2022-02-23T22:47:37Z</time>
      </trkpt>
      <trkpt lat="46.73873" lon="-1.16105">
        <ele>95.5</ele>
        <time>2022-02-23T22:47:50Z</time>
      </trkpt>
      <trkpt lat="46.73605" lon="-1.16431">
        <ele>102.1</ele>
        <time>2022-02-23T22:48:52Z</time>
      </trkpt>
      <trkpt lat="46.7357" lon="-1.16477">
        <ele>103.6</ele>
        <time>2022-02-23T22:49:00Z</time>
      </trkpt>
      <trkpt lat="46.7344" lon="-1.16684">
        <ele>101.8</ele>
        <time>2022-02-23T22:49:35Z</time>
      </trkpt>
      <trkpt lat="46.73406" lon="-1.16727">
        <ele>101.7</ele>
        <time>2022-02-23T22:49:43Z</time>
      </trkpt>
      <trkpt lat="46.73295" lon="-1.16809">
        <ele>101.5</ele>
        <time>2022-02-23T22:50:05Z</time>
      </trkpt>
      <trkpt lat="46.73236" lon="-1.16851">
        <ele>101.3</ele>
        <time>2022-02-23T22:50:16Z</time>
      </trkpt>
      <trkpt lat="46.73207" lon="-1.16869">
        <ele>101</ele>
        <time>2022-02-23T22:50:22Z</time>
      </trkpt>
      <trkpt lat="46.73047" lon="-1.16933">
        <ele>99.6</ele>
        <time>2022-02-23T22:50:52Z</time>
      </trkpt>
      <trkpt lat="46.73022" lon="-1.16946">
        <ele>99.7</ele>
        <time>2022-02-23T22:50:56Z</time>
      </trkpt>
      <trkpt lat="46.73003" lon="-1.16959">
        <ele>99.1</ele>
        <time>2022-02-23T22:51:00Z</time>
      </trkpt>
      <trkpt lat="46.72975" lon="-1.16988">
        <ele>99</ele>
        <time>2022-02-23T22:51:06Z</time>
      </trkpt>
      <trkpt lat="46.72959" lon="-1.17008">
        <ele>98.4</ele>
        <time>2022-02-23T22:51:10Z</time>
      </trkpt>
      <trkpt lat="46.72756" lon="-1.1733">
        <ele>92.8</ele>
        <time>2022-02-23T22:52:03Z</time>
      </trkpt>
      <trkpt lat="46.72741" lon="-1.17351">
        <ele>92.4</ele>
        <time>2022-02-23T22:52:07Z</time>
      </trkpt>
      <trkpt lat="46.72722" lon="-1.17372">
        <ele>92</ele>
        <time>2022-02-23T22:52:11Z</time>
      </trkpt>
      <trkpt lat="46.72709" lon="-1.17381">
        <ele>91.7</ele>
        <time>2022-02-23T22:52:14Z</time>
      </trkpt>
      <trkpt lat="46.72694" lon="-1.17388">
        <ele>91</ele>
        <time>2022-02-23T22:52:16Z</time>
      </trkpt>
      <trkpt lat="46.7264" lon="-1.17403">
        <ele>90.5</ele>
        <time>2022-02-23T22:52:26Z</time>
      </trkpt>
      <trkpt lat="46.72609" lon="-1.17416">
        <ele>90.1</ele>
        <time>2022-02-23T22:52:32Z</time>
      </trkpt>
      <trkpt lat="46.72582" lon="-1.17437">
        <ele>90.3</ele>
        <time>2022-02-23T22:52:37Z</time>
      </trkpt>
      <trkpt lat="46.72487" lon="-1.17542">
        <ele>89</ele>
        <time>2022-02-23T22:52:59Z</time>
      </trkpt>
      <trkpt lat="46.72466" lon="-1.17558">
        <ele>89</ele>
        <time>2022-02-23T22:53:03Z</time>
      </trkpt>
      <trkpt lat="46.72451" lon="-1.17565">
        <ele>88.7</ele>
        <time>2022-02-23T22:53:06Z</time>
      </trkpt>
      <trkpt lat="46.72297" lon="-1.17603">
        <ele>87</ele>
        <time>2022-02-23T22:53:33Z</time>
      </trkpt>
      <trkpt lat="46.72269" lon="-1.17619">
        <ele>86.7</ele>
        <time>2022-02-23T22:53:39Z</time>
      </trkpt>
      <trkpt lat="46.72263" lon="-1.1762">
        <ele>86.5</ele>
        <time>2022-02-23T22:53:40Z</time>
      </trkpt>
      <trkpt lat="46.7226" lon="-1.17649">
        <ele>86.2</ele>
        <time>2022-02-23T22:53:43Z</time>
      </trkpt>
      <trkpt lat="46.72258" lon="-1.17658">
        <ele>86.1</ele>
        <time>2022-02-23T22:53:45Z</time>
      </trkpt>
      <trkpt lat="46.72252" lon="-1.17677">
        <ele>86</ele>
        <time>2022-02-23T22:53:47Z</time>
      </trkpt>
      <trkpt lat="46.72242" lon="-1.17698">
        <ele>86</ele>
        <time>2022-02-23T22:53:50Z</time>
      </trkpt>
      <trkpt lat="46.7223" lon="-1.17713">
        <ele>86.5</ele>
        <time>2022-02-23T22:53:53Z</time>
      </trkpt>
      <trkpt lat="46.72189" lon="-1.1775">
        <ele>88</ele>
        <time>2022-02-23T22:54:02Z</time>
      </trkpt>
      <trkpt lat="46.72137" lon="-1.17801">
        <ele>89.8</ele>
        <time>2022-02-23T22:54:13Z</time>
      </trkpt>
      <trkpt lat="46.7215" lon="-1.17879">
        <ele>89.6</ele>
        <time>2022-02-23T22:54:23Z</time>
      </trkpt>
      <trkpt lat="46.72161" lon="-1.17875">
        <ele>89.2</ele>
        <time>2022-02-23T22:54:25Z</time>
      </trkpt>
      <trkpt lat="46.72162" lon="-1.17881">
        <ele>89.2</ele>
        <time>2022-02-23T22:54:25Z</time>
      </trkpt>
      <trkpt lat="46.72151" lon="-1.17885">
        <ele>89.6</ele>
        <time>2022-02-23T22:54:27Z</time>
      </trkpt>
      <trkpt lat="46.72137" lon="-1.17897">
        <ele>90.1</ele>
        <time>2022-02-23T22:54:30Z</time>
      </trkpt>
      <trkpt lat="46.72133" lon="-1.17907">
        <ele>90.2</ele>
        <time>2022-02-23T22:54:32Z</time>
      </trkpt>
      <trkpt lat="46.7213" lon="-1.17942">
        <ele>90.3</ele>
        <time>2022-02-23T22:54:36Z</time>
      </trkpt>
      <trkpt lat="46.72128" lon="-1.17955">
        <ele>90.2</ele>
        <time>2022-02-23T22:54:38Z</time>
      </trkpt>
      <trkpt lat="46.72123" lon="-1.17968">
        <ele>90.1</ele>
        <time>2022-02-23T22:54:39Z</time>
      </trkpt>
      <trkpt lat="46.72103" lon="-1.18012">
        <ele>91</ele>
        <time>2022-02-23T22:54:46Z</time>
      </trkpt>
      <trkpt lat="46.72098" lon="-1.18031">
        <ele>91</ele>
        <time>2022-02-23T22:54:48Z</time>
      </trkpt>
      <trkpt lat="46.72095" lon="-1.18032">
        <ele>91</ele>
        <time>2022-02-23T22:54:49Z</time>
      </trkpt>
      <trkpt lat="46.72094" lon="-1.18051">
        <ele>91</ele>
        <time>2022-02-23T22:54:51Z</time>
      </trkpt>
      <trkpt lat="46.72095" lon="-1.18071">
        <ele>91.6</ele>
        <time>2022-02-23T22:54:54Z</time>
      </trkpt>
      <trkpt lat="46.72152" lon="-1.18286">
        <ele>95.2</ele>
        <time>2022-02-23T22:55:22Z</time>
      </trkpt>
      <trkpt lat="46.72162" lon="-1.18343">
        <ele>95.2</ele>
        <time>2022-02-23T22:55:29Z</time>
      </trkpt>
      <trkpt lat="46.72184" lon="-1.18722">
        <ele>96</ele>
        <time>2022-02-23T22:56:15Z</time>
      </trkpt>
      <trkpt lat="46.72186" lon="-1.1879">
        <ele>96</ele>
        <time>2022-02-23T22:56:24Z</time>
      </trkpt>
      <trkpt lat="46.72184" lon="-1.18859">
        <ele>95.1</ele>
        <time>2022-02-23T22:56:32Z</time>
      </trkpt>
      <trkpt lat="46.72176" lon="-1.18927">
        <ele>95</ele>
        <time>2022-02-23T22:56:41Z</time>
      </trkpt>
      <trkpt lat="46.72163" lon="-1.1899">
        <ele>94.4</ele>
        <time>2022-02-23T22:56:49Z</time>
      </trkpt>
      <trkpt lat="46.72148" lon="-1.19036">
        <ele>94.7</ele>
        <time>2022-02-23T22:56:55Z</time>
      </trkpt>
      <trkpt lat="46.72115" lon="-1.19115">
        <ele>95</ele>
        <time>2022-02-23T22:57:06Z</time>
      </trkpt>
      <trkpt lat="46.72095" lon="-1.19181">
        <ele>95</ele>
        <time>2022-02-23T22:57:15Z</time>
      </trkpt>
      <trkpt lat="46.72066" lon="-1.19304">
        <ele>95.6</ele>
        <time>2022-02-23T22:57:31Z</time>
      </trkpt>
      <trkpt lat="46.72054" lon="-1.19362">
        <ele>96</ele>
        <time>2022-02-23T22:57:38Z</time>
      </trkpt>
      <trkpt lat="46.72" lon="-1.19543">
        <ele>98.5</ele>
        <time>2022-02-23T22:58:02Z</time>
      </trkpt>
      <trkpt lat="46.7199" lon="-1.19581">
        <ele>99.4</ele>
        <time>2022-02-23T22:58:07Z</time>
      </trkpt>
      <trkpt lat="46.71974" lon="-1.19683">
        <ele>100</ele>
        <time>2022-02-23T22:58:20Z</time>
      </trkpt>
      <trkpt lat="46.7197" lon="-1.19746">
        <ele>100.1</ele>
        <time>2022-02-23T22:58:28Z</time>
      </trkpt>
      <trkpt lat="46.71969" lon="-1.19842">
        <ele>101.1</ele>
        <time>2022-02-23T22:58:39Z</time>
      </trkpt>
      <trkpt lat="46.7197" lon="-1.19894">
        <ele>101</ele>
        <time>2022-02-23T22:58:46Z</time>
      </trkpt>
      <trkpt lat="46.71971" lon="-1.19917">
        <ele>101</ele>
        <time>2022-02-23T22:58:49Z</time>
      </trkpt>
      <trkpt lat="46.71977" lon="-1.19953">
        <ele>101.8</ele>
        <time>2022-02-23T22:58:53Z</time>
      </trkpt>
      <trkpt lat="46.71982" lon="-1.19975">
        <ele>101.6</ele>
        <time>2022-02-23T22:58:56Z</time>
      </trkpt>
      <trkpt lat="46.72" lon="-1.20021">
        <ele>101</ele>
        <time>2022-02-23T22:59:02Z</time>
      </trkpt>
      <trkpt lat="46.72024" lon="-1.20075">
        <ele>101.1</ele>
        <time>2022-02-23T22:59:10Z</time>
      </trkpt>
      <trkpt lat="46.72031" lon="-1.2011">
        <ele>101</ele>
        <time>2022-02-23T22:59:15Z</time>
      </trkpt>
      <trkpt lat="46.72031" lon="-1.20119">
        <ele>101</ele>
        <time>2022-02-23T22:59:16Z</time>
      </trkpt>
      <trkpt lat="46.72024" lon="-1.20149">
        <ele>101.4</ele>
        <time>2022-02-23T22:59:20Z</time>
      </trkpt>
      <trkpt lat="46.72019" lon="-1.20163">
        <ele>101.6</ele>
        <time>2022-02-23T22:59:21Z</time>
      </trkpt>
      <trkpt lat="46.71986" lon="-1.20222">
        <ele>101</ele>
        <time>2022-02-23T22:59:31Z</time>
      </trkpt>
      <trkpt lat="46.71886" lon="-1.20428">
        <ele>99.9</ele>
        <time>2022-02-23T23:00:02Z</time>
      </trkpt>
      <trkpt lat="46.71876" lon="-1.20447">
        <ele>99.5</ele>
        <time>2022-02-23T23:00:04Z</time>
      </trkpt>
      <trkpt lat="46.71851" lon="-1.2048">
        <ele>99</ele>
        <time>2022-02-23T23:00:10Z</time>
      </trkpt>
      <trkpt lat="46.71692" lon="-1.20665">
        <ele>94.9</ele>
        <time>2022-02-23T23:00:47Z</time>
      </trkpt>
      <trkpt lat="46.71672" lon="-1.20692">
        <ele>93.5</ele>
        <time>2022-02-23T23:00:52Z</time>
      </trkpt>
      <trkpt lat="46.71666" lon="-1.20706">
        <ele>93</ele>
        <time>2022-02-23T23:00:54Z</time>
      </trkpt>
      <trkpt lat="46.7166" lon="-1.20736">
        <ele>93</ele>
        <time>2022-02-23T23:00:57Z</time>
      </trkpt>
      <trkpt lat="46.71652" lon="-1.20824">
        <ele>91.7</ele>
        <time>2022-02-23T23:01:08Z</time>
      </trkpt>
      <trkpt lat="46.71645" lon="-1.20869">
        <ele>90.6</ele>
        <time>2022-02-23T23:01:14Z</time>
      </trkpt>
      <trkpt lat="46.71641" lon="-1.20885">
        <ele>90.1</ele>
        <time>2022-02-23T23:01:16Z</time>
      </trkpt>
      <trkpt lat="46.7163" lon="-1.20905">
        <ele>89.6</ele>
        <time>2022-02-23T23:01:19Z</time>
      </trkpt>
      <trkpt lat="46.71616" lon="-1.20923">
        <ele>88.4</ele>
        <time>2022-02-23T23:01:22Z</time>
      </trkpt>
      <trkpt lat="46.7157" lon="-1.20964">
        <ele>87.7</ele>
        <time>2022-02-23T23:01:32Z</time>
      </trkpt>
      <trkpt lat="46.71532" lon="-1.21032">
        <ele>91.1</ele>
        <time>2022-02-23T23:01:43Z</time>
      </trkpt>
      <trkpt lat="46.71523" lon="-1.21043">
        <ele>91.5</ele>
        <time>2022-02-23T23:01:45Z</time>
      </trkpt>
      <trkpt lat="46.71513" lon="-1.21051">
        <ele>91.4</ele>
        <time>2022-02-23T23:01:47Z</time>
      </trkpt>
      <trkpt lat="46.7148" lon="-1.21073">
        <ele>91</ele>
        <time>2022-02-23T23:01:53Z</time>
      </trkpt>
      <trkpt lat="46.7145" lon="-1.21082">
        <ele>91</ele>
        <time>2022-02-23T23:01:59Z</time>
      </trkpt>
      <trkpt lat="46.71396" lon="-1.21089">
        <ele>91.9</ele>
        <time>2022-02-23T23:02:08Z</time>
      </trkpt>
      <trkpt lat="46.71388" lon="-1.21095">
        <ele>92.5</ele>
        <time>2022-02-23T23:02:10Z</time>
      </trkpt>
      <trkpt lat="46.71384" lon="-1.21101">
        <ele>92.8</ele>
        <time>2022-02-23T23:02:11Z</time>
      </trkpt>
      <trkpt lat="46.7137" lon="-1.21092">
        <ele>93</ele>
        <time>2022-02-23T23:02:14Z</time>
      </trkpt>
      <trkpt lat="46.71362" lon="-1.2109">
        <ele>93.2</ele>
        <time>2022-02-23T23:02:15Z</time>
      </trkpt>
      <trkpt lat="46.71349" lon="-1.21091">
        <ele>93.3</ele>
        <time>2022-02-23T23:02:17Z</time>
      </trkpt>
      <trkpt lat="46.7134" lon="-1.21094">
        <ele>93.4</ele>
        <time>2022-02-23T23:02:19Z</time>
      </trkpt>
      <trkpt lat="46.71266" lon="-1.21132">
        <ele>96.1</ele>
        <time>2022-02-23T23:02:33Z</time>
      </trkpt>
      <trkpt lat="46.71166" lon="-1.21167">
        <ele>98</ele>
        <time>2022-02-23T23:02:51Z</time>
      </trkpt>
      <trkpt lat="46.71027" lon="-1.21208">
        <ele>101.5</ele>
        <time>2022-02-23T23:03:17Z</time>
      </trkpt>
      <trkpt lat="46.70997" lon="-1.2122">
        <ele>100.1</ele>
        <time>2022-02-23T23:03:22Z</time>
      </trkpt>
      <trkpt lat="46.70909" lon="-1.21266">
        <ele>98.7</ele>
        <time>2022-02-23T23:03:39Z</time>
      </trkpt>
      <trkpt lat="46.70871" lon="-1.21281">
        <ele>98.1</ele>
        <time>2022-02-23T23:03:46Z</time>
      </trkpt>
      <trkpt lat="46.7082" lon="-1.21295">
        <ele>98.6</ele>
        <time>2022-02-23T23:03:55Z</time>
      </trkpt>
      <trkpt lat="46.70742" lon="-1.21305">
        <ele>99.3</ele>
        <time>2022-02-23T23:04:09Z</time>
      </trkpt>
      <trkpt lat="46.70692" lon="-1.21306">
        <ele>101</ele>
        <time>2022-02-23T23:04:18Z</time>
      </trkpt>
      <trkpt lat="46.70663" lon="-1.21305">
        <ele>101.1</ele>
        <time>2022-02-23T23:04:23Z</time>
      </trkpt>
      <trkpt lat="46.7052" lon="-1.21288">
        <ele>103</ele>
        <time>2022-02-23T23:04:48Z</time>
      </trkpt>
      <trkpt lat="46.70242" lon="-1.2124">
        <ele>102</ele>
        <time>2022-02-23T23:05:38Z</time>
      </trkpt>
      <trkpt lat="46.70205" lon="-1.21241">
        <ele>101.8</ele>
        <time>2022-02-23T23:05:45Z</time>
      </trkpt>
      <trkpt lat="46.70185" lon="-1.21247">
        <ele>101.9</ele>
        <time>2022-02-23T23:05:49Z</time>
      </trkpt>
      <trkpt lat="46.70164" lon="-1.21257">
        <ele>101.9</ele>
        <time>2022-02-23T23:05:52Z</time>
      </trkpt>
      <trkpt lat="46.69904" lon="-1.21412">
        <ele>101</ele>
        <time>2022-02-23T23:06:42Z</time>
      </trkpt>
      <trkpt lat="46.69546" lon="-1.21572">
        <ele>84.7</ele>
        <time>2022-02-23T23:07:49Z</time>
      </trkpt>
      <trkpt lat="46.69531" lon="-1.21578">
        <ele>83</ele>
        <time>2022-02-23T23:07:52Z</time>
      </trkpt>
      <trkpt lat="46.69518" lon="-1.2158">
        <ele>81.6</ele>
        <time>2022-02-23T23:07:54Z</time>
      </trkpt>
      <trkpt lat="46.69507" lon="-1.21579">
        <ele>80.8</ele>
        <time>2022-02-23T23:07:56Z</time>
      </trkpt>
      <trkpt lat="46.69403" lon="-1.21539">
        <ele>73.3</ele>
        <time>2022-02-23T23:08:15Z</time>
      </trkpt>
      <trkpt lat="46.69382" lon="-1.21535">
        <ele>75.3</ele>
        <time>2022-02-23T23:08:19Z</time>
      </trkpt>
      <trkpt lat="46.69372" lon="-1.21537">
        <ele>76.4</ele>
        <time>2022-02-23T23:08:21Z</time>
      </trkpt>
      <trkpt lat="46.69354" lon="-1.21551">
        <ele>77.6</ele>
        <time>2022-02-23T23:08:24Z</time>
      </trkpt>
      <trkpt lat="46.6926" lon="-1.21677">
        <ele>86</ele>
        <time>2022-02-23T23:08:47Z</time>
      </trkpt>
      <trkpt lat="46.69242" lon="-1.21693">
        <ele>87.7</ele>
        <time>2022-02-23T23:08:51Z</time>
      </trkpt>
      <trkpt lat="46.69234" lon="-1.21698">
        <ele>87.8</ele>
        <time>2022-02-23T23:08:52Z</time>
      </trkpt>
      <trkpt lat="46.69225" lon="-1.217">
        <ele>88.2</ele>
        <time>2022-02-23T23:08:54Z</time>
      </trkpt>
      <trkpt lat="46.69202" lon="-1.21698">
        <ele>88</ele>
        <time>2022-02-23T23:08:58Z</time>
      </trkpt>
      <trkpt lat="46.68999" lon="-1.2161">
        <ele>101</ele>
        <time>2022-02-23T23:09:36Z</time>
      </trkpt>
      <trkpt lat="46.68975" lon="-1.21612">
        <ele>101</ele>
        <time>2022-02-23T23:09:40Z</time>
      </trkpt>
      <trkpt lat="46.68919" lon="-1.21633">
        <ele>101.2</ele>
        <time>2022-02-23T23:09:50Z</time>
      </trkpt>
      <trkpt lat="46.68801" lon="-1.21683">
        <ele>101.1</ele>
        <time>2022-02-23T23:10:12Z</time>
      </trkpt>
      <trkpt lat="46.68784" lon="-1.21685">
        <ele>101.3</ele>
        <time>2022-02-23T23:10:15Z</time>
      </trkpt>
      <trkpt lat="46.68775" lon="-1.21683">
        <ele>101.4</ele>
        <time>2022-02-23T23:10:17Z</time>
      </trkpt>
      <trkpt lat="46.68686" lon="-1.21618">
        <ele>103</ele>
        <time>2022-02-23T23:10:35Z</time>
      </trkpt>
      <trkpt lat="46.68674" lon="-1.21611">
        <ele>103</ele>
        <time>2022-02-23T23:10:37Z</time>
      </trkpt>
      <trkpt lat="46.6848" lon="-1.21585">
        <ele>104.7</ele>
        <time>2022-02-23T23:11:12Z</time>
      </trkpt>
      <trkpt lat="46.68431" lon="-1.21583">
        <ele>104</ele>
        <time>2022-02-23T23:11:20Z</time>
      </trkpt>
      <trkpt lat="46.68395" lon="-1.21588">
        <ele>103.2</ele>
        <time>2022-02-23T23:11:27Z</time>
      </trkpt>
      <trkpt lat="46.68336" lon="-1.21604">
        <ele>101.8</ele>
        <time>2022-02-23T23:11:37Z</time>
      </trkpt>
      <trkpt lat="46.68237" lon="-1.21639">
        <ele>103.5</ele>
        <time>2022-02-23T23:11:56Z</time>
      </trkpt>
      <trkpt lat="46.68178" lon="-1.21671">
        <ele>105.2</ele>
        <time>2022-02-23T23:12:07Z</time>
      </trkpt>
      <trkpt lat="46.68153" lon="-1.21691">
        <ele>105.9</ele>
        <time>2022-02-23T23:12:12Z</time>
      </trkpt>
      <trkpt lat="46.68069" lon="-1.21768">
        <ele>105.5</ele>
        <time>2022-02-23T23:12:29Z</time>
      </trkpt>
      <trkpt lat="46.68032" lon="-1.21794">
        <ele>105.1</ele>
        <time>2022-02-23T23:12:37Z</time>
      </trkpt>
      <trkpt lat="46.67993" lon="-1.21815">
        <ele>104.4</ele>
        <time>2022-02-23T23:12:44Z</time>
      </trkpt>
      <trkpt lat="46.67977" lon="-1.21819">
        <ele>104.5</ele>
        <time>2022-02-23T23:12:47Z</time>
      </trkpt>
      <trkpt lat="46.67911" lon="-1.21831">
        <ele>102.8</ele>
        <time>2022-02-23T23:12:59Z</time>
      </trkpt>
      <trkpt lat="46.67883" lon="-1.21841">
        <ele>102.2</ele>
        <time>2022-02-23T23:13:04Z</time>
      </trkpt>
      <trkpt lat="46.67852" lon="-1.21856">
        <ele>101.7</ele>
        <time>2022-02-23T23:13:10Z</time>
      </trkpt>
      <trkpt lat="46.67656" lon="-1.22019">
        <ele>97</ele>
        <time>2022-02-23T23:13:50Z</time>
      </trkpt>
      <trkpt lat="46.67616" lon="-1.22045">
        <ele>96.8</ele>
        <time>2022-02-23T23:13:58Z</time>
      </trkpt>
      <trkpt lat="46.6752" lon="-1.22091">
        <ele>99.2</ele>
        <time>2022-02-23T23:14:16Z</time>
      </trkpt>
      <trkpt lat="46.6748" lon="-1.22121">
        <ele>99.8</ele>
        <time>2022-02-23T23:14:24Z</time>
      </trkpt>
      <trkpt lat="46.67452" lon="-1.22148">
        <ele>100</ele>
        <time>2022-02-23T23:14:30Z</time>
      </trkpt>
      <trkpt lat="46.67358" lon="-1.22265">
        <ele>99.4</ele>
        <time>2022-02-23T23:14:52Z</time>
      </trkpt>
      <trkpt lat="46.67324" lon="-1.22305">
        <ele>98</ele>
        <time>2022-02-23T23:15:00Z</time>
      </trkpt>
      <trkpt lat="46.67291" lon="-1.22334">
        <ele>97</ele>
        <time>2022-02-23T23:15:06Z</time>
      </trkpt>
      <trkpt lat="46.67238" lon="-1.22373">
        <ele>95.5</ele>
        <time>2022-02-23T23:15:17Z</time>
      </trkpt>
      <trkpt lat="46.67224" lon="-1.22391">
        <ele>96</ele>
        <time>2022-02-23T23:15:20Z</time>
      </trkpt>
      <trkpt lat="46.67215" lon="-1.22411">
        <ele>96.8</ele>
        <time>2022-02-23T23:15:23Z</time>
      </trkpt>
      <trkpt lat="46.67208" lon="-1.22434">
        <ele>97</ele>
        <time>2022-02-23T23:15:26Z</time>
      </trkpt>
      <trkpt lat="46.67178" lon="-1.22588">
        <ele>98.6</ele>
        <time>2022-02-23T23:15:46Z</time>
      </trkpt>
      <trkpt lat="46.67169" lon="-1.22614">
        <ele>98.9</ele>
        <time>2022-02-23T23:15:49Z</time>
      </trkpt>
      <trkpt lat="46.67155" lon="-1.22645">
        <ele>99.3</ele>
        <time>2022-02-23T23:15:54Z</time>
      </trkpt>
      <trkpt lat="46.67134" lon="-1.22685">
        <ele>99.9</ele>
        <time>2022-02-23T23:16:00Z</time>
      </trkpt>
      <trkpt lat="46.67118" lon="-1.22711">
        <ele>100.2</ele>
        <time>2022-02-23T23:16:04Z</time>
      </trkpt>
      <trkpt lat="46.67097" lon="-1.22735">
        <ele>101</ele>
        <time>2022-02-23T23:16:09Z</time>
      </trkpt>
      <trkpt lat="46.67048" lon="-1.22781">
        <ele>101.6</ele>
        <time>2022-02-23T23:16:19Z</time>
      </trkpt>
      <trkpt lat="46.67033" lon="-1.22802">
        <ele>102.1</ele>
        <time>2022-02-23T23:16:23Z</time>
      </trkpt>
      <trkpt lat="46.66975" lon="-1.22906">
        <ele>103.6</ele>
        <time>2022-02-23T23:16:39Z</time>
      </trkpt>
      <trkpt lat="46.66959" lon="-1.22931">
        <ele>104</ele>
        <time>2022-02-23T23:16:44Z</time>
      </trkpt>
      <trkpt lat="46.6694" lon="-1.2295">
        <ele>104</ele>
        <time>2022-02-23T23:16:48Z</time>
      </trkpt>
      <trkpt lat="46.66917" lon="-1.22966">
        <ele>104</ele>
        <time>2022-02-23T23:16:52Z</time>
      </trkpt>
      <trkpt lat="46.66892" lon="-1.22978">
        <ele>104</ele>
        <time>2022-02-23T23:16:57Z</time>
      </trkpt>
      <trkpt lat="46.66813" lon="-1.23">
        <ele>102</ele>
        <time>2022-02-23T23:17:11Z</time>
      </trkpt>
      <trkpt lat="46.66794" lon="-1.23012">
        <ele>101.6</ele>
        <time>2022-02-23T23:17:15Z</time>
      </trkpt>
      <trkpt lat="46.66783" lon="-1.23023">
        <ele>101.2</ele>
        <time>2022-02-23T23:17:17Z</time>
      </trkpt>
      <trkpt lat="46.66738" lon="-1.23089">
        <ele>100</ele>
        <time>2022-02-23T23:17:29Z</time>
      </trkpt>
      <trkpt lat="46.66724" lon="-1.23107">
        <ele>100</ele>
        <time>2022-02-23T23:17:32Z</time>
      </trkpt>
      <trkpt lat="46.66706" lon="-1.23125">
        <ele>99.2</ele>
        <time>2022-02-23T23:17:36Z</time>
      </trkpt>
      <trkpt lat="46.66651" lon="-1.23169">
        <ele>98.4</ele>
        <time>2022-02-23T23:17:47Z</time>
      </trkpt>
      <trkpt lat="46.66609" lon="-1.23195">
        <ele>97.9</ele>
        <time>2022-02-23T23:17:55Z</time>
      </trkpt>
      <trkpt lat="46.66596" lon="-1.23201">
        <ele>97.5</ele>
        <time>2022-02-23T23:17:58Z</time>
      </trkpt>
      <trkpt lat="46.66565" lon="-1.23211">
        <ele>96.7</ele>
        <time>2022-02-23T23:18:03Z</time>
      </trkpt>
      <trkpt lat="46.66449" lon="-1.23232">
        <ele>95.5</ele>
        <time>2022-02-23T23:18:24Z</time>
      </trkpt>
      <trkpt lat="46.66418" lon="-1.23232">
        <ele>95</ele>
        <time>2022-02-23T23:18:30Z</time>
      </trkpt>
      <trkpt lat="46.66361" lon="-1.23226">
        <ele>94</ele>
        <time>2022-02-23T23:18:40Z</time>
      </trkpt>
      <trkpt lat="46.66338" lon="-1.23225">
        <ele>93.9</ele>
        <time>2022-02-23T23:18:44Z</time>
      </trkpt>
      <trkpt lat="46.66275" lon="-1.23233">
        <ele>93.1</ele>
        <time>2022-02-23T23:18:55Z</time>
      </trkpt>
      <trkpt lat="46.66188" lon="-1.23239">
        <ele>94.3</ele>
        <time>2022-02-23T23:19:11Z</time>
      </trkpt>
      <trkpt lat="46.66157" lon="-1.23238">
        <ele>93.8</ele>
        <time>2022-02-23T23:19:16Z</time>
      </trkpt>
      <trkpt lat="46.66143" lon="-1.23239">
        <ele>93.5</ele>
        <time>2022-02-23T23:19:19Z</time>
      </trkpt>
      <trkpt lat="46.66124" lon="-1.23235">
        <ele>93</ele>
        <time>2022-02-23T23:19:22Z</time>
      </trkpt>
      <trkpt lat="46.66097" lon="-1.23222">
        <ele>93</ele>
        <time>2022-02-23T23:19:27Z</time>
      </trkpt>
      <trkpt lat="46.66072" lon="-1.23205">
        <ele>93.2</ele>
        <time>2022-02-23T23:19:32Z</time>
      </trkpt>
      <trkpt lat="46.66045" lon="-1.23194">
        <ele>93.4</ele>
        <time>2022-02-23T23:19:37Z</time>
      </trkpt>
      <trkpt lat="46.66021" lon="-1.23193">
        <ele>94.2</ele>
        <time>2022-02-23T23:19:41Z</time>
      </trkpt>
      <trkpt lat="46.66006" lon="-1.23195">
        <ele>94.8</ele>
        <time>2022-02-23T23:19:44Z</time>
      </trkpt>
      <trkpt lat="46.65962" lon="-1.23205">
        <ele>95.4</ele>
        <time>2022-02-23T23:19:52Z</time>
      </trkpt>
      <trkpt lat="46.65956" lon="-1.23207">
        <ele>95.6</ele>
        <time>2022-02-23T23:19:53Z</time>
      </trkpt>
      <trkpt lat="46.65945" lon="-1.23215">
        <ele>96</ele>
        <time>2022-02-23T23:19:55Z</time>
      </trkpt>
      <trkpt lat="46.65855" lon="-1.23322">
        <ele>93.9</ele>
        <time>2022-02-23T23:20:16Z</time>
      </trkpt>
      <trkpt lat="46.65839" lon="-1.23303">
        <ele>94</ele>
        <time>2022-02-23T23:20:19Z</time>
      </trkpt>
      <trkpt lat="46.6578" lon="-1.23247">
        <ele>93</ele>
        <time>2022-02-23T23:20:32Z</time>
      </trkpt>
      <trkpt lat="46.6573" lon="-1.23196">
        <ele>92.9</ele>
        <time>2022-02-23T23:20:43Z</time>
      </trkpt>
      <trkpt lat="46.6571" lon="-1.23182">
        <ele>93</ele>
        <time>2022-02-23T23:20:47Z</time>
      </trkpt>
      <trkpt lat="46.65623" lon="-1.23139">
        <ele>92.4</ele>
        <time>2022-02-23T23:21:03Z</time>
      </trkpt>
      <trkpt lat="46.65609" lon="-1.23129">
        <ele>92.4</ele>
        <time>2022-02-23T23:21:06Z</time>
      </trkpt>
      <trkpt lat="46.6559" lon="-1.23111">
        <ele>93</ele>
        <time>2022-02-23T23:21:10Z</time>
      </trkpt>
      <trkpt lat="46.65493" lon="-1.23001">
        <ele>96.2</ele>
        <time>2022-02-23T23:21:32Z</time>
      </trkpt>
      <trkpt lat="46.65486" lon="-1.22995">
        <ele>96.4</ele>
        <time>2022-02-23T23:21:33Z</time>
      </trkpt>
      <trkpt lat="46.65474" lon="-1.2299">
        <ele>96.6</ele>
        <time>2022-02-23T23:21:36Z</time>
      </trkpt>
      <trkpt lat="46.65425" lon="-1.22982">
        <ele>99.2</ele>
        <time>2022-02-23T23:21:44Z</time>
      </trkpt>
      <trkpt lat="46.65412" lon="-1.22984">
        <ele>99.8</ele>
        <time>2022-02-23T23:21:47Z</time>
      </trkpt>
      <trkpt lat="46.65386" lon="-1.22995">
        <ele>101</ele>
        <time>2022-02-23T23:21:51Z</time>
      </trkpt>
      <trkpt lat="46.65376" lon="-1.23006">
        <ele>100.9</ele>
        <time>2022-02-23T23:21:54Z</time>
      </trkpt>
      <trkpt lat="46.65369" lon="-1.23008">
        <ele>100.9</ele>
        <time>2022-02-23T23:21:55Z</time>
      </trkpt>
      <trkpt lat="46.65357" lon="-1.23004">
        <ele>101</ele>
        <time>2022-02-23T23:21:57Z</time>
      </trkpt>
      <trkpt lat="46.65334" lon="-1.23008">
        <ele>101</ele>
        <time>2022-02-23T23:22:01Z</time>
      </trkpt>
      <trkpt lat="46.6532" lon="-1.23016">
        <ele>98.4</ele>
        <time>2022-02-23T23:22:04Z</time>
      </trkpt>
      <trkpt lat="46.65285" lon="-1.23038">
        <ele>99.6</ele>
        <time>2022-02-23T23:22:11Z</time>
      </trkpt>
      <trkpt lat="46.65247" lon="-1.23061">
        <ele>100.9</ele>
        <time>2022-02-23T23:22:18Z</time>
      </trkpt>
      <trkpt lat="46.65227" lon="-1.23067">
        <ele>100.2</ele>
        <time>2022-02-23T23:22:22Z</time>
      </trkpt>
      <trkpt lat="46.65206" lon="-1.23068">
        <ele>99.2</ele>
        <time>2022-02-23T23:22:25Z</time>
      </trkpt>
      <trkpt lat="46.65184" lon="-1.23063">
        <ele>98.2</ele>
        <time>2022-02-23T23:22:29Z</time>
      </trkpt>
      <trkpt lat="46.65165" lon="-1.23052">
        <ele>97.7</ele>
        <time>2022-02-23T23:22:33Z</time>
      </trkpt>
      <trkpt lat="46.65155" lon="-1.23044">
        <ele>96.6</ele>
        <time>2022-02-23T23:22:35Z</time>
      </trkpt>
      <trkpt lat="46.65103" lon="-1.22985">
        <ele>95.6</ele>
        <time>2022-02-23T23:22:47Z</time>
      </trkpt>
      <trkpt lat="46.65083" lon="-1.2297">
        <ele>95.1</ele>
        <time>2022-02-23T23:22:51Z</time>
      </trkpt>
      <trkpt lat="46.65062" lon="-1.22961">
        <ele>94.6</ele>
        <time>2022-02-23T23:22:55Z</time>
      </trkpt>
      <trkpt lat="46.65023" lon="-1.2296">
        <ele>94.3</ele>
        <time>2022-02-23T23:23:02Z</time>
      </trkpt>
      <trkpt lat="46.64902" lon="-1.22968">
        <ele>93.6</ele>
        <time>2022-02-23T23:23:23Z</time>
      </trkpt>
      <trkpt lat="46.64881" lon="-1.22973">
        <ele>93.3</ele>
        <time>2022-02-23T23:23:27Z</time>
      </trkpt>
      <trkpt lat="46.64847" lon="-1.22987">
        <ele>93.7</ele>
        <time>2022-02-23T23:23:33Z</time>
      </trkpt>
      <trkpt lat="46.6466" lon="-1.23086">
        <ele>97</ele>
        <time>2022-02-23T23:24:09Z</time>
      </trkpt>
      <trkpt lat="46.64423" lon="-1.23177">
        <ele>94.5</ele>
        <time>2022-02-23T23:24:52Z</time>
      </trkpt>
      <trkpt lat="46.64369" lon="-1.2319">
        <ele>95</ele>
        <time>2022-02-23T23:25:02Z</time>
      </trkpt>
      <trkpt lat="46.64281" lon="-1.23206">
        <ele>94.1</ele>
        <time>2022-02-23T23:25:18Z</time>
      </trkpt>
      <trkpt lat="46.64227" lon="-1.23221">
        <ele>94</ele>
        <time>2022-02-23T23:25:28Z</time>
      </trkpt>
      <trkpt lat="46.64083" lon="-1.2329">
        <ele>93.4</ele>
        <time>2022-02-23T23:25:54Z</time>
      </trkpt>
      <trkpt lat="46.6406" lon="-1.23298">
        <ele>93.7</ele>
        <time>2022-02-23T23:25:59Z</time>
      </trkpt>
      <trkpt lat="46.63885" lon="-1.23319">
        <ele>87.9</ele>
        <time>2022-02-23T23:26:30Z</time>
      </trkpt>
      <trkpt lat="46.63835" lon="-1.23316">
        <ele>87.4</ele>
        <time>2022-02-23T23:26:39Z</time>
      </trkpt>
      <trkpt lat="46.6372" lon="-1.23294">
        <ele>87.6</ele>
        <time>2022-02-23T23:26:59Z</time>
      </trkpt>
      <trkpt lat="46.63684" lon="-1.23291">
        <ele>88.1</ele>
        <time>2022-02-23T23:27:06Z</time>
      </trkpt>
      <trkpt lat="46.63659" lon="-1.23296">
        <ele>88.9</ele>
        <time>2022-02-23T23:27:10Z</time>
      </trkpt>
      <trkpt lat="46.63594" lon="-1.23327">
        <ele>90.8</ele>
        <time>2022-02-23T23:27:23Z</time>
      </trkpt>
      <trkpt lat="46.63566" lon="-1.23339">
        <ele>90.5</ele>
        <time>2022-02-23T23:27:28Z</time>
      </trkpt>
      <trkpt lat="46.63479" lon="-1.23364">
        <ele>88.3</ele>
        <time>2022-02-23T23:27:44Z</time>
      </trkpt>
      <trkpt lat="46.63452" lon="-1.23368">
        <ele>86.7</ele>
        <time>2022-02-23T23:27:48Z</time>
      </trkpt>
      <trkpt lat="46.63437" lon="-1.23367">
        <ele>85.9</ele>
        <time>2022-02-23T23:27:51Z</time>
      </trkpt>
      <trkpt lat="46.63403" lon="-1.23361">
        <ele>85</ele>
        <time>2022-02-23T23:27:57Z</time>
      </trkpt>
      <trkpt lat="46.63264" lon="-1.23312">
        <ele>80.7</ele>
        <time>2022-02-23T23:28:23Z</time>
      </trkpt>
      <trkpt lat="46.63217" lon="-1.233">
        <ele>78</ele>
        <time>2022-02-23T23:28:31Z</time>
      </trkpt>
      <trkpt lat="46.63169" lon="-1.23301">
        <ele>76.1</ele>
        <time>2022-02-23T23:28:40Z</time>
      </trkpt>
      <trkpt lat="46.63056" lon="-1.23316">
        <ele>73.4</ele>
        <time>2022-02-23T23:29:00Z</time>
      </trkpt>
      <trkpt lat="46.6303" lon="-1.23317">
        <ele>73.4</ele>
        <time>2022-02-23T23:29:04Z</time>
      </trkpt>
      <trkpt lat="46.63016" lon="-1.23315">
        <ele>73.5</ele>
        <time>2022-02-23T23:29:07Z</time>
      </trkpt>
      <trkpt lat="46.62949" lon="-1.23291">
        <ele>72</ele>
        <time>2022-02-23T23:29:19Z</time>
      </trkpt>
      <trkpt lat="46.62925" lon="-1.2329">
        <ele>70.8</ele>
        <time>2022-02-23T23:29:23Z</time>
      </trkpt>
      <trkpt lat="46.62907" lon="-1.23293">
        <ele>69.9</ele>
        <time>2022-02-23T23:29:27Z</time>
      </trkpt>
      <trkpt lat="46.62751" lon="-1.23345">
        <ele>76.2</ele>
        <time>2022-02-23T23:29:55Z</time>
      </trkpt>
      <trkpt lat="46.62718" lon="-1.23354">
        <ele>78.4</ele>
        <time>2022-02-23T23:30:01Z</time>
      </trkpt>
      <trkpt lat="46.627" lon="-1.23356">
        <ele>79.4</ele>
        <time>2022-02-23T23:30:04Z</time>
      </trkpt>
      <trkpt lat="46.62663" lon="-1.23353">
        <ele>80.5</ele>
        <time>2022-02-23T23:30:11Z</time>
      </trkpt>
      <trkpt lat="46.62633" lon="-1.23341">
        <ele>80.7</ele>
        <time>2022-02-23T23:30:16Z</time>
      </trkpt>
      <trkpt lat="46.62547" lon="-1.23283">
        <ele>78.8</ele>
        <time>2022-02-23T23:30:33Z</time>
      </trkpt>
      <trkpt lat="46.62511" lon="-1.23267">
        <ele>78.8</ele>
        <time>2022-02-23T23:30:40Z</time>
      </trkpt>
      <trkpt lat="46.62493" lon="-1.23261">
        <ele>78.9</ele>
        <time>2022-02-23T23:30:43Z</time>
      </trkpt>
      <trkpt lat="46.62479" lon="-1.2326">
        <ele>79.2</ele>
        <time>2022-02-23T23:30:46Z</time>
      </trkpt>
      <trkpt lat="46.62454" lon="-1.23262">
        <ele>78.8</ele>
        <time>2022-02-23T23:30:50Z</time>
      </trkpt>
      <trkpt lat="46.6237" lon="-1.23277">
        <ele>76.3</ele>
        <time>2022-02-23T23:31:05Z</time>
      </trkpt>
      <trkpt lat="46.62334" lon="-1.23289">
        <ele>74.4</ele>
        <time>2022-02-23T23:31:12Z</time>
      </trkpt>
      <trkpt lat="46.62298" lon="-1.23308">
        <ele>72.8</ele>
        <time>2022-02-23T23:31:19Z</time>
      </trkpt>
      <trkpt lat="46.62204" lon="-1.2338">
        <ele>69.6</ele>
        <time>2022-02-23T23:31:38Z</time>
      </trkpt>
      <trkpt lat="46.62181" lon="-1.23396">
        <ele>68.7</ele>
        <time>2022-02-23T23:31:42Z</time>
      </trkpt>
      <trkpt lat="46.62153" lon="-1.23412">
        <ele>68.2</ele>
        <time>2022-02-23T23:31:48Z</time>
      </trkpt>
      <trkpt lat="46.62115" lon="-1.23429">
        <ele>67.6</ele>
        <time>2022-02-23T23:31:55Z</time>
      </trkpt>
      <trkpt lat="46.62101" lon="-1.23432">
        <ele>67.1</ele>
        <time>2022-02-23T23:31:57Z</time>
      </trkpt>
      <trkpt lat="46.62084" lon="-1.23432">
        <ele>66.5</ele>
        <time>2022-02-23T23:32:00Z</time>
      </trkpt>
      <trkpt lat="46.62043" lon="-1.23425">
        <ele>64.9</ele>
        <time>2022-02-23T23:32:07Z</time>
      </trkpt>
      <trkpt lat="46.62012" lon="-1.23427">
        <ele>63.4</ele>
        <time>2022-02-23T23:32:13Z</time>
      </trkpt>
      <trkpt lat="46.61991" lon="-1.23437">
        <ele>62.8</ele>
        <time>2022-02-23T23:32:17Z</time>
      </trkpt>
      <trkpt lat="46.61938" lon="-1.23484">
        <ele>62.4</ele>
        <time>2022-02-23T23:32:28Z</time>
      </trkpt>
      <trkpt lat="46.6192" lon="-1.23494">
        <ele>62.8</ele>
        <time>2022-02-23T23:32:31Z</time>
      </trkpt>
      <trkpt lat="46.61796" lon="-1.23551">
        <ele>64</ele>
        <time>2022-02-23T23:32:55Z</time>
      </trkpt>
      <trkpt lat="46.61774" lon="-1.23563">
        <ele>64</ele>
        <time>2022-02-23T23:32:59Z</time>
      </trkpt>
      <trkpt lat="46.61743" lon="-1.23587">
        <ele>63.7</ele>
        <time>2022-02-23T23:33:05Z</time>
      </trkpt>
      <trkpt lat="46.61723" lon="-1.23611">
        <ele>63</ele>
        <time>2022-02-23T23:33:10Z</time>
      </trkpt>
      <trkpt lat="46.61684" lon="-1.23669">
        <ele>62.3</ele>
        <time>2022-02-23T23:33:19Z</time>
      </trkpt>
      <trkpt lat="46.61618" lon="-1.23759">
        <ele>61.6</ele>
        <time>2022-02-23T23:33:36Z</time>
      </trkpt>
      <trkpt lat="46.61548" lon="-1.23826">
        <ele>60.7</ele>
        <time>2022-02-23T23:33:50Z</time>
      </trkpt>
      <trkpt lat="46.61523" lon="-1.23853">
        <ele>60.6</ele>
        <time>2022-02-23T23:33:56Z</time>
      </trkpt>
      <trkpt lat="46.61483" lon="-1.23906">
        <ele>60</ele>
        <time>2022-02-23T23:34:06Z</time>
      </trkpt>
      <trkpt lat="46.61436" lon="-1.2397">
        <ele>59.7</ele>
        <time>2022-02-23T23:34:17Z</time>
      </trkpt>
      <trkpt lat="46.61367" lon="-1.24081">
        <ele>59</ele>
        <time>2022-02-23T23:34:35Z</time>
      </trkpt>
      <trkpt lat="46.61359" lon="-1.2409">
        <ele>59</ele>
        <time>2022-02-23T23:34:37Z</time>
      </trkpt>
      <trkpt lat="46.61348" lon="-1.24096">
        <ele>59</ele>
        <time>2022-02-23T23:34:39Z</time>
      </trkpt>
      <trkpt lat="46.61306" lon="-1.24104">
        <ele>59</ele>
        <time>2022-02-23T23:34:47Z</time>
      </trkpt>
      <trkpt lat="46.61246" lon="-1.24108">
        <ele>57</ele>
        <time>2022-02-23T23:34:58Z</time>
      </trkpt>
      <trkpt lat="46.61237" lon="-1.24112">
        <ele>56.6</ele>
        <time>2022-02-23T23:34:59Z</time>
      </trkpt>
      <trkpt lat="46.61229" lon="-1.24104">
        <ele>56.3</ele>
        <time>2022-02-23T23:35:01Z</time>
      </trkpt>
      <trkpt lat="46.61209" lon="-1.24071">
        <ele>54.8</ele>
        <time>2022-02-23T23:35:06Z</time>
      </trkpt>
      <trkpt lat="46.61181" lon="-1.24088">
        <ele>53.7</ele>
        <time>2022-02-23T23:35:12Z</time>
      </trkpt>
      <trkpt lat="46.61144" lon="-1.24116">
        <ele>53.2</ele>
        <time>2022-02-23T23:35:19Z</time>
      </trkpt>
      <trkpt lat="46.61133" lon="-1.24132">
        <ele>53</ele>
        <time>2022-02-23T23:35:22Z</time>
      </trkpt>
      <trkpt lat="46.61115" lon="-1.24164">
        <ele>51.4</ele>
        <time>2022-02-23T23:35:27Z</time>
      </trkpt>
      <trkpt lat="46.61106" lon="-1.24176">
        <ele>50.9</ele>
        <time>2022-02-23T23:35:29Z</time>
      </trkpt>
      <trkpt lat="46.6108" lon="-1.24191">
        <ele>49</ele>
        <time>2022-02-23T23:35:34Z</time>
      </trkpt>
      <trkpt lat="46.61063" lon="-1.24196">
        <ele>47.5</ele>
        <time>2022-02-23T23:35:37Z</time>
      </trkpt>
      <trkpt lat="46.61041" lon="-1.24194">
        <ele>45.5</ele>
        <time>2022-02-23T23:35:41Z</time>
      </trkpt>
      <trkpt lat="46.61011" lon="-1.24182">
        <ele>43.9</ele>
        <time>2022-02-23T23:35:47Z</time>
      </trkpt>
      <trkpt lat="46.60981" lon="-1.2416">
        <ele>40.3</ele>
        <time>2022-02-23T23:35:53Z</time>
      </trkpt>
      <trkpt lat="46.60918" lon="-1.24093">
        <ele>39.9</ele>
        <time>2022-02-23T23:36:06Z</time>
      </trkpt>
      <trkpt lat="46.60812" lon="-1.24001">
        <ele>46.6</ele>
        <time>2022-02-23T23:36:28Z</time>
      </trkpt>
      <trkpt lat="46.60796" lon="-1.2398">
        <ele>48.7</ele>
        <time>2022-02-23T23:36:32Z</time>
      </trkpt>
      <trkpt lat="46.60774" lon="-1.23941">
        <ele>50.4</ele>
        <time>2022-02-23T23:36:38Z</time>
      </trkpt>
      <trkpt lat="46.60765" lon="-1.23917">
        <ele>52</ele>
        <time>2022-02-23T23:36:42Z</time>
      </trkpt>
      <trkpt lat="46.60759" lon="-1.23893">
        <ele>53.1</ele>
        <time>2022-02-23T23:36:45Z</time>
      </trkpt>
      <trkpt lat="46.60736" lon="-1.23762">
        <ele>59.4</ele>
        <time>2022-02-23T23:37:01Z</time>
      </trkpt>
      <trkpt lat="46.60717" lon="-1.23686">
        <ele>61.5</ele>
        <time>2022-02-23T23:37:11Z</time>
      </trkpt>
      <trkpt lat="46.60698" lon="-1.23641">
        <ele>63</ele>
        <time>2022-02-23T23:37:18Z</time>
      </trkpt>
      <trkpt lat="46.60687" lon="-1.23623">
        <ele>63.3</ele>
        <time>2022-02-23T23:37:21Z</time>
      </trkpt>
      <trkpt lat="46.60661" lon="-1.23594">
        <ele>64.1</ele>
        <time>2022-02-23T23:37:27Z</time>
      </trkpt>
      <trkpt lat="46.60553" lon="-1.23535">
        <ele>65.7</ele>
        <time>2022-02-23T23:37:47Z</time>
      </trkpt>
      <trkpt lat="46.60553" lon="-1.23531">
        <ele>65.8</ele>
        <time>2022-02-23T23:37:48Z</time>
      </trkpt>
      <trkpt lat="46.6039" lon="-1.23225">
        <ele>62.1</ele>
        <time>2022-02-23T23:38:35Z</time>
      </trkpt>
      <trkpt lat="46.60363" lon="-1.23182">
        <ele>61.6</ele>
        <time>2022-02-23T23:38:42Z</time>
      </trkpt>
      <trkpt lat="46.60342" lon="-1.23157">
        <ele>60.8</ele>
        <time>2022-02-23T23:38:47Z</time>
      </trkpt>
      <trkpt lat="46.60324" lon="-1.23141">
        <ele>59.7</ele>
        <time>2022-02-23T23:38:51Z</time>
      </trkpt>
      <trkpt lat="46.60297" lon="-1.23123">
        <ele>58.5</ele>
        <time>2022-02-23T23:38:56Z</time>
      </trkpt>
      <trkpt lat="46.60243" lon="-1.23093">
        <ele>55.6</ele>
        <time>2022-02-23T23:39:06Z</time>
      </trkpt>
      <trkpt lat="46.60225" lon="-1.2308">
        <ele>54.3</ele>
        <time>2022-02-23T23:39:10Z</time>
      </trkpt>
      <trkpt lat="46.60204" lon="-1.23057">
        <ele>53.7</ele>
        <time>2022-02-23T23:39:14Z</time>
      </trkpt>
      <trkpt lat="46.60189" lon="-1.23032">
        <ele>53.1</ele>
        <time>2022-02-23T23:39:18Z</time>
      </trkpt>
      <trkpt lat="46.60174" lon="-1.22997">
        <ele>52.4</ele>
        <time>2022-02-23T23:39:24Z</time>
      </trkpt>
      <trkpt lat="46.60135" lon="-1.22869">
        <ele>49.5</ele>
        <time>2022-02-23T23:39:41Z</time>
      </trkpt>
      <trkpt lat="46.60117" lon="-1.22832">
        <ele>49</ele>
        <time>2022-02-23T23:39:46Z</time>
      </trkpt>
      <trkpt lat="46.59911" lon="-1.22553">
        <ele>44.4</ele>
        <time>2022-02-23T23:40:36Z</time>
      </trkpt>
      <trkpt lat="46.59899" lon="-1.22522">
        <ele>42.6</ele>
        <time>2022-02-23T23:40:41Z</time>
      </trkpt>
      <trkpt lat="46.5989" lon="-1.22476">
        <ele>42</ele>
        <time>2022-02-23T23:40:46Z</time>
      </trkpt>
      <trkpt lat="46.59881" lon="-1.22457">
        <ele>42.6</ele>
        <time>2022-02-23T23:40:49Z</time>
      </trkpt>
      <trkpt lat="46.59867" lon="-1.22438">
        <ele>41.3</ele>
        <time>2022-02-23T23:40:53Z</time>
      </trkpt>
      <trkpt lat="46.59838" lon="-1.22406">
        <ele>39.5</ele>
        <time>2022-02-23T23:40:59Z</time>
      </trkpt>
      <trkpt lat="46.59829" lon="-1.22391">
        <ele>39.4</ele>
        <time>2022-02-23T23:41:02Z</time>
      </trkpt>
      <trkpt lat="46.59824" lon="-1.22373">
        <ele>38.4</ele>
        <time>2022-02-23T23:41:04Z</time>
      </trkpt>
      <trkpt lat="46.59821" lon="-1.22338">
        <ele>37.7</ele>
        <time>2022-02-23T23:41:08Z</time>
      </trkpt>
      <trkpt lat="46.59818" lon="-1.22323">
        <ele>37.4</ele>
        <time>2022-02-23T23:41:10Z</time>
      </trkpt>
      <trkpt lat="46.59814" lon="-1.22311">
        <ele>37.2</ele>
        <time>2022-02-23T23:41:12Z</time>
      </trkpt>
      <trkpt lat="46.59808" lon="-1.22301">
        <ele>36.9</ele>
        <time>2022-02-23T23:41:13Z</time>
      </trkpt>
      <trkpt lat="46.59797" lon="-1.22288">
        <ele>37.3</ele>
        <time>2022-02-23T23:41:16Z</time>
      </trkpt>
      <trkpt lat="46.59791" lon="-1.22278">
        <ele>38.1</ele>
        <time>2022-02-23T23:41:18Z</time>
      </trkpt>
      <trkpt lat="46.59785" lon="-1.22258">
        <ele>39.5</ele>
        <time>2022-02-23T23:41:20Z</time>
      </trkpt>
      <trkpt lat="46.59787" lon="-1.22196">
        <ele>42</ele>
        <time>2022-02-23T23:41:28Z</time>
      </trkpt>
      <trkpt lat="46.59783" lon="-1.22172">
        <ele>42.4</ele>
        <time>2022-02-23T23:41:31Z</time>
      </trkpt>
      <trkpt lat="46.59777" lon="-1.22158">
        <ele>42.8</ele>
        <time>2022-02-23T23:41:33Z</time>
      </trkpt>
      <trkpt lat="46.5974" lon="-1.22094">
        <ele>47.1</ele>
        <time>2022-02-23T23:41:43Z</time>
      </trkpt>
      <trkpt lat="46.59724" lon="-1.2205">
        <ele>49.2</ele>
        <time>2022-02-23T23:41:49Z</time>
      </trkpt>
      <trkpt lat="46.59716" lon="-1.22008">
        <ele>51</ele>
        <time>2022-02-23T23:41:55Z</time>
      </trkpt>
      <trkpt lat="46.59712" lon="-1.21965">
        <ele>51.2</ele>
        <time>2022-02-23T23:42:00Z</time>
      </trkpt>
      <trkpt lat="46.59712" lon="-1.21943">
        <ele>50.8</ele>
        <time>2022-02-23T23:42:03Z</time>
      </trkpt>
      <trkpt lat="46.59717" lon="-1.21886">
        <ele>52.3</ele>
        <time>2022-02-23T23:42:10Z</time>
      </trkpt>
      <trkpt lat="46.59722" lon="-1.21849">
        <ele>53.4</ele>
        <time>2022-02-23T23:42:14Z</time>
      </trkpt>
      <trkpt lat="46.59724" lon="-1.21809">
        <ele>53.9</ele>
        <time>2022-02-23T23:42:19Z</time>
      </trkpt>
      <trkpt lat="46.59723" lon="-1.21776">
        <ele>54.9</ele>
        <time>2022-02-23T23:42:23Z</time>
      </trkpt>
      <trkpt lat="46.59719" lon="-1.21744">
        <ele>55.1</ele>
        <time>2022-02-23T23:42:27Z</time>
      </trkpt>
      <trkpt lat="46.59698" lon="-1.21626">
        <ele>56.5</ele>
        <time>2022-02-23T23:42:42Z</time>
      </trkpt>
      <trkpt lat="46.59694" lon="-1.21588">
        <ele>56.8</ele>
        <time>2022-02-23T23:42:47Z</time>
      </trkpt>
      <trkpt lat="46.5966" lon="-1.20748">
        <ele>49.2</ele>
        <time>2022-02-23T23:44:30Z</time>
      </trkpt>
      <trkpt lat="46.59658" lon="-1.20666">
        <ele>48.6</ele>
        <time>2022-02-23T23:44:40Z</time>
      </trkpt>
      <trkpt lat="46.5966" lon="-1.20613">
        <ele>48.3</ele>
        <time>2022-02-23T23:44:46Z</time>
      </trkpt>
      <trkpt lat="46.59664" lon="-1.20578">
        <ele>48.3</ele>
        <time>2022-02-23T23:44:50Z</time>
      </trkpt>
      <trkpt lat="46.59812" lon="-1.1988">
        <ele>55.8</ele>
        <time>2022-02-23T23:46:20Z</time>
      </trkpt>
      <trkpt lat="46.5982" lon="-1.19819">
        <ele>55.5</ele>
        <time>2022-02-23T23:46:27Z</time>
      </trkpt>
      <trkpt lat="46.59823" lon="-1.1975">
        <ele>56.4</ele>
        <time>2022-02-23T23:46:36Z</time>
      </trkpt>
      <trkpt lat="46.59821" lon="-1.19688">
        <ele>56.4</ele>
        <time>2022-02-23T23:46:43Z</time>
      </trkpt>
      <trkpt lat="46.59813" lon="-1.19561">
        <ele>57</ele>
        <time>2022-02-23T23:46:59Z</time>
      </trkpt>
      <trkpt lat="46.598" lon="-1.1937">
        <ele>56.8</ele>
        <time>2022-02-23T23:47:22Z</time>
      </trkpt>
      <trkpt lat="46.59789" lon="-1.19299">
        <ele>56.3</ele>
        <time>2022-02-23T23:47:31Z</time>
      </trkpt>
      <trkpt lat="46.59777" lon="-1.19255">
        <ele>56</ele>
        <time>2022-02-23T23:47:37Z</time>
      </trkpt>
      <trkpt lat="46.59676" lon="-1.18961">
        <ele>56.7</ele>
        <time>2022-02-23T23:48:17Z</time>
      </trkpt>
      <trkpt lat="46.5967" lon="-1.1894">
        <ele>56.1</ele>
        <time>2022-02-23T23:48:20Z</time>
      </trkpt>
      <trkpt lat="46.59666" lon="-1.18916">
        <ele>56</ele>
        <time>2022-02-23T23:48:23Z</time>
      </trkpt>
      <trkpt lat="46.59661" lon="-1.18869">
        <ele>54.9</ele>
        <time>2022-02-23T23:48:29Z</time>
      </trkpt>
      <trkpt lat="46.59655" lon="-1.18794">
        <ele>53.6</ele>
        <time>2022-02-23T23:48:38Z</time>
      </trkpt>
      <trkpt lat="46.59651" lon="-1.1877">
        <ele>53.4</ele>
        <time>2022-02-23T23:48:41Z</time>
      </trkpt>
      <trkpt lat="46.59642" lon="-1.18737">
        <ele>53.6</ele>
        <time>2022-02-23T23:48:45Z</time>
      </trkpt>
      <trkpt lat="46.59626" lon="-1.18707">
        <ele>53.5</ele>
        <time>2022-02-23T23:48:50Z</time>
      </trkpt>
      <trkpt lat="46.59559" lon="-1.18609">
        <ele>52.1</ele>
        <time>2022-02-23T23:49:07Z</time>
      </trkpt>
      <trkpt lat="46.59539" lon="-1.18579">
        <ele>51.4</ele>
        <time>2022-02-23T23:49:12Z</time>
      </trkpt>
      <trkpt lat="46.59525" lon="-1.18552">
        <ele>50.8</ele>
        <time>2022-02-23T23:49:16Z</time>
      </trkpt>
      <trkpt lat="46.59514" lon="-1.18527">
        <ele>50</ele>
        <time>2022-02-23T23:49:20Z</time>
      </trkpt>
      <trkpt lat="46.59502" lon="-1.18494">
        <ele>49.1</ele>
        <time>2022-02-23T23:49:24Z</time>
      </trkpt>
      <trkpt lat="46.59484" lon="-1.18418">
        <ele>48.8</ele>
        <time>2022-02-23T23:49:34Z</time>
      </trkpt>
      <trkpt lat="46.59479" lon="-1.18392">
        <ele>49.2</ele>
        <time>2022-02-23T23:49:38Z</time>
      </trkpt>
      <trkpt lat="46.59566" lon="-1.18359">
        <ele>52</ele>
        <time>2022-02-23T23:49:54Z</time>
      </trkpt>
      <trkpt lat="46.59721" lon="-1.18319">
        <ele>52.5</ele>
        <time>2022-02-23T23:50:22Z</time>
      </trkpt>
      <trkpt lat="46.59735" lon="-1.1831">
        <ele>52.1</ele>
        <time>2022-02-23T23:50:24Z</time>
      </trkpt>
      <trkpt lat="46.59734" lon="-1.18239">
        <ele>50.3</ele>
        <time>2022-02-23T23:50:33Z</time>
      </trkpt>
      <trkpt lat="46.59727" lon="-1.1818">
        <ele>48.6</ele>
        <time>2022-02-23T23:50:40Z</time>
      </trkpt>
      <trkpt lat="46.59701" lon="-1.18037">
        <ele>51.7</ele>
        <time>2022-02-23T23:50:58Z</time>
      </trkpt>
      <trkpt lat="46.59695" lon="-1.17995">
        <ele>52.2</ele>
        <time>2022-02-23T23:51:04Z</time>
      </trkpt>
      <trkpt lat="46.59692" lon="-1.17955">
        <ele>53</ele>
        <time>2022-02-23T23:51:09Z</time>
      </trkpt>
      <trkpt lat="46.59688" lon="-1.17943">
        <ele>53</ele>
        <time>2022-02-23T23:51:10Z</time>
      </trkpt>
      <trkpt lat="46.59706" lon="-1.1792">
        <ele>53.4</ele>
        <time>2022-02-23T23:51:14Z</time>
      </trkpt>
      <trkpt lat="46.597" lon="-1.17904">
        <ele>53.2</ele>
        <time>2022-02-23T23:51:17Z</time>
      </trkpt>
      <trkpt lat="46.59679" lon="-1.17803">
        <ele>52.4</ele>
        <time>2022-02-23T23:51:30Z</time>
      </trkpt>
      <trkpt lat="46.59656" lon="-1.17681">
        <ele>51.8</ele>
        <time>2022-02-23T23:51:45Z</time>
      </trkpt>
      <trkpt lat="46.59638" lon="-1.17592">
        <ele>53</ele>
        <time>2022-02-23T23:51:56Z</time>
      </trkpt>
      <trkpt lat="46.59634" lon="-1.17567">
        <ele>53.6</ele>
        <time>2022-02-23T23:52:00Z</time>
      </trkpt>
      <trkpt lat="46.59633" lon="-1.17534">
        <ele>54</ele>
        <time>2022-02-23T23:52:04Z</time>
      </trkpt>
      <trkpt lat="46.5964" lon="-1.17494">
        <ele>55.2</ele>
        <time>2022-02-23T23:52:09Z</time>
      </trkpt>
      <trkpt lat="46.59669" lon="-1.17356">
        <ele>58</ele>
        <time>2022-02-23T23:52:26Z</time>
      </trkpt>
      <trkpt lat="46.59675" lon="-1.17336">
        <ele>58.3</ele>
        <time>2022-02-23T23:52:29Z</time>
      </trkpt>
      <trkpt lat="46.59694" lon="-1.17297">
        <ele>59</ele>
        <time>2022-02-23T23:52:35Z</time>
      </trkpt>
      <trkpt lat="46.59802" lon="-1.17123">
        <ele>61.4</ele>
        <time>2022-02-23T23:53:03Z</time>
      </trkpt>
      <trkpt lat="46.59822" lon="-1.17095">
        <ele>61.6</ele>
        <time>2022-02-23T23:53:08Z</time>
      </trkpt>
      <trkpt lat="46.59855" lon="-1.17056">
        <ele>61.8</ele>
        <time>2022-02-23T23:53:16Z</time>
      </trkpt>
      <trkpt lat="46.59932" lon="-1.16981">
        <ele>61.1</ele>
        <time>2022-02-23T23:53:32Z</time>
      </trkpt>
      <trkpt lat="46.59953" lon="-1.16954">
        <ele>59.9</ele>
        <time>2022-02-23T23:53:37Z</time>
      </trkpt>
      <trkpt lat="46.59967" lon="-1.16921">
        <ele>57</ele>
        <time>2022-02-23T23:53:42Z</time>
      </trkpt>
      <trkpt lat="46.59972" lon="-1.16904">
        <ele>55.1</ele>
        <time>2022-02-23T23:53:44Z</time>
      </trkpt>
      <trkpt lat="46.59975" lon="-1.16888">
        <ele>54.1</ele>
        <time>2022-02-23T23:53:46Z</time>
      </trkpt>
      <trkpt lat="46.59975" lon="-1.16868">
        <ele>53.3</ele>
        <time>2022-02-23T23:53:49Z</time>
      </trkpt>
      <trkpt lat="46.59972" lon="-1.16849">
        <ele>51.7</ele>
        <time>2022-02-23T23:53:51Z</time>
      </trkpt>
      <trkpt lat="46.59908" lon="-1.16657">
        <ele>33.6</ele>
        <time>2022-02-23T23:54:17Z</time>
      </trkpt>
      <trkpt lat="46.59901" lon="-1.16636">
        <ele>32.4</ele>
        <time>2022-02-23T23:54:20Z</time>
      </trkpt>
      <trkpt lat="46.59868" lon="-1.16541">
        <ele>36</ele>
        <time>2022-02-23T23:54:33Z</time>
      </trkpt>
      <trkpt lat="46.59857" lon="-1.16489">
        <ele>38.4</ele>
        <time>2022-02-23T23:54:40Z</time>
      </trkpt>
      <trkpt lat="46.59855" lon="-1.16467">
        <ele>39.4</ele>
        <time>2022-02-23T23:54:43Z</time>
      </trkpt>
      <trkpt lat="46.59858" lon="-1.16441">
        <ele>39.5</ele>
        <time>2022-02-23T23:54:46Z</time>
      </trkpt>
      <trkpt lat="46.59867" lon="-1.16379">
        <ele>43.3</ele>
        <time>2022-02-23T23:54:54Z</time>
      </trkpt>
      <trkpt lat="46.599" lon="-1.16165">
        <ele>51.3</ele>
        <time>2022-02-23T23:55:20Z</time>
      </trkpt>
      <trkpt lat="46.59906" lon="-1.1612">
        <ele>53.1</ele>
        <time>2022-02-23T23:55:26Z</time>
      </trkpt>
      <trkpt lat="46.59904" lon="-1.16097">
        <ele>54.4</ele>
        <time>2022-02-23T23:55:29Z</time>
      </trkpt>
      <trkpt lat="46.59899" lon="-1.16083">
        <ele>55.3</ele>
        <time>2022-02-23T23:55:31Z</time>
      </trkpt>
      <trkpt lat="46.59885" lon="-1.16065">
        <ele>56.2</ele>
        <time>2022-02-23T23:55:34Z</time>
      </trkpt>
      <trkpt lat="46.59832" lon="-1.16004">
        <ele>59</ele>
        <time>2022-02-23T23:55:46Z</time>
      </trkpt>
      <trkpt lat="46.59807" lon="-1.15973">
        <ele>60.9</ele>
        <time>2022-02-23T23:55:52Z</time>
      </trkpt>
      <trkpt lat="46.59787" lon="-1.15931">
        <ele>61.3</ele>
        <time>2022-02-23T23:55:58Z</time>
      </trkpt>
      <trkpt lat="46.59777" lon="-1.15903">
        <ele>62</ele>
        <time>2022-02-23T23:56:02Z</time>
      </trkpt>
      <trkpt lat="46.59759" lon="-1.15841">
        <ele>61.8</ele>
        <time>2022-02-23T23:56:10Z</time>
      </trkpt>
      <trkpt lat="46.59752" lon="-1.15811">
        <ele>62</ele>
        <time>2022-02-23T23:56:14Z</time>
      </trkpt>
      <trkpt lat="46.59748" lon="-1.15786">
        <ele>61.9</ele>
        <time>2022-02-23T23:56:17Z</time>
      </trkpt>
      <trkpt lat="46.59747" lon="-1.15746">
        <ele>61.9</ele>
        <time>2022-02-23T23:56:22Z</time>
      </trkpt>
      <trkpt lat="46.59746" lon="-1.15653">
        <ele>61.9</ele>
        <time>2022-02-23T23:56:34Z</time>
      </trkpt>
      <trkpt lat="46.59749" lon="-1.15632">
        <ele>61.7</ele>
        <time>2022-02-23T23:56:36Z</time>
      </trkpt>
      <trkpt lat="46.59753" lon="-1.15615">
        <ele>61.2</ele>
        <time>2022-02-23T23:56:38Z</time>
      </trkpt>
      <trkpt lat="46.59784" lon="-1.15529">
        <ele>60.3</ele>
        <time>2022-02-23T23:56:50Z</time>
      </trkpt>
      <trkpt lat="46.59825" lon="-1.15426">
        <ele>60.2</ele>
        <time>2022-02-23T23:57:05Z</time>
      </trkpt>
      <trkpt lat="46.59825" lon="-1.15413">
        <ele>60</ele>
        <time>2022-02-23T23:57:06Z</time>
      </trkpt>
      <trkpt lat="46.59832" lon="-1.15413">
        <ele>60</ele>
        <time>2022-02-23T23:57:08Z</time>
      </trkpt>
      <trkpt lat="46.59835" lon="-1.15391">
        <ele>60.1</ele>
        <time>2022-02-23T23:57:10Z</time>
      </trkpt>
      <trkpt lat="46.59918" lon="-1.15057">
        <ele>59.1</ele>
        <time>2022-02-23T23:57:54Z</time>
      </trkpt>
      <trkpt lat="46.59922" lon="-1.15039">
        <ele>59.2</ele>
        <time>2022-02-23T23:57:56Z</time>
      </trkpt>
      <trkpt lat="46.59925" lon="-1.15004">
        <ele>59.6</ele>
        <time>2022-02-23T23:58:00Z</time>
      </trkpt>
      <trkpt lat="46.59936" lon="-1.14698">
        <ele>63</ele>
        <time>2022-02-23T23:58:38Z</time>
      </trkpt>
      <trkpt lat="46.59937" lon="-1.14633">
        <ele>64.4</ele>
        <time>2022-02-23T23:58:46Z</time>
      </trkpt>
      <trkpt lat="46.59936" lon="-1.1461">
        <ele>65</ele>
        <time>2022-02-23T23:58:49Z</time>
      </trkpt>
      <trkpt lat="46.59931" lon="-1.14578">
        <ele>65.9</ele>
        <time>2022-02-23T23:58:53Z</time>
      </trkpt>
      <trkpt lat="46.59925" lon="-1.14561">
        <ele>65.8</ele>
        <time>2022-02-23T23:58:55Z</time>
      </trkpt>
      <trkpt lat="46.5991" lon="-1.14531">
        <ele>66</ele>
        <time>2022-02-23T23:59:00Z</time>
      </trkpt>
      <trkpt lat="46.599" lon="-1.1452">
        <ele>66</ele>
        <time>2022-02-23T23:59:02Z</time>
      </trkpt>
      <trkpt lat="46.599" lon="-1.14499">
        <ele>66</ele>
        <time>2022-02-23T23:59:04Z</time>
      </trkpt>
      <trkpt lat="46.59894" lon="-1.14432">
        <ele>66</ele>
        <time>2022-02-23T23:59:13Z</time>
      </trkpt>
      <trkpt lat="46.59894" lon="-1.14408">
        <ele>66</ele>
        <time>2022-02-23T23:59:16Z</time>
      </trkpt>
      <trkpt lat="46.59899" lon="-1.14361">
        <ele>66</ele>
        <time>2022-02-23T23:59:21Z</time>
      </trkpt>
      <trkpt lat="46.59938" lon="-1.14153">
        <ele>65.3</ele>
        <time>2022-02-23T23:59:48Z</time>
      </trkpt>
      <trkpt lat="46.59953" lon="-1.14111">
        <ele>65</ele>
        <time>2022-02-23T23:59:53Z</time>
      </trkpt>
      <trkpt lat="46.59962" lon="-1.14094">
        <ele>64.6</ele>
        <time>2022-02-23T23:59:56Z</time>
      </trkpt>
      <trkpt lat="46.59989" lon="-1.14052">
        <ele>63.4</ele>
        <time>2022-02-24T00:00:03Z</time>
      </trkpt>
      <trkpt lat="46.60077" lon="-1.13948">
        <ele>59.4</ele>
        <time>2022-02-24T00:00:23Z</time>
      </trkpt>
      <trkpt lat="46.601" lon="-1.13916">
        <ele>59</ele>
        <time>2022-02-24T00:00:29Z</time>
      </trkpt>
      <trkpt lat="46.60112" lon="-1.13894">
        <ele>57.5</ele>
        <time>2022-02-24T00:00:32Z</time>
      </trkpt>
      <trkpt lat="46.60132" lon="-1.13847">
        <ele>56.1</ele>
        <time>2022-02-24T00:00:39Z</time>
      </trkpt>
      <trkpt lat="46.6014" lon="-1.13819">
        <ele>54.2</ele>
        <time>2022-02-24T00:00:43Z</time>
      </trkpt>
      <trkpt lat="46.60156" lon="-1.13752">
        <ele>56.3</ele>
        <time>2022-02-24T00:00:52Z</time>
      </trkpt>
      <trkpt lat="46.60171" lon="-1.13697">
        <ele>53.2</ele>
        <time>2022-02-24T00:00:59Z</time>
      </trkpt>
      <trkpt lat="46.60191" lon="-1.13641">
        <ele>52.1</ele>
        <time>2022-02-24T00:01:06Z</time>
      </trkpt>
      <trkpt lat="46.60214" lon="-1.13594">
        <ele>51.7</ele>
        <time>2022-02-24T00:01:14Z</time>
      </trkpt>
      <trkpt lat="46.6023" lon="-1.13549">
        <ele>51.2</ele>
        <time>2022-02-24T00:01:20Z</time>
      </trkpt>
      <trkpt lat="46.60248" lon="-1.13522">
        <ele>51.1</ele>
        <time>2022-02-24T00:01:24Z</time>
      </trkpt>
      <trkpt lat="46.60265" lon="-1.13502">
        <ele>52</ele>
        <time>2022-02-24T00:01:28Z</time>
      </trkpt>
      <trkpt lat="46.60276" lon="-1.13485">
        <ele>53</ele>
        <time>2022-02-24T00:01:31Z</time>
      </trkpt>
      <trkpt lat="46.60314" lon="-1.13414">
        <ele>58.7</ele>
        <time>2022-02-24T00:01:42Z</time>
      </trkpt>
      <trkpt lat="46.60332" lon="-1.13393">
        <ele>59.9</ele>
        <time>2022-02-24T00:01:46Z</time>
      </trkpt>
      <trkpt lat="46.60355" lon="-1.1337">
        <ele>61.7</ele>
        <time>2022-02-24T00:01:51Z</time>
      </trkpt>
      <trkpt lat="46.60466" lon="-1.13285">
        <ele>65.9</ele>
        <time>2022-02-24T00:02:13Z</time>
      </trkpt>
      <trkpt lat="46.60506" lon="-1.13247">
        <ele>66.8</ele>
        <time>2022-02-24T00:02:22Z</time>
      </trkpt>
      <trkpt lat="46.60524" lon="-1.13225">
        <ele>66.9</ele>
        <time>2022-02-24T00:02:26Z</time>
      </trkpt>
      <trkpt lat="46.60596" lon="-1.13118">
        <ele>67.9</ele>
        <time>2022-02-24T00:02:44Z</time>
      </trkpt>
      <trkpt lat="46.60637" lon="-1.13046">
        <ele>68.3</ele>
        <time>2022-02-24T00:02:56Z</time>
      </trkpt>
      <trkpt lat="46.60668" lon="-1.12966">
        <ele>70</ele>
        <time>2022-02-24T00:03:07Z</time>
      </trkpt>
      <trkpt lat="46.60677" lon="-1.12946">
        <ele>70</ele>
        <time>2022-02-24T00:03:10Z</time>
      </trkpt>
      <trkpt lat="46.60737" lon="-1.12842">
        <ele>69.5</ele>
        <time>2022-02-24T00:03:27Z</time>
      </trkpt>
      <trkpt lat="46.60751" lon="-1.12815">
        <ele>70</ele>
        <time>2022-02-24T00:03:31Z</time>
      </trkpt>
      <trkpt lat="46.60783" lon="-1.12737">
        <ele>71.2</ele>
        <time>2022-02-24T00:03:42Z</time>
      </trkpt>
      <trkpt lat="46.60817" lon="-1.12675">
        <ele>71.4</ele>
        <time>2022-02-24T00:03:52Z</time>
      </trkpt>
      <trkpt lat="46.60861" lon="-1.12602">
        <ele>72</ele>
        <time>2022-02-24T00:04:03Z</time>
      </trkpt>
      <trkpt lat="46.60869" lon="-1.12583">
        <ele>72.3</ele>
        <time>2022-02-24T00:04:06Z</time>
      </trkpt>
      <trkpt lat="46.60891" lon="-1.12495">
        <ele>72.1</ele>
        <time>2022-02-24T00:04:18Z</time>
      </trkpt>
      <trkpt lat="46.60907" lon="-1.12446">
        <ele>72.7</ele>
        <time>2022-02-24T00:04:24Z</time>
      </trkpt>
      <trkpt lat="46.60915" lon="-1.12415">
        <ele>71.9</ele>
        <time>2022-02-24T00:04:28Z</time>
      </trkpt>
      <trkpt lat="46.60929" lon="-1.12349">
        <ele>70.6</ele>
        <time>2022-02-24T00:04:37Z</time>
      </trkpt>
      <trkpt lat="46.60933" lon="-1.12323">
        <ele>69.6</ele>
        <time>2022-02-24T00:04:40Z</time>
      </trkpt>
      <trkpt lat="46.60935" lon="-1.1229">
        <ele>68.4</ele>
        <time>2022-02-24T00:04:44Z</time>
      </trkpt>
      <trkpt lat="46.60936" lon="-1.12211">
        <ele>64.5</ele>
        <time>2022-02-24T00:04:54Z</time>
      </trkpt>
      <trkpt lat="46.60938" lon="-1.12195">
        <ele>63.8</ele>
        <time>2022-02-24T00:04:56Z</time>
      </trkpt>
      <trkpt lat="46.60941" lon="-1.12181">
        <ele>62.9</ele>
        <time>2022-02-24T00:04:57Z</time>
      </trkpt>
      <trkpt lat="46.60948" lon="-1.12158">
        <ele>61.3</ele>
        <time>2022-02-24T00:05:01Z</time>
      </trkpt>
      <trkpt lat="46.60959" lon="-1.12141">
        <ele>60.1</ele>
        <time>2022-02-24T00:05:03Z</time>
      </trkpt>
      <trkpt lat="46.60966" lon="-1.12133">
        <ele>59.6</ele>
        <time>2022-02-24T00:05:05Z</time>
      </trkpt>
      <trkpt lat="46.60985" lon="-1.12118">
        <ele>58</ele>
        <time>2022-02-24T00:05:09Z</time>
      </trkpt>
      <trkpt lat="46.61107" lon="-1.1205">
        <ele>49.3</ele>
        <time>2022-02-24T00:05:32Z</time>
      </trkpt>
      <trkpt lat="46.61115" lon="-1.12042">
        <ele>48.7</ele>
        <time>2022-02-24T00:05:34Z</time>
      </trkpt>
      <trkpt lat="46.6112" lon="-1.12032">
        <ele>48</ele>
        <time>2022-02-24T00:05:35Z</time>
      </trkpt>
      <trkpt lat="46.61123" lon="-1.12019">
        <ele>47.1</ele>
        <time>2022-02-24T00:05:37Z</time>
      </trkpt>
      <trkpt lat="46.61125" lon="-1.12005">
        <ele>45.9</ele>
        <time>2022-02-24T00:05:39Z</time>
      </trkpt>
      <trkpt lat="46.6112" lon="-1.11898">
        <ele>37.7</ele>
        <time>2022-02-24T00:05:52Z</time>
      </trkpt>
      <trkpt lat="46.6111" lon="-1.11815">
        <ele>43.7</ele>
        <time>2022-02-24T00:06:02Z</time>
      </trkpt>
      <trkpt lat="46.61105" lon="-1.11789">
        <ele>45.1</ele>
        <time>2022-02-24T00:06:05Z</time>
      </trkpt>
      <trkpt lat="46.61094" lon="-1.11751">
        <ele>47.8</ele>
        <time>2022-02-24T00:06:10Z</time>
      </trkpt>
      <trkpt lat="46.6105" lon="-1.11639">
        <ele>55.2</ele>
        <time>2022-02-24T00:06:26Z</time>
      </trkpt>
      <trkpt lat="46.61046" lon="-1.11622">
        <ele>56.2</ele>
        <time>2022-02-24T00:06:28Z</time>
      </trkpt>
      <trkpt lat="46.61043" lon="-1.11603">
        <ele>57.2</ele>
        <time>2022-02-24T00:06:31Z</time>
      </trkpt>
      <trkpt lat="46.61037" lon="-1.11547">
        <ele>60.1</ele>
        <time>2022-02-24T00:06:38Z</time>
      </trkpt>
      <trkpt lat="46.61037" lon="-1.11521">
        <ele>61.3</ele>
        <time>2022-02-24T00:06:41Z</time>
      </trkpt>
      <trkpt lat="46.61039" lon="-1.1151">
        <ele>61.9</ele>
        <time>2022-02-24T00:06:42Z</time>
      </trkpt>
      <trkpt lat="46.61046" lon="-1.1149">
        <ele>63.1</ele>
        <time>2022-02-24T00:06:45Z</time>
      </trkpt>
      <trkpt lat="46.61087" lon="-1.11433">
        <ele>66.3</ele>
        <time>2022-02-24T00:06:55Z</time>
      </trkpt>
      <trkpt lat="46.61102" lon="-1.11403">
        <ele>67.8</ele>
        <time>2022-02-24T00:07:00Z</time>
      </trkpt>
      <trkpt lat="46.61118" lon="-1.11355">
        <ele>71</ele>
        <time>2022-02-24T00:07:06Z</time>
      </trkpt>
      <trkpt lat="46.6113" lon="-1.113">
        <ele>72.8</ele>
        <time>2022-02-24T00:07:13Z</time>
      </trkpt>
      <trkpt lat="46.61208" lon="-1.10739">
        <ele>79.9</ele>
        <time>2022-02-24T00:08:23Z</time>
      </trkpt>
      <trkpt lat="46.61221" lon="-1.10679">
        <ele>81</ele>
        <time>2022-02-24T00:08:31Z</time>
      </trkpt>
      <trkpt lat="46.61229" lon="-1.10661">
        <ele>81.2</ele>
        <time>2022-02-24T00:08:34Z</time>
      </trkpt>
      <trkpt lat="46.61251" lon="-1.1063">
        <ele>81.3</ele>
        <time>2022-02-24T00:08:39Z</time>
      </trkpt>
      <trkpt lat="46.61265" lon="-1.10613">
        <ele>81.4</ele>
        <time>2022-02-24T00:08:42Z</time>
      </trkpt>
      <trkpt lat="46.61566" lon="-1.10339">
        <ele>76.6</ele>
        <time>2022-02-24T00:09:45Z</time>
      </trkpt>
      <trkpt lat="46.61592" lon="-1.10307">
        <ele>75.7</ele>
        <time>2022-02-24T00:09:51Z</time>
      </trkpt>
      <trkpt lat="46.61607" lon="-1.10281">
        <ele>75.9</ele>
        <time>2022-02-24T00:09:56Z</time>
      </trkpt>
      <trkpt lat="46.61613" lon="-1.10265">
        <ele>75.5</ele>
        <time>2022-02-24T00:09:58Z</time>
      </trkpt>
      <trkpt lat="46.6162" lon="-1.1024">
        <ele>75.2</ele>
        <time>2022-02-24T00:10:01Z</time>
      </trkpt>
      <trkpt lat="46.6163" lon="-1.1019">
        <ele>76.1</ele>
        <time>2022-02-24T00:10:08Z</time>
      </trkpt>
      <trkpt lat="46.61678" lon="-1.09886">
        <ele>73.9</ele>
        <time>2022-02-24T00:10:46Z</time>
      </trkpt>
      <trkpt lat="46.61707" lon="-1.09685">
        <ele>64</ele>
        <time>2022-02-24T00:11:11Z</time>
      </trkpt>
      <trkpt lat="46.61717" lon="-1.09639">
        <ele>62</ele>
        <time>2022-02-24T00:11:17Z</time>
      </trkpt>
      <trkpt lat="46.61734" lon="-1.09597">
        <ele>60.6</ele>
        <time>2022-02-24T00:11:23Z</time>
      </trkpt>
      <trkpt lat="46.61746" lon="-1.09578">
        <ele>59.5</ele>
        <time>2022-02-24T00:11:26Z</time>
      </trkpt>
      <trkpt lat="46.6176" lon="-1.09561">
        <ele>59.3</ele>
        <time>2022-02-24T00:11:29Z</time>
      </trkpt>
      <trkpt lat="46.61804" lon="-1.09521">
        <ele>56.3</ele>
        <time>2022-02-24T00:11:38Z</time>
      </trkpt>
      <trkpt lat="46.61816" lon="-1.09507">
        <ele>55.7</ele>
        <time>2022-02-24T00:11:41Z</time>
      </trkpt>
      <trkpt lat="46.61838" lon="-1.09477">
        <ele>53.5</ele>
        <time>2022-02-24T00:11:46Z</time>
      </trkpt>
      <trkpt lat="46.61857" lon="-1.09446">
        <ele>51.3</ele>
        <time>2022-02-24T00:11:51Z</time>
      </trkpt>
      <trkpt lat="46.61889" lon="-1.09384">
        <ele>48.8</ele>
        <time>2022-02-24T00:12:01Z</time>
      </trkpt>
      <trkpt lat="46.61912" lon="-1.09317">
        <ele>46.9</ele>
        <time>2022-02-24T00:12:10Z</time>
      </trkpt>
      <trkpt lat="46.61961" lon="-1.09149">
        <ele>39.3</ele>
        <time>2022-02-24T00:12:32Z</time>
      </trkpt>
      <trkpt lat="46.61976" lon="-1.091">
        <ele>39.6</ele>
        <time>2022-02-24T00:12:39Z</time>
      </trkpt>
      <trkpt lat="46.61983" lon="-1.09071">
        <ele>39.9</ele>
        <time>2022-02-24T00:12:43Z</time>
      </trkpt>
      <trkpt lat="46.61989" lon="-1.09041">
        <ele>41</ele>
        <time>2022-02-24T00:12:46Z</time>
      </trkpt>
      <trkpt lat="46.61992" lon="-1.09016">
        <ele>42</ele>
        <time>2022-02-24T00:12:50Z</time>
      </trkpt>
      <trkpt lat="46.61992" lon="-1.08939">
        <ele>42.8</ele>
        <time>2022-02-24T00:12:59Z</time>
      </trkpt>
      <trkpt lat="46.61994" lon="-1.08887">
        <ele>43.4</ele>
        <time>2022-02-24T00:13:05Z</time>
      </trkpt>
      <trkpt lat="46.62003" lon="-1.08824">
        <ele>45.2</ele>
        <time>2022-02-24T00:13:13Z</time>
      </trkpt>
      <trkpt lat="46.62011" lon="-1.08793">
        <ele>45.6</ele>
        <time>2022-02-24T00:13:17Z</time>
      </trkpt>
      <trkpt lat="46.62025" lon="-1.08757">
        <ele>45.8</ele>
        <time>2022-02-24T00:13:22Z</time>
      </trkpt>
      <trkpt lat="46.62039" lon="-1.0873">
        <ele>46</ele>
        <time>2022-02-24T00:13:26Z</time>
      </trkpt>
      <trkpt lat="46.62077" lon="-1.0868">
        <ele>45.5</ele>
        <time>2022-02-24T00:13:36Z</time>
      </trkpt>
      <trkpt lat="46.6209" lon="-1.08658">
        <ele>45</ele>
        <time>2022-02-24T00:13:39Z</time>
      </trkpt>
      <trkpt lat="46.62109" lon="-1.08619">
        <ele>43.6</ele>
        <time>2022-02-24T00:13:45Z</time>
      </trkpt>
      <trkpt lat="46.62123" lon="-1.08586">
        <ele>43</ele>
        <time>2022-02-24T00:13:50Z</time>
      </trkpt>
      <trkpt lat="46.62134" lon="-1.08565">
        <ele>41.7</ele>
        <time>2022-02-24T00:13:53Z</time>
      </trkpt>
      <trkpt lat="46.62146" lon="-1.08546">
        <ele>40.1</ele>
        <time>2022-02-24T00:13:56Z</time>
      </trkpt>
      <trkpt lat="46.62166" lon="-1.08521">
        <ele>38.2</ele>
        <time>2022-02-24T00:14:01Z</time>
      </trkpt>
      <trkpt lat="46.62236" lon="-1.08451">
        <ele>33.1</ele>
        <time>2022-02-24T00:14:16Z</time>
      </trkpt>
      <trkpt lat="46.62252" lon="-1.0844">
        <ele>32.9</ele>
        <time>2022-02-24T00:14:19Z</time>
      </trkpt>
      <trkpt lat="46.6229" lon="-1.08425">
        <ele>31.6</ele>
        <time>2022-02-24T00:14:26Z</time>
      </trkpt>
      <trkpt lat="46.62314" lon="-1.08417">
        <ele>29.4</ele>
        <time>2022-02-24T00:14:30Z</time>
      </trkpt>
      <trkpt lat="46.62327" lon="-1.0841">
        <ele>28.5</ele>
        <time>2022-02-24T00:14:33Z</time>
      </trkpt>
      <trkpt lat="46.6236" lon="-1.08385">
        <ele>28.1</ele>
        <time>2022-02-24T00:14:39Z</time>
      </trkpt>
      <trkpt lat="46.62375" lon="-1.08364">
        <ele>30.4</ele>
        <time>2022-02-24T00:14:43Z</time>
      </trkpt>
      <trkpt lat="46.6238" lon="-1.08345">
        <ele>30.3</ele>
        <time>2022-02-24T00:14:46Z</time>
      </trkpt>
      <trkpt lat="46.62381" lon="-1.08336">
        <ele>29.9</ele>
        <time>2022-02-24T00:14:47Z</time>
      </trkpt>
      <trkpt lat="46.62381" lon="-1.08324">
        <ele>29.7</ele>
        <time>2022-02-24T00:14:48Z</time>
      </trkpt>
      <trkpt lat="46.62376" lon="-1.08296">
        <ele>29.2</ele>
        <time>2022-02-24T00:14:52Z</time>
      </trkpt>
      <trkpt lat="46.62367" lon="-1.08256">
        <ele>27.3</ele>
        <time>2022-02-24T00:14:57Z</time>
      </trkpt>
      <trkpt lat="46.62345" lon="-1.0818">
        <ele>21.6</ele>
        <time>2022-02-24T00:15:07Z</time>
      </trkpt>
      <trkpt lat="46.62321" lon="-1.08097">
        <ele>22</ele>
        <time>2022-02-24T00:15:18Z</time>
      </trkpt>
      <trkpt lat="46.6228" lon="-1.07947">
        <ele>29</ele>
        <time>2022-02-24T00:15:38Z</time>
      </trkpt>
      <trkpt lat="46.62275" lon="-1.07936">
        <ele>29.6</ele>
        <time>2022-02-24T00:15:39Z</time>
      </trkpt>
      <trkpt lat="46.62269" lon="-1.07932">
        <ele>29.8</ele>
        <time>2022-02-24T00:15:41Z</time>
      </trkpt>
      <trkpt lat="46.62277" lon="-1.07882">
        <ele>32.2</ele>
        <time>2022-02-24T00:15:47Z</time>
      </trkpt>
      <trkpt lat="46.62278" lon="-1.07845">
        <ele>33.6</ele>
        <time>2022-02-24T00:15:51Z</time>
      </trkpt>
      <trkpt lat="46.62268" lon="-1.07666">
        <ele>40.7</ele>
        <time>2022-02-24T00:16:13Z</time>
      </trkpt>
      <trkpt lat="46.62272" lon="-1.07586">
        <ele>47</ele>
        <time>2022-02-24T00:16:23Z</time>
      </trkpt>
      <trkpt lat="46.62266" lon="-1.07456">
        <ele>55.7</ele>
        <time>2022-02-24T00:16:39Z</time>
      </trkpt>
      <trkpt lat="46.62266" lon="-1.07373">
        <ele>57.6</ele>
        <time>2022-02-24T00:16:49Z</time>
      </trkpt>
      <trkpt lat="46.62265" lon="-1.0733">
        <ele>58.1</ele>
        <time>2022-02-24T00:16:54Z</time>
      </trkpt>
      <trkpt lat="46.62261" lon="-1.07289">
        <ele>58.4</ele>
        <time>2022-02-24T00:16:59Z</time>
      </trkpt>
      <trkpt lat="46.62262" lon="-1.07271">
        <ele>58.2</ele>
        <time>2022-02-24T00:17:02Z</time>
      </trkpt>
      <trkpt lat="46.62269" lon="-1.07255">
        <ele>58.5</ele>
        <time>2022-02-24T00:17:04Z</time>
      </trkpt>
      <trkpt lat="46.62281" lon="-1.07236">
        <ele>59.8</ele>
        <time>2022-02-24T00:17:07Z</time>
      </trkpt>
      <trkpt lat="46.62287" lon="-1.07219">
        <ele>60.6</ele>
        <time>2022-02-24T00:17:09Z</time>
      </trkpt>
      <trkpt lat="46.62287" lon="-1.0717">
        <ele>59.7</ele>
        <time>2022-02-24T00:17:15Z</time>
      </trkpt>
      <trkpt lat="46.62291" lon="-1.07146">
        <ele>60</ele>
        <time>2022-02-24T00:17:18Z</time>
      </trkpt>
      <trkpt lat="46.623" lon="-1.07128">
        <ele>60.2</ele>
        <time>2022-02-24T00:17:21Z</time>
      </trkpt>
      <trkpt lat="46.62323" lon="-1.07098">
        <ele>60.8</ele>
        <time>2022-02-24T00:17:27Z</time>
      </trkpt>
      <trkpt lat="46.62375" lon="-1.07035">
        <ele>62.6</ele>
        <time>2022-02-24T00:17:39Z</time>
      </trkpt>
      <trkpt lat="46.62389" lon="-1.07023">
        <ele>63.2</ele>
        <time>2022-02-24T00:17:42Z</time>
      </trkpt>
      <trkpt lat="46.62551" lon="-1.06963">
        <ele>68.8</ele>
        <time>2022-02-24T00:18:11Z</time>
      </trkpt>
      <trkpt lat="46.62634" lon="-1.06924">
        <ele>71.6</ele>
        <time>2022-02-24T00:18:27Z</time>
      </trkpt>
      <trkpt lat="46.62669" lon="-1.0692">
        <ele>72.9</ele>
        <time>2022-02-24T00:18:33Z</time>
      </trkpt>
      <trkpt lat="46.62745" lon="-1.06921">
        <ele>73.8</ele>
        <time>2022-02-24T00:18:47Z</time>
      </trkpt>
      <trkpt lat="46.6276" lon="-1.06922">
        <ele>73.9</ele>
        <time>2022-02-24T00:18:49Z</time>
      </trkpt>
      <trkpt lat="46.62841" lon="-1.06961">
        <ele>73.4</ele>
        <time>2022-02-24T00:19:04Z</time>
      </trkpt>
      <trkpt lat="46.63026" lon="-1.07015">
        <ele>64.7</ele>
        <time>2022-02-24T00:19:38Z</time>
      </trkpt>
      <trkpt lat="46.63064" lon="-1.07037">
        <ele>59.7</ele>
        <time>2022-02-24T00:19:45Z</time>
      </trkpt>
      <trkpt lat="46.63153" lon="-1.07114">
        <ele>49.9</ele>
        <time>2022-02-24T00:20:04Z</time>
      </trkpt>
      <trkpt lat="46.63174" lon="-1.07125">
        <ele>48.5</ele>
        <time>2022-02-24T00:20:08Z</time>
      </trkpt>
      <trkpt lat="46.6319" lon="-1.07129">
        <ele>48.6</ele>
        <time>2022-02-24T00:20:11Z</time>
      </trkpt>
      <trkpt lat="46.63221" lon="-1.07126">
        <ele>45.3</ele>
        <time>2022-02-24T00:20:16Z</time>
      </trkpt>
      <trkpt lat="46.63236" lon="-1.07128">
        <ele>43.7</ele>
        <time>2022-02-24T00:20:19Z</time>
      </trkpt>
      <trkpt lat="46.63254" lon="-1.07137">
        <ele>43.4</ele>
        <time>2022-02-24T00:20:22Z</time>
      </trkpt>
      <trkpt lat="46.63277" lon="-1.07159">
        <ele>41.3</ele>
        <time>2022-02-24T00:20:27Z</time>
      </trkpt>
      <trkpt lat="46.63307" lon="-1.07177">
        <ele>39.5</ele>
        <time>2022-02-24T00:20:33Z</time>
      </trkpt>
      <trkpt lat="46.63334" lon="-1.07185">
        <ele>37</ele>
        <time>2022-02-24T00:20:38Z</time>
      </trkpt>
      <trkpt lat="46.63437" lon="-1.07206">
        <ele>29.9</ele>
        <time>2022-02-24T00:20:56Z</time>
      </trkpt>
      <trkpt lat="46.63456" lon="-1.07203">
        <ele>28.9</ele>
        <time>2022-02-24T00:21:00Z</time>
      </trkpt>
      <trkpt lat="46.63474" lon="-1.07189">
        <ele>27.9</ele>
        <time>2022-02-24T00:21:03Z</time>
      </trkpt>
      <trkpt lat="46.63522" lon="-1.07135">
        <ele>25</ele>
        <time>2022-02-24T00:21:14Z</time>
      </trkpt>
      <trkpt lat="46.63524" lon="-1.07123">
        <ele>25</ele>
        <time>2022-02-24T00:21:16Z</time>
      </trkpt>
      <trkpt lat="46.63513" lon="-1.07079">
        <ele>25</ele>
        <time>2022-02-24T00:21:21Z</time>
      </trkpt>
      <trkpt lat="46.63501" lon="-1.07034">
        <ele>25.7</ele>
        <time>2022-02-24T00:21:27Z</time>
      </trkpt>
      <trkpt lat="46.63495" lon="-1.07019">
        <ele>28.9</ele>
        <time>2022-02-24T00:21:29Z</time>
      </trkpt>
      <trkpt lat="46.63486" lon="-1.07009">
        <ele>30</ele>
        <time>2022-02-24T00:21:31Z</time>
      </trkpt>
      <trkpt lat="46.63448" lon="-1.06979">
        <ele>31.2</ele>
        <time>2022-02-24T00:21:39Z</time>
      </trkpt>
      <trkpt lat="46.63438" lon="-1.06963">
        <ele>32.6</ele>
        <time>2022-02-24T00:21:42Z</time>
      </trkpt>
      <trkpt lat="46.63433" lon="-1.06942">
        <ele>34.4</ele>
        <time>2022-02-24T00:21:44Z</time>
      </trkpt>
      <trkpt lat="46.63424" lon="-1.06887">
        <ele>33.5</ele>
        <time>2022-02-24T00:21:51Z</time>
      </trkpt>
      <trkpt lat="46.63415" lon="-1.06871">
        <ele>34.9</ele>
        <time>2022-02-24T00:21:54Z</time>
      </trkpt>
      <trkpt lat="46.63401" lon="-1.06868">
        <ele>35.1</ele>
        <time>2022-02-24T00:21:56Z</time>
      </trkpt>
      <trkpt lat="46.63337" lon="-1.06892">
        <ele>33.8</ele>
        <time>2022-02-24T00:22:08Z</time>
      </trkpt>
      <trkpt lat="46.63321" lon="-1.06894">
        <ele>33.3</ele>
        <time>2022-02-24T00:22:11Z</time>
      </trkpt>
      <trkpt lat="46.63307" lon="-1.06886">
        <ele>33.2</ele>
        <time>2022-02-24T00:22:14Z</time>
      </trkpt>
      <trkpt lat="46.63301" lon="-1.06867">
        <ele>33.5</ele>
        <time>2022-02-24T00:22:16Z</time>
      </trkpt>
      <trkpt lat="46.633" lon="-1.06849">
        <ele>33.4</ele>
        <time>2022-02-24T00:22:18Z</time>
      </trkpt>
      <trkpt lat="46.63307" lon="-1.06834">
        <ele>34.1</ele>
        <time>2022-02-24T00:22:21Z</time>
      </trkpt>
      <trkpt lat="46.63322" lon="-1.06822">
        <ele>33.5</ele>
        <time>2022-02-24T00:22:24Z</time>
      </trkpt>
      <trkpt lat="46.63344" lon="-1.06815">
        <ele>36</ele>
        <time>2022-02-24T00:22:28Z</time>
      </trkpt>
      <trkpt lat="46.63384" lon="-1.06816">
        <ele>40.3</ele>
        <time>2022-02-24T00:22:35Z</time>
      </trkpt>
      <trkpt lat="46.63532" lon="-1.06828">
        <ele>52.5</ele>
        <time>2022-02-24T00:23:01Z</time>
      </trkpt>
      <trkpt lat="46.63763" lon="-1.06876">
        <ele>66</ele>
        <time>2022-02-24T00:23:43Z</time>
      </trkpt>
      <trkpt lat="46.63782" lon="-1.06886">
        <ele>67</ele>
        <time>2022-02-24T00:23:46Z</time>
      </trkpt>
      <trkpt lat="46.63794" lon="-1.06897">
        <ele>67.9</ele>
        <time>2022-02-24T00:23:49Z</time>
      </trkpt>
      <trkpt lat="46.63919" lon="-1.0708">
        <ele>76.1</ele>
        <time>2022-02-24T00:24:20Z</time>
      </trkpt>
      <trkpt lat="46.63977" lon="-1.07157">
        <ele>77.6</ele>
        <time>2022-02-24T00:24:34Z</time>
      </trkpt>
      <trkpt lat="46.63998" lon="-1.07177">
        <ele>78.5</ele>
        <time>2022-02-24T00:24:39Z</time>
      </trkpt>
      <trkpt lat="46.64026" lon="-1.07195">
        <ele>78.9</ele>
        <time>2022-02-24T00:24:44Z</time>
      </trkpt>
      <trkpt lat="46.6411" lon="-1.07236">
        <ele>82.4</ele>
        <time>2022-02-24T00:25:00Z</time>
      </trkpt>
      <trkpt lat="46.64133" lon="-1.07235">
        <ele>84.1</ele>
        <time>2022-02-24T00:25:04Z</time>
      </trkpt>
      <trkpt lat="46.64156" lon="-1.0723">
        <ele>85.5</ele>
        <time>2022-02-24T00:25:08Z</time>
      </trkpt>
      <trkpt lat="46.64177" lon="-1.07219">
        <ele>86.7</ele>
        <time>2022-02-24T00:25:12Z</time>
      </trkpt>
      <trkpt lat="46.64245" lon="-1.07173">
        <ele>89</ele>
        <time>2022-02-24T00:25:26Z</time>
      </trkpt>
      <trkpt lat="46.64378" lon="-1.07069">
        <ele>96.9</ele>
        <time>2022-02-24T00:25:52Z</time>
      </trkpt>
      <trkpt lat="46.64405" lon="-1.07056">
        <ele>97.6</ele>
        <time>2022-02-24T00:25:57Z</time>
      </trkpt>
      <trkpt lat="46.64423" lon="-1.07053">
        <ele>97.9</ele>
        <time>2022-02-24T00:26:01Z</time>
      </trkpt>
      <trkpt lat="46.64441" lon="-1.07053">
        <ele>97.9</ele>
        <time>2022-02-24T00:26:04Z</time>
      </trkpt>
      <trkpt lat="46.64459" lon="-1.07061">
        <ele>97.8</ele>
        <time>2022-02-24T00:26:07Z</time>
      </trkpt>
      <trkpt lat="46.64469" lon="-1.07071">
        <ele>98.2</ele>
        <time>2022-02-24T00:26:09Z</time>
      </trkpt>
      <trkpt lat="46.64478" lon="-1.07086">
        <ele>98.9</ele>
        <time>2022-02-24T00:26:12Z</time>
      </trkpt>
      <trkpt lat="46.64488" lon="-1.0711">
        <ele>99.9</ele>
        <time>2022-02-24T00:26:15Z</time>
      </trkpt>
      <trkpt lat="46.64516" lon="-1.07188">
        <ele>101</ele>
        <time>2022-02-24T00:26:26Z</time>
      </trkpt>
      <trkpt lat="46.64522" lon="-1.07198">
        <ele>101</ele>
        <time>2022-02-24T00:26:28Z</time>
      </trkpt>
      <trkpt lat="46.64528" lon="-1.07201">
        <ele>101</ele>
        <time>2022-02-24T00:26:29Z</time>
      </trkpt>
      <trkpt lat="46.64534" lon="-1.07201">
        <ele>101.1</ele>
        <time>2022-02-24T00:26:30Z</time>
      </trkpt>
      <trkpt lat="46.64552" lon="-1.07185">
        <ele>100.7</ele>
        <time>2022-02-24T00:26:34Z</time>
      </trkpt>
      <trkpt lat="46.6456" lon="-1.07181">
        <ele>100.4</ele>
        <time>2022-02-24T00:26:35Z</time>
      </trkpt>
      <trkpt lat="46.6457" lon="-1.07185">
        <ele>100.3</ele>
        <time>2022-02-24T00:26:37Z</time>
      </trkpt>
      <trkpt lat="46.64609" lon="-1.07214">
        <ele>100.1</ele>
        <time>2022-02-24T00:26:45Z</time>
      </trkpt>
      <trkpt lat="46.64674" lon="-1.07269">
        <ele>100.7</ele>
        <time>2022-02-24T00:26:58Z</time>
      </trkpt>
      <trkpt lat="46.64688" lon="-1.07286">
        <ele>101.1</ele>
        <time>2022-02-24T00:27:01Z</time>
      </trkpt>
      <trkpt lat="46.64702" lon="-1.07319">
        <ele>101.6</ele>
        <time>2022-02-24T00:27:06Z</time>
      </trkpt>
      <trkpt lat="46.64797" lon="-1.07557">
        <ele>103</ele>
        <time>2022-02-24T00:27:40Z</time>
      </trkpt>
      <trkpt lat="46.64811" lon="-1.07581">
        <ele>103</ele>
        <time>2022-02-24T00:27:44Z</time>
      </trkpt>
      <trkpt lat="46.64822" lon="-1.07593">
        <ele>103</ele>
        <time>2022-02-24T00:27:46Z</time>
      </trkpt>
      <trkpt lat="46.64856" lon="-1.07621">
        <ele>102.2</ele>
        <time>2022-02-24T00:27:53Z</time>
      </trkpt>
      <trkpt lat="46.64893" lon="-1.07643">
        <ele>101.9</ele>
        <time>2022-02-24T00:28:00Z</time>
      </trkpt>
      <trkpt lat="46.64976" lon="-1.07682">
        <ele>100.4</ele>
        <time>2022-02-24T00:28:16Z</time>
      </trkpt>
      <trkpt lat="46.65009" lon="-1.077">
        <ele>99.9</ele>
        <time>2022-02-24T00:28:22Z</time>
      </trkpt>
      <trkpt lat="46.65055" lon="-1.07734">
        <ele>99</ele>
        <time>2022-02-24T00:28:31Z</time>
      </trkpt>
      <trkpt lat="46.65132" lon="-1.07777">
        <ele>97.3</ele>
        <time>2022-02-24T00:28:46Z</time>
      </trkpt>
      <trkpt lat="46.6524" lon="-1.07829">
        <ele>94.5</ele>
        <time>2022-02-24T00:29:06Z</time>
      </trkpt>
      <trkpt lat="46.65271" lon="-1.07848">
        <ele>93.5</ele>
        <time>2022-02-24T00:29:12Z</time>
      </trkpt>
      <trkpt lat="46.65311" lon="-1.07892">
        <ele>93</ele>
        <time>2022-02-24T00:29:21Z</time>
      </trkpt>
      <trkpt lat="46.65344" lon="-1.07907">
        <ele>93.8</ele>
        <time>2022-02-24T00:29:27Z</time>
      </trkpt>
      <trkpt lat="46.65392" lon="-1.07924">
        <ele>95.3</ele>
        <time>2022-02-24T00:29:36Z</time>
      </trkpt>
      <trkpt lat="46.65427" lon="-1.07944">
        <ele>96.4</ele>
        <time>2022-02-24T00:29:42Z</time>
      </trkpt>
      <trkpt lat="46.6548" lon="-1.07991">
        <ele>98.8</ele>
        <time>2022-02-24T00:29:54Z</time>
      </trkpt>
      <trkpt lat="46.65551" lon="-1.08044">
        <ele>100.5</ele>
        <time>2022-02-24T00:30:08Z</time>
      </trkpt>
      <trkpt lat="46.65582" lon="-1.08069">
        <ele>101</ele>
        <time>2022-02-24T00:30:14Z</time>
      </trkpt>
      <trkpt lat="46.65655" lon="-1.08146">
        <ele>103</ele>
        <time>2022-02-24T00:30:30Z</time>
      </trkpt>
      <trkpt lat="46.65675" lon="-1.08174">
        <ele>103.6</ele>
        <time>2022-02-24T00:30:35Z</time>
      </trkpt>
      <trkpt lat="46.65691" lon="-1.08216">
        <ele>105</ele>
        <time>2022-02-24T00:30:41Z</time>
      </trkpt>
      <trkpt lat="46.65711" lon="-1.08265">
        <ele>105</ele>
        <time>2022-02-24T00:30:48Z</time>
      </trkpt>
      <trkpt lat="46.65741" lon="-1.08305">
        <ele>105.7</ele>
        <time>2022-02-24T00:30:55Z</time>
      </trkpt>
      <trkpt lat="46.65771" lon="-1.08335">
        <ele>105</ele>
        <time>2022-02-24T00:31:02Z</time>
      </trkpt>
      <trkpt lat="46.65876" lon="-1.08425">
        <ele>104.5</ele>
        <time>2022-02-24T00:31:23Z</time>
      </trkpt>
      <trkpt lat="46.65955" lon="-1.08481">
        <ele>105.1</ele>
        <time>2022-02-24T00:31:39Z</time>
      </trkpt>
      <trkpt lat="46.65983" lon="-1.08507">
        <ele>105.7</ele>
        <time>2022-02-24T00:31:45Z</time>
      </trkpt>
      <trkpt lat="46.66029" lon="-1.08567">
        <ele>105</ele>
        <time>2022-02-24T00:31:56Z</time>
      </trkpt>
      <trkpt lat="46.66056" lon="-1.0859">
        <ele>104.7</ele>
        <time>2022-02-24T00:32:01Z</time>
      </trkpt>
      <trkpt lat="46.66101" lon="-1.08621">
        <ele>104</ele>
        <time>2022-02-24T00:32:10Z</time>
      </trkpt>
      <trkpt lat="46.66139" lon="-1.08655">
        <ele>103.6</ele>
        <time>2022-02-24T00:32:18Z</time>
      </trkpt>
      <trkpt lat="46.6624" lon="-1.08762">
        <ele>104.6</ele>
        <time>2022-02-24T00:32:40Z</time>
      </trkpt>
      <trkpt lat="46.66275" lon="-1.08797">
        <ele>105.6</ele>
        <time>2022-02-24T00:32:48Z</time>
      </trkpt>
      <trkpt lat="46.66344" lon="-1.08878">
        <ele>107</ele>
        <time>2022-02-24T00:33:04Z</time>
      </trkpt>
      <trkpt lat="46.66452" lon="-1.09018">
        <ele>108</ele>
        <time>2022-02-24T00:33:29Z</time>
      </trkpt>
      <trkpt lat="46.66534" lon="-1.09161">
        <ele>101.8</ele>
        <time>2022-02-24T00:33:52Z</time>
      </trkpt>
      <trkpt lat="46.66637" lon="-1.09325">
        <ele>96.2</ele>
        <time>2022-02-24T00:34:19Z</time>
      </trkpt>
      <trkpt lat="46.66657" lon="-1.09348">
        <ele>95.8</ele>
        <time>2022-02-24T00:34:24Z</time>
      </trkpt>
      <trkpt lat="46.66663" lon="-1.09347">
        <ele>95.9</ele>
        <time>2022-02-24T00:34:25Z</time>
      </trkpt>
      <trkpt lat="46.6667" lon="-1.09349">
        <ele>95.9</ele>
        <time>2022-02-24T00:34:26Z</time>
      </trkpt>
      <trkpt lat="46.66678" lon="-1.09358">
        <ele>95.6</ele>
        <time>2022-02-24T00:34:28Z</time>
      </trkpt>
      <trkpt lat="46.66682" lon="-1.09374">
        <ele>95</ele>
        <time>2022-02-24T00:34:30Z</time>
      </trkpt>
      <trkpt lat="46.66682" lon="-1.09383">
        <ele>94.7</ele>
        <time>2022-02-24T00:34:31Z</time>
      </trkpt>
      <trkpt lat="46.66679" lon="-1.09392">
        <ele>94.4</ele>
        <time>2022-02-24T00:34:32Z</time>
      </trkpt>
      <trkpt lat="46.66704" lon="-1.09406">
        <ele>92.7</ele>
        <time>2022-02-24T00:34:37Z</time>
      </trkpt>
      <trkpt lat="46.66756" lon="-1.09419">
        <ele>91.1</ele>
        <time>2022-02-24T00:34:46Z</time>
      </trkpt>
      <trkpt lat="46.67002" lon="-1.0949">
        <ele>92.4</ele>
        <time>2022-02-24T00:35:31Z</time>
      </trkpt>
      <trkpt lat="46.67019" lon="-1.09498">
        <ele>92.8</ele>
        <time>2022-02-24T00:35:34Z</time>
      </trkpt>
      <trkpt lat="46.67059" lon="-1.09524">
        <ele>93.1</ele>
        <time>2022-02-24T00:35:42Z</time>
      </trkpt>
      <trkpt lat="46.67133" lon="-1.09581">
        <ele>92.1</ele>
        <time>2022-02-24T00:35:57Z</time>
      </trkpt>
      <trkpt lat="46.67191" lon="-1.0963">
        <ele>89.4</ele>
        <time>2022-02-24T00:36:09Z</time>
      </trkpt>
      <trkpt lat="46.67209" lon="-1.09643">
        <ele>88.5</ele>
        <time>2022-02-24T00:36:12Z</time>
      </trkpt>
      <trkpt lat="46.67226" lon="-1.09652">
        <ele>87.7</ele>
        <time>2022-02-24T00:36:16Z</time>
      </trkpt>
      <trkpt lat="46.67242" lon="-1.09655">
        <ele>86.2</ele>
        <time>2022-02-24T00:36:19Z</time>
      </trkpt>
      <trkpt lat="46.6729" lon="-1.09651">
        <ele>83.9</ele>
        <time>2022-02-24T00:36:27Z</time>
      </trkpt>
      <trkpt lat="46.67316" lon="-1.09651">
        <ele>83.5</ele>
        <time>2022-02-24T00:36:32Z</time>
      </trkpt>
      <trkpt lat="46.67334" lon="-1.09658">
        <ele>83.7</ele>
        <time>2022-02-24T00:36:35Z</time>
      </trkpt>
      <trkpt lat="46.67348" lon="-1.09668">
        <ele>84.5</ele>
        <time>2022-02-24T00:36:38Z</time>
      </trkpt>
      <trkpt lat="46.67366" lon="-1.09685">
        <ele>84.3</ele>
        <time>2022-02-24T00:36:42Z</time>
      </trkpt>
      <trkpt lat="46.67392" lon="-1.09719">
        <ele>84</ele>
        <time>2022-02-24T00:36:48Z</time>
      </trkpt>
      <trkpt lat="46.67462" lon="-1.09903">
        <ele>88.6</ele>
        <time>2022-02-24T00:37:14Z</time>
      </trkpt>
      <trkpt lat="46.67484" lon="-1.0993">
        <ele>89.4</ele>
        <time>2022-02-24T00:37:19Z</time>
      </trkpt>
      <trkpt lat="46.67504" lon="-1.09939">
        <ele>90.1</ele>
        <time>2022-02-24T00:37:22Z</time>
      </trkpt>
      <trkpt lat="46.67518" lon="-1.09941">
        <ele>90.6</ele>
        <time>2022-02-24T00:37:25Z</time>
      </trkpt>
      <trkpt lat="46.67609" lon="-1.09942">
        <ele>93</ele>
        <time>2022-02-24T00:37:41Z</time>
      </trkpt>
      <trkpt lat="46.67631" lon="-1.09944">
        <ele>93.7</ele>
        <time>2022-02-24T00:37:45Z</time>
      </trkpt>
      <trkpt lat="46.6765" lon="-1.09949">
        <ele>94.4</ele>
        <time>2022-02-24T00:37:48Z</time>
      </trkpt>
      <trkpt lat="46.67796" lon="-1.10027">
        <ele>98.7</ele>
        <time>2022-02-24T00:38:16Z</time>
      </trkpt>
      <trkpt lat="46.67848" lon="-1.10045">
        <ele>100.5</ele>
        <time>2022-02-24T00:38:26Z</time>
      </trkpt>
      <trkpt lat="46.67878" lon="-1.10047">
        <ele>101.6</ele>
        <time>2022-02-24T00:38:31Z</time>
      </trkpt>
      <trkpt lat="46.67912" lon="-1.10033">
        <ele>102</ele>
        <time>2022-02-24T00:38:37Z</time>
      </trkpt>
      <trkpt lat="46.67973" lon="-1.09996">
        <ele>104</ele>
        <time>2022-02-24T00:38:49Z</time>
      </trkpt>
      <trkpt lat="46.68232" lon="-1.09845">
        <ele>90.5</ele>
        <time>2022-02-24T00:39:39Z</time>
      </trkpt>
      <trkpt lat="46.68275" lon="-1.09828">
        <ele>89.3</ele>
        <time>2022-02-24T00:39:47Z</time>
      </trkpt>
      <trkpt lat="46.68318" lon="-1.09833">
        <ele>89</ele>
        <time>2022-02-24T00:39:54Z</time>
      </trkpt>
      <trkpt lat="46.68527" lon="-1.09904">
        <ele>87.5</ele>
        <time>2022-02-24T00:40:32Z</time>
      </trkpt>
      <trkpt lat="46.68573" lon="-1.09924">
        <ele>88.4</ele>
        <time>2022-02-24T00:40:41Z</time>
      </trkpt>
      <trkpt lat="46.6859" lon="-1.09937">
        <ele>88.5</ele>
        <time>2022-02-24T00:40:44Z</time>
      </trkpt>
      <trkpt lat="46.68693" lon="-1.10064">
        <ele>90.9</ele>
        <time>2022-02-24T00:41:08Z</time>
      </trkpt>
      <trkpt lat="46.68702" lon="-1.10073">
        <ele>91.4</ele>
        <time>2022-02-24T00:41:10Z</time>
      </trkpt>
      <trkpt lat="46.68724" lon="-1.10086">
        <ele>92</ele>
        <time>2022-02-24T00:41:15Z</time>
      </trkpt>
      <trkpt lat="46.68747" lon="-1.10089">
        <ele>92</ele>
        <time>2022-02-24T00:41:19Z</time>
      </trkpt>
      <trkpt lat="46.68788" lon="-1.10071">
        <ele>93</ele>
        <time>2022-02-24T00:41:26Z</time>
      </trkpt>
      <trkpt lat="46.69039" lon="-1.09931">
        <ele>91.4</ele>
        <time>2022-02-24T00:42:14Z</time>
      </trkpt>
      <trkpt lat="46.69116" lon="-1.09886">
        <ele>88.9</ele>
        <time>2022-02-24T00:42:29Z</time>
      </trkpt>
      <trkpt lat="46.6912" lon="-1.09885">
        <ele>88.8</ele>
        <time>2022-02-24T00:42:30Z</time>
      </trkpt>
      <trkpt lat="46.6923" lon="-1.0988">
        <ele>86.2</ele>
        <time>2022-02-24T00:42:49Z</time>
      </trkpt>
      <trkpt lat="46.6925" lon="-1.09875">
        <ele>86</ele>
        <time>2022-02-24T00:42:53Z</time>
      </trkpt>
      <trkpt lat="46.69281" lon="-1.09864">
        <ele>85.8</ele>
        <time>2022-02-24T00:42:58Z</time>
      </trkpt>
      <trkpt lat="46.69306" lon="-1.09858">
        <ele>85</ele>
        <time>2022-02-24T00:43:03Z</time>
      </trkpt>
      <trkpt lat="46.69325" lon="-1.09862">
        <ele>85</ele>
        <time>2022-02-24T00:43:06Z</time>
      </trkpt>
      <trkpt lat="46.69348" lon="-1.09876">
        <ele>85</ele>
        <time>2022-02-24T00:43:11Z</time>
      </trkpt>
      <trkpt lat="46.69455" lon="-1.09954">
        <ele>87.6</ele>
        <time>2022-02-24T00:43:32Z</time>
      </trkpt>
      <trkpt lat="46.69533" lon="-1.10008">
        <ele>90.4</ele>
        <time>2022-02-24T00:43:47Z</time>
      </trkpt>
      <trkpt lat="46.69609" lon="-1.10053">
        <ele>93</ele>
        <time>2022-02-24T00:44:02Z</time>
      </trkpt>
      <trkpt lat="46.69655" lon="-1.10076">
        <ele>95</ele>
        <time>2022-02-24T00:44:11Z</time>
      </trkpt>
      <trkpt lat="46.69684" lon="-1.10074">
        <ele>96.4</ele>
        <time>2022-02-24T00:44:16Z</time>
      </trkpt>
      <trkpt lat="46.69825" lon="-1.10018">
        <ele>103.1</ele>
        <time>2022-02-24T00:44:42Z</time>
      </trkpt>
      <trkpt lat="46.6984" lon="-1.10018">
        <ele>103.6</ele>
        <time>2022-02-24T00:44:45Z</time>
      </trkpt>
      <trkpt lat="46.69995" lon="-1.10096">
        <ele>104.5</ele>
        <time>2022-02-24T00:45:14Z</time>
      </trkpt>
      <trkpt lat="46.70009" lon="-1.10098">
        <ele>104.5</ele>
        <time>2022-02-24T00:45:16Z</time>
      </trkpt>
      <trkpt lat="46.70029" lon="-1.10088">
        <ele>104.8</ele>
        <time>2022-02-24T00:45:20Z</time>
      </trkpt>
      <trkpt lat="46.70082" lon="-1.10038">
        <ele>105</ele>
        <time>2022-02-24T00:45:31Z</time>
      </trkpt>
      <trkpt lat="46.70202" lon="-1.10006">
        <ele>100.9</ele>
        <time>2022-02-24T00:45:53Z</time>
      </trkpt>
      <trkpt lat="46.70352" lon="-1.10022">
        <ele>97</ele>
        <time>2022-02-24T00:46:20Z</time>
      </trkpt>
      <trkpt lat="46.70386" lon="-1.10028">
        <ele>96.1</ele>
        <time>2022-02-24T00:46:26Z</time>
      </trkpt>
      <trkpt lat="46.70458" lon="-1.10051">
        <ele>95.7</ele>
        <time>2022-02-24T00:46:39Z</time>
      </trkpt>
      <trkpt lat="46.70544" lon="-1.10103">
        <ele>95.7</ele>
        <time>2022-02-24T00:46:55Z</time>
      </trkpt>
      <trkpt lat="46.70616" lon="-1.10164">
        <ele>95.3</ele>
        <time>2022-02-24T00:47:10Z</time>
      </trkpt>
      <trkpt lat="46.70728" lon="-1.10195">
        <ele>96</ele>
        <time>2022-02-24T00:47:31Z</time>
      </trkpt>
      <trkpt lat="46.70776" lon="-1.10231">
        <ele>96</ele>
        <time>2022-02-24T00:47:40Z</time>
      </trkpt>
      <trkpt lat="46.70851" lon="-1.10321">
        <ele>94.1</ele>
        <time>2022-02-24T00:47:57Z</time>
      </trkpt>
      <trkpt lat="46.70964" lon="-1.10531">
        <ele>88.3</ele>
        <time>2022-02-24T00:48:30Z</time>
      </trkpt>
      <trkpt lat="46.71108" lon="-1.1065">
        <ele>92</ele>
        <time>2022-02-24T00:48:59Z</time>
      </trkpt>
      <trkpt lat="46.7112" lon="-1.10653">
        <ele>92</ele>
        <time>2022-02-24T00:49:02Z</time>
      </trkpt>
      <trkpt lat="46.71134" lon="-1.10648">
        <ele>92</ele>
        <time>2022-02-24T00:49:04Z</time>
      </trkpt>
      <trkpt lat="46.71176" lon="-1.10642">
        <ele>90.8</ele>
        <time>2022-02-24T00:49:12Z</time>
      </trkpt>
      <trkpt lat="46.71225" lon="-1.10629">
        <ele>87.8</ele>
        <time>2022-02-24T00:49:21Z</time>
      </trkpt>
      <trkpt lat="46.71252" lon="-1.10629">
        <ele>85.8</ele>
        <time>2022-02-24T00:49:25Z</time>
      </trkpt>
      <trkpt lat="46.71267" lon="-1.10624">
        <ele>84.4</ele>
        <time>2022-02-24T00:49:28Z</time>
      </trkpt>
      <trkpt lat="46.71278" lon="-1.10616">
        <ele>83.2</ele>
        <time>2022-02-24T00:49:30Z</time>
      </trkpt>
      <trkpt lat="46.71283" lon="-1.1061">
        <ele>83</ele>
        <time>2022-02-24T00:49:31Z</time>
      </trkpt>
      <trkpt lat="46.71292" lon="-1.10584">
        <ele>82</ele>
        <time>2022-02-24T00:49:35Z</time>
      </trkpt>
      <trkpt lat="46.71312" lon="-1.10554">
        <ele>79.3</ele>
        <time>2022-02-24T00:49:40Z</time>
      </trkpt>
      <trkpt lat="46.7138" lon="-1.10496">
        <ele>72.6</ele>
        <time>2022-02-24T00:49:54Z</time>
      </trkpt>
      <trkpt lat="46.71423" lon="-1.10446">
        <ele>70.7</ele>
        <time>2022-02-24T00:50:04Z</time>
      </trkpt>
      <trkpt lat="46.71471" lon="-1.10395">
        <ele>70.8</ele>
        <time>2022-02-24T00:50:14Z</time>
      </trkpt>
      <trkpt lat="46.71484" lon="-1.1039">
        <ele>71.4</ele>
        <time>2022-02-24T00:50:17Z</time>
      </trkpt>
      <trkpt lat="46.71636" lon="-1.10287">
        <ele>73.8</ele>
        <time>2022-02-24T00:50:47Z</time>
      </trkpt>
      <trkpt lat="46.71693" lon="-1.10212">
        <ele>71.5</ele>
        <time>2022-02-24T00:51:00Z</time>
      </trkpt>
      <trkpt lat="46.71822" lon="-1.09983">
        <ele>73.2</ele>
        <time>2022-02-24T00:51:36Z</time>
      </trkpt>
      <trkpt lat="46.71893" lon="-1.09836">
        <ele>69.1</ele>
        <time>2022-02-24T00:51:58Z</time>
      </trkpt>
      <trkpt lat="46.71907" lon="-1.09828">
        <ele>68.9</ele>
        <time>2022-02-24T00:52:01Z</time>
      </trkpt>
      <trkpt lat="46.71921" lon="-1.0983">
        <ele>68.7</ele>
        <time>2022-02-24T00:52:04Z</time>
      </trkpt>
      <trkpt lat="46.71963" lon="-1.09822">
        <ele>67.2</ele>
        <time>2022-02-24T00:52:11Z</time>
      </trkpt>
      <trkpt lat="46.71996" lon="-1.09801">
        <ele>67.1</ele>
        <time>2022-02-24T00:52:18Z</time>
      </trkpt>
      <trkpt lat="46.72018" lon="-1.09775">
        <ele>68.2</ele>
        <time>2022-02-24T00:52:23Z</time>
      </trkpt>
      <trkpt lat="46.72314" lon="-1.09474">
        <ele>72</ele>
        <time>2022-02-24T00:53:27Z</time>
      </trkpt>
      <trkpt lat="46.72446" lon="-1.09209">
        <ele>76</ele>
        <time>2022-02-24T00:54:07Z</time>
      </trkpt>
      <trkpt lat="46.72495" lon="-1.09106">
        <ele>77</ele>
        <time>2022-02-24T00:54:22Z</time>
      </trkpt>
      <trkpt lat="46.72599" lon="-1.08954">
        <ele>78.7</ele>
        <time>2022-02-24T00:54:48Z</time>
      </trkpt>
      <trkpt lat="46.72625" lon="-1.089">
        <ele>79.3</ele>
        <time>2022-02-24T00:54:56Z</time>
      </trkpt>
      <trkpt lat="46.72645" lon="-1.08882">
        <ele>80</ele>
        <time>2022-02-24T00:55:00Z</time>
      </trkpt>
      <trkpt lat="46.72667" lon="-1.08876">
        <ele>80</ele>
        <time>2022-02-24T00:55:04Z</time>
      </trkpt>
      <trkpt lat="46.7292" lon="-1.08844">
        <ele>80</ele>
        <time>2022-02-24T00:55:50Z</time>
      </trkpt>
      <trkpt lat="46.72962" lon="-1.08832">
        <ele>80</ele>
        <time>2022-02-24T00:55:57Z</time>
      </trkpt>
      <trkpt lat="46.73097" lon="-1.08885">
        <ele>79.1</ele>
        <time>2022-02-24T00:56:22Z</time>
      </trkpt>
      <trkpt lat="46.73321" lon="-1.08958">
        <ele>77.5</ele>
        <time>2022-02-24T00:57:03Z</time>
      </trkpt>
      <trkpt lat="46.73514" lon="-1.09097">
        <ele>75.3</ele>
        <time>2022-02-24T00:57:41Z</time>
      </trkpt>
      <trkpt lat="46.73644" lon="-1.09011">
        <ele>68.1</ele>
        <time>2022-02-24T00:58:07Z</time>
      </trkpt>
      <trkpt lat="46.73782" lon="-1.09032">
        <ele>65.8</ele>
        <time>2022-02-24T00:58:31Z</time>
      </trkpt>
      <trkpt lat="46.73847" lon="-1.09059">
        <ele>65</ele>
        <time>2022-02-24T00:58:43Z</time>
      </trkpt>
      <trkpt lat="46.73888" lon="-1.0907">
        <ele>64</ele>
        <time>2022-02-24T00:58:51Z</time>
      </trkpt>
      <trkpt lat="46.73927" lon="-1.09076">
        <ele>64.5</ele>
        <time>2022-02-24T00:58:58Z</time>
      </trkpt>
      <trkpt lat="46.73934" lon="-1.08991">
        <ele>65.6</ele>
        <time>2022-02-24T00:59:08Z</time>
      </trkpt>
      <trkpt lat="46.73952" lon="-1.08831">
        <ele>68</ele>
        <time>2022-02-24T00:59:28Z</time>
      </trkpt>
      <trkpt lat="46.74001" lon="-1.08621">
        <ele>71.7</ele>
        <time>2022-02-24T00:59:55Z</time>
      </trkpt>
      <trkpt lat="46.74008" lon="-1.08624">
        <ele>71.7</ele>
        <time>2022-02-24T00:59:56Z</time>
      </trkpt>
      <trkpt lat="46.74012" lon="-1.08612">
        <ele>72</ele>
        <time>2022-02-24T00:59:58Z</time>
      </trkpt>
      <trkpt lat="46.7404" lon="-1.0856">
        <ele>70.2</ele>
        <time>2022-02-24T01:00:06Z</time>
      </trkpt>
      <trkpt lat="46.74083" lon="-1.08488">
        <ele>68.6</ele>
        <time>2022-02-24T01:00:18Z</time>
      </trkpt>
      <trkpt lat="46.74087" lon="-1.08478">
        <ele>68.3</ele>
        <time>2022-02-24T01:00:19Z</time>
      </trkpt>
      <trkpt lat="46.74095" lon="-1.08403">
        <ele>67.3</ele>
        <time>2022-02-24T01:00:28Z</time>
      </trkpt>
      <trkpt lat="46.741" lon="-1.08377">
        <ele>66.8</ele>
        <time>2022-02-24T01:00:32Z</time>
      </trkpt>
      <trkpt lat="46.74118" lon="-1.08322">
        <ele>65.9</ele>
        <time>2022-02-24T01:00:39Z</time>
      </trkpt>
      <trkpt lat="46.74124" lon="-1.08308">
        <ele>66</ele>
        <time>2022-02-24T01:00:41Z</time>
      </trkpt>
      <trkpt lat="46.74138" lon="-1.0829">
        <ele>66.4</ele>
        <time>2022-02-24T01:00:44Z</time>
      </trkpt>
      <trkpt lat="46.74181" lon="-1.08244">
        <ele>66.2</ele>
        <time>2022-02-24T01:00:54Z</time>
      </trkpt>
      <trkpt lat="46.74235" lon="-1.08173">
        <ele>64.3</ele>
        <time>2022-02-24T01:01:07Z</time>
      </trkpt>
      <trkpt lat="46.74273" lon="-1.08149">
        <ele>63.7</ele>
        <time>2022-02-24T01:01:14Z</time>
      </trkpt>
      <trkpt lat="46.74293" lon="-1.0814">
        <ele>63.1</ele>
        <time>2022-02-24T01:01:18Z</time>
      </trkpt>
      <trkpt lat="46.74351" lon="-1.08105">
        <ele>60.8</ele>
        <time>2022-02-24T01:01:29Z</time>
      </trkpt>
      <trkpt lat="46.74445" lon="-1.0806">
        <ele>59.2</ele>
        <time>2022-02-24T01:01:47Z</time>
      </trkpt>
      <trkpt lat="46.74603" lon="-1.07994">
        <ele>58.7</ele>
        <time>2022-02-24T01:02:16Z</time>
      </trkpt>
      <trkpt lat="46.74652" lon="-1.07958">
        <ele>60</ele>
        <time>2022-02-24T01:02:26Z</time>
      </trkpt>
      <trkpt lat="46.74669" lon="-1.07986">
        <ele>60.1</ele>
        <time>2022-02-24T01:02:30Z</time>
      </trkpt>
      <trkpt lat="46.74684" lon="-1.08">
        <ele>60.6</ele>
        <time>2022-02-24T01:02:33Z</time>
      </trkpt>
      <trkpt lat="46.7477" lon="-1.08028">
        <ele>63</ele>
        <time>2022-02-24T01:02:49Z</time>
      </trkpt>
      <trkpt lat="46.7483" lon="-1.08024">
        <ele>64.1</ele>
        <time>2022-02-24T01:03:00Z</time>
      </trkpt>
      <trkpt lat="46.74882" lon="-1.08015">
        <ele>62.8</ele>
        <time>2022-02-24T01:03:09Z</time>
      </trkpt>
      <trkpt lat="46.7491" lon="-1.08016">
        <ele>60.6</ele>
        <time>2022-02-24T01:03:14Z</time>
      </trkpt>
      <trkpt lat="46.74969" lon="-1.08022">
        <ele>55.7</ele>
        <time>2022-02-24T01:03:25Z</time>
      </trkpt>
      <trkpt lat="46.7499" lon="-1.08018">
        <ele>54.1</ele>
        <time>2022-02-24T01:03:28Z</time>
      </trkpt>
      <trkpt lat="46.75004" lon="-1.08011">
        <ele>53.7</ele>
        <time>2022-02-24T01:03:31Z</time>
      </trkpt>
      <trkpt lat="46.75014" lon="-1.08">
        <ele>54.5</ele>
        <time>2022-02-24T01:03:33Z</time>
      </trkpt>
      <trkpt lat="46.7503" lon="-1.07979">
        <ele>55.1</ele>
        <time>2022-02-24T01:03:37Z</time>
      </trkpt>
      <trkpt lat="46.75122" lon="-1.07916">
        <ele>61.4</ele>
        <time>2022-02-24T01:03:55Z</time>
      </trkpt>
      <trkpt lat="46.7522" lon="-1.07833">
        <ele>65.9</ele>
        <time>2022-02-24T01:04:15Z</time>
      </trkpt>
      <trkpt lat="46.75254" lon="-1.07819">
        <ele>65.8</ele>
        <time>2022-02-24T01:04:22Z</time>
      </trkpt>
      <trkpt lat="46.75292" lon="-1.07816">
        <ele>63.1</ele>
        <time>2022-02-24T01:04:28Z</time>
      </trkpt>
      <trkpt lat="46.75327" lon="-1.07787">
        <ele>59.7</ele>
        <time>2022-02-24T01:04:35Z</time>
      </trkpt>
      <trkpt lat="46.75399" lon="-1.07694">
        <ele>58.3</ele>
        <time>2022-02-24T01:04:53Z</time>
      </trkpt>
      <trkpt lat="46.75465" lon="-1.07582">
        <ele>59.3</ele>
        <time>2022-02-24T01:05:11Z</time>
      </trkpt>
      <trkpt lat="46.75496" lon="-1.07513">
        <ele>61.1</ele>
        <time>2022-02-24T01:05:21Z</time>
      </trkpt>
      <trkpt lat="46.75531" lon="-1.07426">
        <ele>65.5</ele>
        <time>2022-02-24T01:05:33Z</time>
      </trkpt>
      <trkpt lat="46.75558" lon="-1.07383">
        <ele>68.5</ele>
        <time>2022-02-24T01:05:40Z</time>
      </trkpt>
      <trkpt lat="46.75602" lon="-1.07334">
        <ele>71</ele>
        <time>2022-02-24T01:05:50Z</time>
      </trkpt>
      <trkpt lat="46.75624" lon="-1.07339">
        <ele>70.3</ele>
        <time>2022-02-24T01:05:54Z</time>
      </trkpt>
      <trkpt lat="46.75647" lon="-1.07328">
        <ele>69.5</ele>
        <time>2022-02-24T01:05:58Z</time>
      </trkpt>
      <trkpt lat="46.75683" lon="-1.07279">
        <ele>67.8</ele>
        <time>2022-02-24T01:06:07Z</time>
      </trkpt>
      <trkpt lat="46.75695" lon="-1.07274">
        <ele>67</ele>
        <time>2022-02-24T01:06:09Z</time>
      </trkpt>
      <trkpt lat="46.75688" lon="-1.0723">
        <ele>67.5</ele>
        <time>2022-02-24T01:06:15Z</time>
      </trkpt>
      <trkpt lat="46.75679" lon="-1.07202">
        <ele>68.8</ele>
        <time>2022-02-24T01:06:18Z</time>
      </trkpt>
      <trkpt lat="46.76058" lon="-1.07242">
        <ele>58.9</ele>
        <time>2022-02-24T01:07:26Z</time>
      </trkpt>
      <trkpt lat="46.76094" lon="-1.07246">
        <ele>60.3</ele>
        <time>2022-02-24T01:07:32Z</time>
      </trkpt>
      <trkpt lat="46.76216" lon="-1.07262">
        <ele>65.9</ele>
        <time>2022-02-24T01:07:54Z</time>
      </trkpt>
      <trkpt lat="46.7649" lon="-1.0729">
        <ele>74.3</ele>
        <time>2022-02-24T01:08:43Z</time>
      </trkpt>
      <trkpt lat="46.76615" lon="-1.07292">
        <ele>74.3</ele>
        <time>2022-02-24T01:09:05Z</time>
      </trkpt>
      <trkpt lat="46.77103" lon="-1.07259">
        <ele>76.6</ele>
        <time>2022-02-24T01:10:32Z</time>
      </trkpt>
      <trkpt lat="46.77152" lon="-1.07252">
        <ele>77.8</ele>
        <time>2022-02-24T01:10:41Z</time>
      </trkpt>
      <trkpt lat="46.77169" lon="-1.07241">
        <ele>77.7</ele>
        <time>2022-02-24T01:10:44Z</time>
      </trkpt>
      <trkpt lat="46.77232" lon="-1.07172">
        <ele>79.9</ele>
        <time>2022-02-24T01:10:58Z</time>
      </trkpt>
      <trkpt lat="46.7724" lon="-1.07169">
        <ele>80</ele>
        <time>2022-02-24T01:11:00Z</time>
      </trkpt>
      <trkpt lat="46.77244" lon="-1.0717">
        <ele>80</ele>
        <time>2022-02-24T01:11:01Z</time>
      </trkpt>
      <trkpt lat="46.77251" lon="-1.07137">
        <ele>81.1</ele>
        <time>2022-02-24T01:11:05Z</time>
      </trkpt>
      <trkpt lat="46.77264" lon="-1.07094">
        <ele>82</ele>
        <time>2022-02-24T01:11:10Z</time>
      </trkpt>
      <trkpt lat="46.77275" lon="-1.07069">
        <ele>82.5</ele>
        <time>2022-02-24T01:11:14Z</time>
      </trkpt>
      <trkpt lat="46.77282" lon="-1.07055">
        <ele>83</ele>
        <time>2022-02-24T01:11:16Z</time>
      </trkpt>
      <trkpt lat="46.7743" lon="-1.06823">
        <ele>85.2</ele>
        <time>2022-02-24T01:11:55Z</time>
      </trkpt>
      <trkpt lat="46.77469" lon="-1.06773">
        <ele>86</ele>
        <time>2022-02-24T01:12:04Z</time>
      </trkpt>
      <trkpt lat="46.77667" lon="-1.06549">
        <ele>90</ele>
        <time>2022-02-24T01:12:49Z</time>
      </trkpt>
      <trkpt lat="46.77696" lon="-1.06512">
        <ele>91.1</ele>
        <time>2022-02-24T01:12:56Z</time>
      </trkpt>
      <trkpt lat="46.77712" lon="-1.06479">
        <ele>90.9</ele>
        <time>2022-02-24T01:13:00Z</time>
      </trkpt>
      <trkpt lat="46.77708" lon="-1.0647">
        <ele>90.4</ele>
        <time>2022-02-24T01:13:02Z</time>
      </trkpt>
      <trkpt lat="46.77707" lon="-1.06458">
        <ele>89.9</ele>
        <time>2022-02-24T01:13:03Z</time>
      </trkpt>
      <trkpt lat="46.77711" lon="-1.0645">
        <ele>89.8</ele>
        <time>2022-02-24T01:13:04Z</time>
      </trkpt>
      <trkpt lat="46.77717" lon="-1.06445">
        <ele>89.8</ele>
        <time>2022-02-24T01:13:06Z</time>
      </trkpt>
      <trkpt lat="46.77724" lon="-1.06445">
        <ele>90.1</ele>
        <time>2022-02-24T01:13:07Z</time>
      </trkpt>
      <trkpt lat="46.77731" lon="-1.06452">
        <ele>90.6</ele>
        <time>2022-02-24T01:13:08Z</time>
      </trkpt>
      <trkpt lat="46.77732" lon="-1.06457">
        <ele>90.8</ele>
        <time>2022-02-24T01:13:09Z</time>
      </trkpt>
      <trkpt lat="46.77745" lon="-1.06453">
        <ele>91.1</ele>
        <time>2022-02-24T01:13:11Z</time>
      </trkpt>
      <trkpt lat="46.77765" lon="-1.06437">
        <ele>91.5</ele>
        <time>2022-02-24T01:13:15Z</time>
      </trkpt>
      <trkpt lat="46.77815" lon="-1.06378">
        <ele>91.8</ele>
        <time>2022-02-24T01:13:27Z</time>
      </trkpt>
      <trkpt lat="46.77852" lon="-1.06313">
        <ele>92.9</ele>
        <time>2022-02-24T01:13:37Z</time>
      </trkpt>
      <trkpt lat="46.77863" lon="-1.06297">
        <ele>92.8</ele>
        <time>2022-02-24T01:13:40Z</time>
      </trkpt>
      <trkpt lat="46.77888" lon="-1.06283">
        <ele>93.2</ele>
        <time>2022-02-24T01:13:45Z</time>
      </trkpt>
      <trkpt lat="46.77952" lon="-1.06289">
        <ele>96.7</ele>
        <time>2022-02-24T01:13:56Z</time>
      </trkpt>
      <trkpt lat="46.78005" lon="-1.06265">
        <ele>96</ele>
        <time>2022-02-24T01:14:06Z</time>
      </trkpt>
      <trkpt lat="46.78023" lon="-1.06254">
        <ele>95.2</ele>
        <time>2022-02-24T01:14:09Z</time>
      </trkpt>
      <trkpt lat="46.78069" lon="-1.06218">
        <ele>95.8</ele>
        <time>2022-02-24T01:14:19Z</time>
      </trkpt>
      <trkpt lat="46.7809" lon="-1.06204">
        <ele>96.6</ele>
        <time>2022-02-24T01:14:23Z</time>
      </trkpt>
      <trkpt lat="46.7815" lon="-1.06186">
        <ele>97.9</ele>
        <time>2022-02-24T01:14:34Z</time>
      </trkpt>
      <trkpt lat="46.78161" lon="-1.06179">
        <ele>98.3</ele>
        <time>2022-02-24T01:14:36Z</time>
      </trkpt>
      <trkpt lat="46.78267" lon="-1.06092">
        <ele>99.2</ele>
        <time>2022-02-24T01:14:58Z</time>
      </trkpt>
      <trkpt lat="46.78288" lon="-1.06073">
        <ele>99</ele>
        <time>2022-02-24T01:15:02Z</time>
      </trkpt>
      <trkpt lat="46.78308" lon="-1.06058">
        <ele>99</ele>
        <time>2022-02-24T01:15:06Z</time>
      </trkpt>
      <trkpt lat="46.7832" lon="-1.06045">
        <ele>99</ele>
        <time>2022-02-24T01:15:09Z</time>
      </trkpt>
      <trkpt lat="46.78384" lon="-1.05964">
        <ele>100.8</ele>
        <time>2022-02-24T01:15:24Z</time>
      </trkpt>
      <trkpt lat="46.78452" lon="-1.05873">
        <ele>103.4</ele>
        <time>2022-02-24T01:15:40Z</time>
      </trkpt>
      <trkpt lat="46.78472" lon="-1.0585">
        <ele>104</ele>
        <time>2022-02-24T01:15:45Z</time>
      </trkpt>
      <trkpt lat="46.78488" lon="-1.05835">
        <ele>104.6</ele>
        <time>2022-02-24T01:15:48Z</time>
      </trkpt>
      <trkpt lat="46.78541" lon="-1.05804">
        <ele>106.5</ele>
        <time>2022-02-24T01:15:58Z</time>
      </trkpt>
      <trkpt lat="46.78694" lon="-1.05725">
        <ele>111</ele>
        <time>2022-02-24T01:16:27Z</time>
      </trkpt>
      <trkpt lat="46.78732" lon="-1.05713">
        <ele>112.4</ele>
        <time>2022-02-24T01:16:34Z</time>
      </trkpt>
      <trkpt lat="46.78733" lon="-1.05702">
        <ele>112.4</ele>
        <time>2022-02-24T01:16:35Z</time>
      </trkpt>
      <trkpt lat="46.78737" lon="-1.05692">
        <ele>112.5</ele>
        <time>2022-02-24T01:16:37Z</time>
      </trkpt>
      <trkpt lat="46.78743" lon="-1.05685">
        <ele>112.6</ele>
        <time>2022-02-24T01:16:38Z</time>
      </trkpt>
      <trkpt lat="46.78751" lon="-1.05683">
        <ele>112.5</ele>
        <time>2022-02-24T01:16:40Z</time>
      </trkpt>
      <trkpt lat="46.78759" lon="-1.05685">
        <ele>112.2</ele>
        <time>2022-02-24T01:16:41Z</time>
      </trkpt>
      <trkpt lat="46.78765" lon="-1.05692">
        <ele>111.9</ele>
        <time>2022-02-24T01:16:42Z</time>
      </trkpt>
      <trkpt lat="46.78768" lon="-1.05703">
        <ele>111.7</ele>
        <time>2022-02-24T01:16:44Z</time>
      </trkpt>
      <trkpt lat="46.78852" lon="-1.0567">
        <ele>107.7</ele>
        <time>2022-02-24T01:16:59Z</time>
      </trkpt>
      <trkpt lat="46.78878" lon="-1.05654">
        <ele>106</ele>
        <time>2022-02-24T01:17:04Z</time>
      </trkpt>
      <trkpt lat="46.7891" lon="-1.05624">
        <ele>104.4</ele>
        <time>2022-02-24T01:17:11Z</time>
      </trkpt>
      <trkpt lat="46.78929" lon="-1.05601">
        <ele>104</ele>
        <time>2022-02-24T01:17:15Z</time>
      </trkpt>
      <trkpt lat="46.78945" lon="-1.05576">
        <ele>103.7</ele>
        <time>2022-02-24T01:17:20Z</time>
      </trkpt>
      <trkpt lat="46.79064" lon="-1.05332">
        <ele>100.7</ele>
        <time>2022-02-24T01:17:56Z</time>
      </trkpt>
      <trkpt lat="46.79086" lon="-1.05295">
        <ele>100.9</ele>
        <time>2022-02-24T01:18:02Z</time>
      </trkpt>
      <trkpt lat="46.7918" lon="-1.05188">
        <ele>103.1</ele>
        <time>2022-02-24T01:18:23Z</time>
      </trkpt>
      <trkpt lat="46.79346" lon="-1.04991">
        <ele>104.4</ele>
        <time>2022-02-24T01:19:01Z</time>
      </trkpt>
      <trkpt lat="46.79399" lon="-1.04937">
        <ele>104</ele>
        <time>2022-02-24T01:19:13Z</time>
      </trkpt>
      <trkpt lat="46.79486" lon="-1.04864">
        <ele>102.5</ele>
        <time>2022-02-24T01:19:31Z</time>
      </trkpt>
      <trkpt lat="46.79711" lon="-1.04718">
        <ele>103</ele>
        <time>2022-02-24T01:20:14Z</time>
      </trkpt>
      <trkpt lat="46.79754" lon="-1.04692">
        <ele>102.9</ele>
        <time>2022-02-24T01:20:23Z</time>
      </trkpt>
      <trkpt lat="46.79783" lon="-1.04679">
        <ele>103</ele>
        <time>2022-02-24T01:20:28Z</time>
      </trkpt>
      <trkpt lat="46.7995" lon="-1.04622">
        <ele>105.2</ele>
        <time>2022-02-24T01:20:59Z</time>
      </trkpt>
      <trkpt lat="46.79971" lon="-1.04612">
        <ele>106</ele>
        <time>2022-02-24T01:21:03Z</time>
      </trkpt>
      <trkpt lat="46.80001" lon="-1.0459">
        <ele>106.3</ele>
        <time>2022-02-24T01:21:09Z</time>
      </trkpt>
      <trkpt lat="46.80029" lon="-1.04557">
        <ele>107</ele>
        <time>2022-02-24T01:21:15Z</time>
      </trkpt>
      <trkpt lat="46.80051" lon="-1.04519">
        <ele>106.8</ele>
        <time>2022-02-24T01:21:21Z</time>
      </trkpt>
      <trkpt lat="46.80155" lon="-1.04316">
        <ele>106.6</ele>
        <time>2022-02-24T01:21:52Z</time>
      </trkpt>
      <trkpt lat="46.80183" lon="-1.04252">
        <ele>106.6</ele>
        <time>2022-02-24T01:22:01Z</time>
      </trkpt>
      <trkpt lat="46.80228" lon="-1.04115">
        <ele>107.2</ele>
        <time>2022-02-24T01:22:20Z</time>
      </trkpt>
      <trkpt lat="46.80406" lon="-1.03538">
        <ele>111</ele>
        <time>2022-02-24T01:23:37Z</time>
      </trkpt>
      <trkpt lat="46.80432" lon="-1.03468">
        <ele>111</ele>
        <time>2022-02-24T01:23:46Z</time>
      </trkpt>
      <trkpt lat="46.80675" lon="-1.02966">
        <ele>112.2</ele>
        <time>2022-02-24T01:25:01Z</time>
      </trkpt>
      <trkpt lat="46.80834" lon="-1.02659">
        <ele>115.7</ele>
        <time>2022-02-24T01:25:48Z</time>
      </trkpt>
      <trkpt lat="46.80849" lon="-1.02626">
        <ele>115</ele>
        <time>2022-02-24T01:25:53Z</time>
      </trkpt>
      <trkpt lat="46.80882" lon="-1.02535">
        <ele>115.2</ele>
        <time>2022-02-24T01:26:06Z</time>
      </trkpt>
      <trkpt lat="46.80946" lon="-1.0235">
        <ele>117</ele>
        <time>2022-02-24T01:26:31Z</time>
      </trkpt>
      <trkpt lat="46.8097" lon="-1.02286">
        <ele>117</ele>
        <time>2022-02-24T01:26:40Z</time>
      </trkpt>
      <trkpt lat="46.81054" lon="-1.02117">
        <ele>118</ele>
        <time>2022-02-24T01:27:05Z</time>
      </trkpt>
      <trkpt lat="46.81093" lon="-1.02041">
        <ele>118.7</ele>
        <time>2022-02-24T01:27:17Z</time>
      </trkpt>
      <trkpt lat="46.81106" lon="-1.02018">
        <ele>118.9</ele>
        <time>2022-02-24T01:27:20Z</time>
      </trkpt>
      <trkpt lat="46.81117" lon="-1.02005">
        <ele>119</ele>
        <time>2022-02-24T01:27:23Z</time>
      </trkpt>
      <trkpt lat="46.81142" lon="-1.01982">
        <ele>119</ele>
        <time>2022-02-24T01:27:28Z</time>
      </trkpt>
      <trkpt lat="46.81164" lon="-1.0197">
        <ele>119.1</ele>
        <time>2022-02-24T01:27:32Z</time>
      </trkpt>
      <trkpt lat="46.81176" lon="-1.01966">
        <ele>119.5</ele>
        <time>2022-02-24T01:27:35Z</time>
      </trkpt>
      <trkpt lat="46.81316" lon="-1.01944">
        <ele>119.6</ele>
        <time>2022-02-24T01:28:00Z</time>
      </trkpt>
      <trkpt lat="46.81348" lon="-1.01942">
        <ele>119</ele>
        <time>2022-02-24T01:28:05Z</time>
      </trkpt>
      <trkpt lat="46.81365" lon="-1.01945">
        <ele>118.9</ele>
        <time>2022-02-24T01:28:08Z</time>
      </trkpt>
      <trkpt lat="46.81453" lon="-1.01978">
        <ele>117.8</ele>
        <time>2022-02-24T01:28:24Z</time>
      </trkpt>
      <trkpt lat="46.81469" lon="-1.01979">
        <ele>117.3</ele>
        <time>2022-02-24T01:28:27Z</time>
      </trkpt>
      <trkpt lat="46.81483" lon="-1.01977">
        <ele>117.1</ele>
        <time>2022-02-24T01:28:30Z</time>
      </trkpt>
      <trkpt lat="46.81506" lon="-1.01967">
        <ele>117</ele>
        <time>2022-02-24T01:28:34Z</time>
      </trkpt>
      <trkpt lat="46.81539" lon="-1.01936">
        <ele>116.9</ele>
        <time>2022-02-24T01:28:41Z</time>
      </trkpt>
      <trkpt lat="46.81719" lon="-1.0174">
        <ele>116</ele>
        <time>2022-02-24T01:29:21Z</time>
      </trkpt>
      <trkpt lat="46.81783" lon="-1.01678">
        <ele>116</ele>
        <time>2022-02-24T01:29:35Z</time>
      </trkpt>
      <trkpt lat="46.82172" lon="-1.01403">
        <ele>121</ele>
        <time>2022-02-24T01:30:52Z</time>
      </trkpt>
      <trkpt lat="46.82206" lon="-1.01384">
        <ele>121.1</ele>
        <time>2022-02-24T01:30:58Z</time>
      </trkpt>
      <trkpt lat="46.826" lon="-1.01214">
        <ele>119.9</ele>
        <time>2022-02-24T01:32:11Z</time>
      </trkpt>
      <trkpt lat="46.82631" lon="-1.01197">
        <ele>120.1</ele>
        <time>2022-02-24T01:32:17Z</time>
      </trkpt>
      <trkpt lat="46.82659" lon="-1.0117">
        <ele>119.1</ele>
        <time>2022-02-24T01:32:23Z</time>
      </trkpt>
      <trkpt lat="46.82859" lon="-1.00936">
        <ele>121.3</ele>
        <time>2022-02-24T01:33:09Z</time>
      </trkpt>
      <trkpt lat="46.82873" lon="-1.00913">
        <ele>122</ele>
        <time>2022-02-24T01:33:12Z</time>
      </trkpt>
      <trkpt lat="46.82898" lon="-1.00868">
        <ele>122.3</ele>
        <time>2022-02-24T01:33:19Z</time>
      </trkpt>
      <trkpt lat="46.82972" lon="-1.00722">
        <ele>122</ele>
        <time>2022-02-24T01:33:41Z</time>
      </trkpt>
      <trkpt lat="46.82987" lon="-1.00695">
        <ele>121.5</ele>
        <time>2022-02-24T01:33:46Z</time>
      </trkpt>
      <trkpt lat="46.83004" lon="-1.00668">
        <ele>122</ele>
        <time>2022-02-24T01:33:50Z</time>
      </trkpt>
      <trkpt lat="46.83025" lon="-1.00646">
        <ele>121.9</ele>
        <time>2022-02-24T01:33:55Z</time>
      </trkpt>
      <trkpt lat="46.83104" lon="-1.00575">
        <ele>120.9</ele>
        <time>2022-02-24T01:34:11Z</time>
      </trkpt>
      <trkpt lat="46.83142" lon="-1.00545">
        <ele>121.7</ele>
        <time>2022-02-24T01:34:19Z</time>
      </trkpt>
      <trkpt lat="46.83178" lon="-1.00524">
        <ele>122.9</ele>
        <time>2022-02-24T01:34:26Z</time>
      </trkpt>
      <trkpt lat="46.83255" lon="-1.00491">
        <ele>125</ele>
        <time>2022-02-24T01:34:40Z</time>
      </trkpt>
      <trkpt lat="46.83289" lon="-1.00467">
        <ele>125</ele>
        <time>2022-02-24T01:34:47Z</time>
      </trkpt>
      <trkpt lat="46.83304" lon="-1.00453">
        <ele>125</ele>
        <time>2022-02-24T01:34:50Z</time>
      </trkpt>
      <trkpt lat="46.83312" lon="-1.00429">
        <ele>125.4</ele>
        <time>2022-02-24T01:34:53Z</time>
      </trkpt>
      <trkpt lat="46.83315" lon="-1.00398">
        <ele>125.9</ele>
        <time>2022-02-24T01:34:57Z</time>
      </trkpt>
      <trkpt lat="46.83313" lon="-1.00376">
        <ele>125.5</ele>
        <time>2022-02-24T01:35:00Z</time>
      </trkpt>
      <trkpt lat="46.83326" lon="-1.00377">
        <ele>125.6</ele>
        <time>2022-02-24T01:35:02Z</time>
      </trkpt>
      <trkpt lat="46.83506" lon="-1.00398">
        <ele>126.1</ele>
        <time>2022-02-24T01:35:34Z</time>
      </trkpt>
      <trkpt lat="46.83613" lon="-1.00403">
        <ele>125</ele>
        <time>2022-02-24T01:35:53Z</time>
      </trkpt>
      <trkpt lat="46.83871" lon="-1.00422">
        <ele>124.5</ele>
        <time>2022-02-24T01:36:39Z</time>
      </trkpt>
      <trkpt lat="46.83875" lon="-1.00435">
        <ele>124.2</ele>
        <time>2022-02-24T01:36:41Z</time>
      </trkpt>
      <trkpt lat="46.84435" lon="-1.0048">
        <ele>113.8</ele>
        <time>2022-02-24T01:38:21Z</time>
      </trkpt>
      <trkpt lat="46.84453" lon="-1.00495">
        <ele>113.2</ele>
        <time>2022-02-24T01:38:24Z</time>
      </trkpt>
      <trkpt lat="46.84479" lon="-1.00513">
        <ele>113</ele>
        <time>2022-02-24T01:38:30Z</time>
      </trkpt>
      <trkpt lat="46.84486" lon="-1.00515">
        <ele>113</ele>
        <time>2022-02-24T01:38:31Z</time>
      </trkpt>
      <trkpt lat="46.84496" lon="-1.00512">
        <ele>113</ele>
        <time>2022-02-24T01:38:33Z</time>
      </trkpt>
      <trkpt lat="46.84505" lon="-1.005">
        <ele>112.8</ele>
        <time>2022-02-24T01:38:35Z</time>
      </trkpt>
      <trkpt lat="46.84522" lon="-1.00487">
        <ele>112.6</ele>
        <time>2022-02-24T01:38:38Z</time>
      </trkpt>
      <trkpt lat="46.84531" lon="-1.00484">
        <ele>112.5</ele>
        <time>2022-02-24T01:38:40Z</time>
      </trkpt>
      <trkpt lat="46.8455" lon="-1.00485">
        <ele>112.2</ele>
        <time>2022-02-24T01:38:43Z</time>
      </trkpt>
      <trkpt lat="46.84623" lon="-1.00474">
        <ele>113.5</ele>
        <time>2022-02-24T01:38:56Z</time>
      </trkpt>
      <trkpt lat="46.84695" lon="-1.00451">
        <ele>115.2</ele>
        <time>2022-02-24T01:39:09Z</time>
      </trkpt>
      <trkpt lat="46.8475" lon="-1.0043">
        <ele>116</ele>
        <time>2022-02-24T01:39:20Z</time>
      </trkpt>
      <trkpt lat="46.84765" lon="-1.00426">
        <ele>116</ele>
        <time>2022-02-24T01:39:22Z</time>
      </trkpt>
      <trkpt lat="46.8478" lon="-1.00418">
        <ele>116</ele>
        <time>2022-02-24T01:39:25Z</time>
      </trkpt>
      <trkpt lat="46.84782" lon="-1.00414">
        <ele>116</ele>
        <time>2022-02-24T01:39:26Z</time>
      </trkpt>
      <trkpt lat="46.84793" lon="-1.00407">
        <ele>116</ele>
        <time>2022-02-24T01:39:28Z</time>
      </trkpt>
      <trkpt lat="46.84792" lon="-1.004">
        <ele>116</ele>
        <time>2022-02-24T01:39:29Z</time>
      </trkpt>
      <trkpt lat="46.84828" lon="-1.0039">
        <ele>116</ele>
        <time>2022-02-24T01:39:35Z</time>
      </trkpt>
      <trkpt lat="46.84873" lon="-1.0038">
        <ele>115.2</ele>
        <time>2022-02-24T01:39:43Z</time>
      </trkpt>
      <trkpt lat="46.84918" lon="-1.00379">
        <ele>115</ele>
        <time>2022-02-24T01:39:51Z</time>
      </trkpt>
      <trkpt lat="46.84956" lon="-1.00381">
        <ele>114.3</ele>
        <time>2022-02-24T01:39:58Z</time>
      </trkpt>
      <trkpt lat="46.84987" lon="-1.00387">
        <ele>113.5</ele>
        <time>2022-02-24T01:40:04Z</time>
      </trkpt>
      <trkpt lat="46.85042" lon="-1.00404">
        <ele>111.8</ele>
        <time>2022-02-24T01:40:14Z</time>
      </trkpt>
      <trkpt lat="46.85102" lon="-1.0044">
        <ele>110.4</ele>
        <time>2022-02-24T01:40:25Z</time>
      </trkpt>
      <trkpt lat="46.85261" lon="-1.00556">
        <ele>108.4</ele>
        <time>2022-02-24T01:40:57Z</time>
      </trkpt>
      <trkpt lat="46.85285" lon="-1.00572">
        <ele>109</ele>
        <time>2022-02-24T01:41:02Z</time>
      </trkpt>
      <trkpt lat="46.8534" lon="-1.00587">
        <ele>108.1</ele>
        <time>2022-02-24T01:41:11Z</time>
      </trkpt>
      <trkpt lat="46.85442" lon="-1.00633">
        <ele>106.8</ele>
        <time>2022-02-24T01:41:30Z</time>
      </trkpt>
      <trkpt lat="46.85483" lon="-1.00655">
        <ele>107</ele>
        <time>2022-02-24T01:41:38Z</time>
      </trkpt>
      <trkpt lat="46.85539" lon="-1.00693">
        <ele>108</ele>
        <time>2022-02-24T01:41:49Z</time>
      </trkpt>
      <trkpt lat="46.85562" lon="-1.00711">
        <ele>108.7</ele>
        <time>2022-02-24T01:41:54Z</time>
      </trkpt>
      <trkpt lat="46.85689" lon="-1.0083">
        <ele>111</ele>
        <time>2022-02-24T01:42:21Z</time>
      </trkpt>
      <trkpt lat="46.85838" lon="-1.00917">
        <ele>112</ele>
        <time>2022-02-24T01:42:49Z</time>
      </trkpt>
      <trkpt lat="46.8584" lon="-1.00911">
        <ele>112</ele>
        <time>2022-02-24T01:42:50Z</time>
      </trkpt>
      <trkpt lat="46.85848" lon="-1.00905">
        <ele>112</ele>
        <time>2022-02-24T01:42:52Z</time>
      </trkpt>
      <trkpt lat="46.85852" lon="-1.00904">
        <ele>112</ele>
        <time>2022-02-24T01:42:52Z</time>
      </trkpt>
      <trkpt lat="46.85873" lon="-1.00879">
        <ele>112</ele>
        <time>2022-02-24T01:42:57Z</time>
      </trkpt>
      <trkpt lat="46.85992" lon="-1.00579">
        <ele>112.8</ele>
        <time>2022-02-24T01:43:39Z</time>
      </trkpt>
      <trkpt lat="46.86004" lon="-1.00541">
        <ele>113.7</ele>
        <time>2022-02-24T01:43:45Z</time>
      </trkpt>
      <trkpt lat="46.86041" lon="-1.00409">
        <ele>116</ele>
        <time>2022-02-24T01:44:02Z</time>
      </trkpt>
      <trkpt lat="46.8614" lon="-1.00467">
        <ele>115</ele>
        <time>2022-02-24T01:44:21Z</time>
      </trkpt>
      <trkpt lat="46.8617" lon="-1.00489">
        <ele>115</ele>
        <time>2022-02-24T01:44:27Z</time>
      </trkpt>
      <trkpt lat="46.86189" lon="-1.00512">
        <ele>114.9</ele>
        <time>2022-02-24T01:44:31Z</time>
      </trkpt>
      <trkpt lat="46.86228" lon="-1.00664">
        <ele>116</ele>
        <time>2022-02-24T01:44:51Z</time>
      </trkpt>
      <trkpt lat="46.86234" lon="-1.00681">
        <ele>116.2</ele>
        <time>2022-02-24T01:44:53Z</time>
      </trkpt>
      <trkpt lat="46.8627" lon="-1.00662">
        <ele>117.3</ele>
        <time>2022-02-24T01:45:00Z</time>
      </trkpt>
      <trkpt lat="46.86315" lon="-1.00632">
        <ele>117.8</ele>
        <time>2022-02-24T01:45:09Z</time>
      </trkpt>
      <trkpt lat="46.86335" lon="-1.00614">
        <ele>118.2</ele>
        <time>2022-02-24T01:45:13Z</time>
      </trkpt>
      <trkpt lat="46.86381" lon="-1.00562">
        <ele>119.2</ele>
        <time>2022-02-24T01:45:23Z</time>
      </trkpt>
      <trkpt lat="46.86387" lon="-1.00559">
        <ele>119.1</ele>
        <time>2022-02-24T01:45:25Z</time>
      </trkpt>
    </trkseg>
  </trk>
</gpx>